<?xml version="1.0" encoding="UTF-8" standalone="no" ?>
<gpx xmlns="http://www.topografix.com/GPX/1/1" xmlns:xsi="http://www.w3.org/2001/XMLSchema-instance" xsi:schemaLocation="http://www.topografix.com/GPX/1/1 http://www.topografix.com/GPX/1/1/gpx.xsd" version="1.1" creator="VisuGPX - https://www.visugpx.com">
  <metadata>
    <name>sortie du 26/03/17</name>
    <desc><![CDATA[20km sympa dans la forêt d'Abos]]></desc>
  </metadata>
  <trk>
    <name><![CDATA[Tracé actuel: 26 MARS 2017 08:50]]></name>
    <trkseg>
      <trkpt lat="43.35216" lon="-0.55319">
        <ele>125.59</ele>
        <time>2017-03-26T06:50:17Z</time>
      </trkpt>
      <trkpt lat="43.35218" lon="-0.55318">
        <ele>125.59</ele>
        <time>2017-03-26T06:50:41Z</time>
      </trkpt>
      <trkpt lat="43.35219" lon="-0.55307">
        <ele>126.07</ele>
        <time>2017-03-26T06:50:47Z</time>
      </trkpt>
      <trkpt lat="43.35219" lon="-0.55266">
        <ele>129.43</ele>
        <time>2017-03-26T06:51:01Z</time>
      </trkpt>
      <trkpt lat="43.35211" lon="-0.55223">
        <ele>130.88</ele>
        <time>2017-03-26T06:51:13Z</time>
      </trkpt>
      <trkpt lat="43.35184" lon="-0.55174">
        <ele>131.36</ele>
        <time>2017-03-26T06:51:25Z</time>
      </trkpt>
      <trkpt lat="43.3515" lon="-0.55127">
        <ele>134.24</ele>
        <time>2017-03-26T06:51:37Z</time>
      </trkpt>
      <trkpt lat="43.35146" lon="-0.55125">
        <ele>134.24</ele>
        <time>2017-03-26T06:51:38Z</time>
      </trkpt>
      <trkpt lat="43.35142" lon="-0.55122">
        <ele>134.24</ele>
        <time>2017-03-26T06:51:39Z</time>
      </trkpt>
      <trkpt lat="43.3513" lon="-0.55117">
        <ele>134.24</ele>
        <time>2017-03-26T06:51:42Z</time>
      </trkpt>
      <trkpt lat="43.35117" lon="-0.55113">
        <ele>133.76</ele>
        <time>2017-03-26T06:51:45Z</time>
      </trkpt>
      <trkpt lat="43.35105" lon="-0.55107">
        <ele>132.32</ele>
        <time>2017-03-26T06:51:48Z</time>
      </trkpt>
      <trkpt lat="43.351" lon="-0.55105">
        <ele>131.84</ele>
        <time>2017-03-26T06:51:49Z</time>
      </trkpt>
      <trkpt lat="43.35096" lon="-0.55103">
        <ele>131.36</ele>
        <time>2017-03-26T06:51:50Z</time>
      </trkpt>
      <trkpt lat="43.35077" lon="-0.55093">
        <ele>130.4</ele>
        <time>2017-03-26T06:51:54Z</time>
      </trkpt>
      <trkpt lat="43.35073" lon="-0.5509">
        <ele>130.4</ele>
        <time>2017-03-26T06:51:55Z</time>
      </trkpt>
      <trkpt lat="43.35069" lon="-0.55088">
        <ele>129.92</ele>
        <time>2017-03-26T06:51:56Z</time>
      </trkpt>
      <trkpt lat="43.3504" lon="-0.55073">
        <ele>129.43</ele>
        <time>2017-03-26T06:52:02Z</time>
      </trkpt>
      <trkpt lat="43.35036" lon="-0.5507">
        <ele>129.92</ele>
        <time>2017-03-26T06:52:03Z</time>
      </trkpt>
      <trkpt lat="43.34991" lon="-0.55014">
        <ele>131.36</ele>
        <time>2017-03-26T06:52:16Z</time>
      </trkpt>
      <trkpt lat="43.34988" lon="-0.55009">
        <ele>131.36</ele>
        <time>2017-03-26T06:52:17Z</time>
      </trkpt>
      <trkpt lat="43.34982" lon="-0.55001">
        <ele>131.36</ele>
        <time>2017-03-26T06:52:19Z</time>
      </trkpt>
      <trkpt lat="43.34979" lon="-0.54996">
        <ele>131.36</ele>
        <time>2017-03-26T06:52:20Z</time>
      </trkpt>
      <trkpt lat="43.34976" lon="-0.54991">
        <ele>131.84</ele>
        <time>2017-03-26T06:52:21Z</time>
      </trkpt>
      <trkpt lat="43.34959" lon="-0.54961">
        <ele>132.8</ele>
        <time>2017-03-26T06:52:27Z</time>
      </trkpt>
      <trkpt lat="43.34957" lon="-0.54956">
        <ele>132.8</ele>
        <time>2017-03-26T06:52:28Z</time>
      </trkpt>
      <trkpt lat="43.34955" lon="-0.54951">
        <ele>132.8</ele>
        <time>2017-03-26T06:52:29Z</time>
      </trkpt>
      <trkpt lat="43.34952" lon="-0.54946">
        <ele>133.28</ele>
        <time>2017-03-26T06:52:30Z</time>
      </trkpt>
      <trkpt lat="43.3495" lon="-0.54942">
        <ele>133.28</ele>
        <time>2017-03-26T06:52:31Z</time>
      </trkpt>
      <trkpt lat="43.34921" lon="-0.54912">
        <ele>133.76</ele>
        <time>2017-03-26T06:52:42Z</time>
      </trkpt>
      <trkpt lat="43.34909" lon="-0.54904">
        <ele>134.24</ele>
        <time>2017-03-26T06:52:45Z</time>
      </trkpt>
      <trkpt lat="43.34904" lon="-0.54901">
        <ele>134.24</ele>
        <time>2017-03-26T06:52:46Z</time>
      </trkpt>
      <trkpt lat="43.34857" lon="-0.5489">
        <ele>132.8</ele>
        <time>2017-03-26T06:52:56Z</time>
      </trkpt>
      <trkpt lat="43.34852" lon="-0.54888">
        <ele>132.8</ele>
        <time>2017-03-26T06:52:57Z</time>
      </trkpt>
      <trkpt lat="43.34848" lon="-0.54886">
        <ele>132.8</ele>
        <time>2017-03-26T06:52:58Z</time>
      </trkpt>
      <trkpt lat="43.34844" lon="-0.54883">
        <ele>132.8</ele>
        <time>2017-03-26T06:52:59Z</time>
      </trkpt>
      <trkpt lat="43.34841" lon="-0.54879">
        <ele>132.32</ele>
        <time>2017-03-26T06:53:00Z</time>
      </trkpt>
      <trkpt lat="43.34838" lon="-0.54875">
        <ele>131.84</ele>
        <time>2017-03-26T06:53:01Z</time>
      </trkpt>
      <trkpt lat="43.34835" lon="-0.5487">
        <ele>131.84</ele>
        <time>2017-03-26T06:53:02Z</time>
      </trkpt>
      <trkpt lat="43.34832" lon="-0.54865">
        <ele>131.36</ele>
        <time>2017-03-26T06:53:03Z</time>
      </trkpt>
      <trkpt lat="43.34827" lon="-0.54853">
        <ele>130.88</ele>
        <time>2017-03-26T06:53:05Z</time>
      </trkpt>
      <trkpt lat="43.34826" lon="-0.54847">
        <ele>130.4</ele>
        <time>2017-03-26T06:53:06Z</time>
      </trkpt>
      <trkpt lat="43.34827" lon="-0.54834">
        <ele>129.92</ele>
        <time>2017-03-26T06:53:10Z</time>
      </trkpt>
      <trkpt lat="43.34828" lon="-0.54831">
        <ele>129.92</ele>
        <time>2017-03-26T06:53:11Z</time>
      </trkpt>
      <trkpt lat="43.34829" lon="-0.54828">
        <ele>130.4</ele>
        <time>2017-03-26T06:53:12Z</time>
      </trkpt>
      <trkpt lat="43.34829" lon="-0.54825">
        <ele>130.4</ele>
        <time>2017-03-26T06:53:13Z</time>
      </trkpt>
      <trkpt lat="43.3483" lon="-0.54822">
        <ele>130.88</ele>
        <time>2017-03-26T06:53:14Z</time>
      </trkpt>
      <trkpt lat="43.34845" lon="-0.54793">
        <ele>134.72</ele>
        <time>2017-03-26T06:53:25Z</time>
      </trkpt>
      <trkpt lat="43.34868" lon="-0.54773">
        <ele>138.09</ele>
        <time>2017-03-26T06:53:38Z</time>
      </trkpt>
      <trkpt lat="43.34894" lon="-0.54743">
        <ele>141.45</ele>
        <time>2017-03-26T06:53:56Z</time>
      </trkpt>
      <trkpt lat="43.34911" lon="-0.54705">
        <ele>141.93</ele>
        <time>2017-03-26T06:54:12Z</time>
      </trkpt>
      <trkpt lat="43.34924" lon="-0.54663">
        <ele>142.41</ele>
        <time>2017-03-26T06:54:28Z</time>
      </trkpt>
      <trkpt lat="43.34941" lon="-0.54638">
        <ele>145.78</ele>
        <time>2017-03-26T06:54:41Z</time>
      </trkpt>
      <trkpt lat="43.34973" lon="-0.54634">
        <ele>150.58</ele>
        <time>2017-03-26T06:54:58Z</time>
      </trkpt>
      <trkpt lat="43.34995" lon="-0.54639">
        <ele>156.35</ele>
        <time>2017-03-26T06:55:13Z</time>
      </trkpt>
      <trkpt lat="43.35018" lon="-0.54645">
        <ele>159.72</ele>
        <time>2017-03-26T06:55:28Z</time>
      </trkpt>
      <trkpt lat="43.35042" lon="-0.5465">
        <ele>164.04</ele>
        <time>2017-03-26T06:55:43Z</time>
      </trkpt>
      <trkpt lat="43.35073" lon="-0.54653">
        <ele>166.45</ele>
        <time>2017-03-26T06:56:01Z</time>
      </trkpt>
      <trkpt lat="43.35091" lon="-0.54658">
        <ele>165.48</ele>
        <time>2017-03-26T06:56:15Z</time>
      </trkpt>
      <trkpt lat="43.3511" lon="-0.54639">
        <ele>169.33</ele>
        <time>2017-03-26T06:56:28Z</time>
      </trkpt>
      <trkpt lat="43.35135" lon="-0.54625">
        <ele>176.06</ele>
        <time>2017-03-26T06:56:43Z</time>
      </trkpt>
      <trkpt lat="43.35159" lon="-0.54606">
        <ele>179.42</ele>
        <time>2017-03-26T06:56:57Z</time>
      </trkpt>
      <trkpt lat="43.3516" lon="-0.54605">
        <ele>179.9</ele>
        <time>2017-03-26T06:56:58Z</time>
      </trkpt>
      <trkpt lat="43.35161" lon="-0.54603">
        <ele>179.9</ele>
        <time>2017-03-26T06:56:59Z</time>
      </trkpt>
      <trkpt lat="43.35162" lon="-0.54601">
        <ele>179.9</ele>
        <time>2017-03-26T06:57:00Z</time>
      </trkpt>
      <trkpt lat="43.35165" lon="-0.54591">
        <ele>181.35</ele>
        <time>2017-03-26T06:57:06Z</time>
      </trkpt>
      <trkpt lat="43.35165" lon="-0.54589">
        <ele>181.35</ele>
        <time>2017-03-26T06:57:07Z</time>
      </trkpt>
      <trkpt lat="43.35165" lon="-0.54586">
        <ele>181.83</ele>
        <time>2017-03-26T06:57:08Z</time>
      </trkpt>
      <trkpt lat="43.35165" lon="-0.54584">
        <ele>182.31</ele>
        <time>2017-03-26T06:57:09Z</time>
      </trkpt>
      <trkpt lat="43.35164" lon="-0.54581">
        <ele>182.79</ele>
        <time>2017-03-26T06:57:10Z</time>
      </trkpt>
      <trkpt lat="43.35164" lon="-0.54578">
        <ele>183.27</ele>
        <time>2017-03-26T06:57:11Z</time>
      </trkpt>
      <trkpt lat="43.35164" lon="-0.54576">
        <ele>183.75</ele>
        <time>2017-03-26T06:57:12Z</time>
      </trkpt>
      <trkpt lat="43.35164" lon="-0.54573">
        <ele>184.23</ele>
        <time>2017-03-26T06:57:13Z</time>
      </trkpt>
      <trkpt lat="43.35164" lon="-0.54571">
        <ele>184.71</ele>
        <time>2017-03-26T06:57:14Z</time>
      </trkpt>
      <trkpt lat="43.35164" lon="-0.54569">
        <ele>185.19</ele>
        <time>2017-03-26T06:57:15Z</time>
      </trkpt>
      <trkpt lat="43.35164" lon="-0.54567">
        <ele>186.15</ele>
        <time>2017-03-26T06:57:16Z</time>
      </trkpt>
      <trkpt lat="43.35164" lon="-0.54565">
        <ele>186.63</ele>
        <time>2017-03-26T06:57:17Z</time>
      </trkpt>
      <trkpt lat="43.35164" lon="-0.54541">
        <ele>189.04</ele>
        <time>2017-03-26T06:57:29Z</time>
      </trkpt>
      <trkpt lat="43.35164" lon="-0.54504">
        <ele>183.27</ele>
        <time>2017-03-26T06:57:45Z</time>
      </trkpt>
      <trkpt lat="43.35167" lon="-0.54473">
        <ele>185.19</ele>
        <time>2017-03-26T06:58:02Z</time>
      </trkpt>
      <trkpt lat="43.35173" lon="-0.54452">
        <ele>186.15</ele>
        <time>2017-03-26T06:58:14Z</time>
      </trkpt>
      <trkpt lat="43.35174" lon="-0.5445">
        <ele>186.15</ele>
        <time>2017-03-26T06:58:15Z</time>
      </trkpt>
      <trkpt lat="43.35174" lon="-0.54448">
        <ele>186.15</ele>
        <time>2017-03-26T06:58:16Z</time>
      </trkpt>
      <trkpt lat="43.35174" lon="-0.54445">
        <ele>186.15</ele>
        <time>2017-03-26T06:58:17Z</time>
      </trkpt>
      <trkpt lat="43.35175" lon="-0.54443">
        <ele>186.15</ele>
        <time>2017-03-26T06:58:18Z</time>
      </trkpt>
      <trkpt lat="43.35189" lon="-0.54376">
        <ele>184.71</ele>
        <time>2017-03-26T06:58:35Z</time>
      </trkpt>
      <trkpt lat="43.35196" lon="-0.54339">
        <ele>184.23</ele>
        <time>2017-03-26T06:58:42Z</time>
      </trkpt>
      <trkpt lat="43.35203" lon="-0.54311">
        <ele>182.79</ele>
        <time>2017-03-26T06:58:47Z</time>
      </trkpt>
      <trkpt lat="43.35202" lon="-0.54305">
        <ele>182.79</ele>
        <time>2017-03-26T06:58:48Z</time>
      </trkpt>
      <trkpt lat="43.35202" lon="-0.543">
        <ele>182.79</ele>
        <time>2017-03-26T06:58:49Z</time>
      </trkpt>
      <trkpt lat="43.35201" lon="-0.54294">
        <ele>182.79</ele>
        <time>2017-03-26T06:58:50Z</time>
      </trkpt>
      <trkpt lat="43.35199" lon="-0.5429">
        <ele>183.27</ele>
        <time>2017-03-26T06:58:51Z</time>
      </trkpt>
      <trkpt lat="43.35187" lon="-0.54236">
        <ele>186.63</ele>
        <time>2017-03-26T06:59:05Z</time>
      </trkpt>
      <trkpt lat="43.35174" lon="-0.54196">
        <ele>190</ele>
        <time>2017-03-26T06:59:19Z</time>
      </trkpt>
      <trkpt lat="43.35173" lon="-0.54158">
        <ele>193.36</ele>
        <time>2017-03-26T06:59:35Z</time>
      </trkpt>
      <trkpt lat="43.35175" lon="-0.54143">
        <ele>195.28</ele>
        <time>2017-03-26T06:59:43Z</time>
      </trkpt>
      <trkpt lat="43.35175" lon="-0.54142">
        <ele>195.28</ele>
        <time>2017-03-26T06:59:44Z</time>
      </trkpt>
      <trkpt lat="43.35185" lon="-0.54102">
        <ele>197.21</ele>
        <time>2017-03-26T07:00:04Z</time>
      </trkpt>
      <trkpt lat="43.35188" lon="-0.54066">
        <ele>201.05</ele>
        <time>2017-03-26T07:00:23Z</time>
      </trkpt>
      <trkpt lat="43.35185" lon="-0.5406">
        <ele>201.05</ele>
        <time>2017-03-26T07:00:27Z</time>
      </trkpt>
      <trkpt lat="43.35163" lon="-0.54046">
        <ele>202.98</ele>
        <time>2017-03-26T07:00:40Z</time>
      </trkpt>
      <trkpt lat="43.35138" lon="-0.54035">
        <ele>205.86</ele>
        <time>2017-03-26T07:00:53Z</time>
      </trkpt>
      <trkpt lat="43.35133" lon="-0.54033">
        <ele>205.86</ele>
        <time>2017-03-26T07:00:56Z</time>
      </trkpt>
      <trkpt lat="43.3513" lon="-0.54033">
        <ele>205.86</ele>
        <time>2017-03-26T07:00:57Z</time>
      </trkpt>
      <trkpt lat="43.35103" lon="-0.54019">
        <ele>204.42</ele>
        <time>2017-03-26T07:01:08Z</time>
      </trkpt>
      <trkpt lat="43.3509" lon="-0.53991">
        <ele>203.46</ele>
        <time>2017-03-26T07:01:14Z</time>
      </trkpt>
      <trkpt lat="43.35087" lon="-0.53986">
        <ele>203.46</ele>
        <time>2017-03-26T07:01:15Z</time>
      </trkpt>
      <trkpt lat="43.35084" lon="-0.5398">
        <ele>203.46</ele>
        <time>2017-03-26T07:01:16Z</time>
      </trkpt>
      <trkpt lat="43.35079" lon="-0.53968">
        <ele>203.46</ele>
        <time>2017-03-26T07:01:18Z</time>
      </trkpt>
      <trkpt lat="43.35075" lon="-0.53952">
        <ele>203.94</ele>
        <time>2017-03-26T07:01:20Z</time>
      </trkpt>
      <trkpt lat="43.35072" lon="-0.53935">
        <ele>203.94</ele>
        <time>2017-03-26T07:01:22Z</time>
      </trkpt>
      <trkpt lat="43.35072" lon="-0.53928">
        <ele>203.94</ele>
        <time>2017-03-26T07:01:23Z</time>
      </trkpt>
      <trkpt lat="43.35072" lon="-0.53891">
        <ele>205.38</ele>
        <time>2017-03-26T07:01:29Z</time>
      </trkpt>
      <trkpt lat="43.35066" lon="-0.53851">
        <ele>207.78</ele>
        <time>2017-03-26T07:01:35Z</time>
      </trkpt>
      <trkpt lat="43.35053" lon="-0.53783">
        <ele>209.22</ele>
        <time>2017-03-26T07:01:44Z</time>
      </trkpt>
      <trkpt lat="43.35041" lon="-0.53725">
        <ele>204.42</ele>
        <time>2017-03-26T07:01:51Z</time>
      </trkpt>
      <trkpt lat="43.35037" lon="-0.53721">
        <ele>203.94</ele>
        <time>2017-03-26T07:01:52Z</time>
      </trkpt>
      <trkpt lat="43.35034" lon="-0.53721">
        <ele>202.98</ele>
        <time>2017-03-26T07:01:53Z</time>
      </trkpt>
      <trkpt lat="43.35031" lon="-0.53722">
        <ele>201.53</ele>
        <time>2017-03-26T07:01:54Z</time>
      </trkpt>
      <trkpt lat="43.35027" lon="-0.53725">
        <ele>201.05</ele>
        <time>2017-03-26T07:01:55Z</time>
      </trkpt>
      <trkpt lat="43.35022" lon="-0.5373">
        <ele>199.61</ele>
        <time>2017-03-26T07:01:56Z</time>
      </trkpt>
      <trkpt lat="43.34982" lon="-0.53774">
        <ele>188.56</ele>
        <time>2017-03-26T07:02:04Z</time>
      </trkpt>
      <trkpt lat="43.34974" lon="-0.53784">
        <ele>186.15</ele>
        <time>2017-03-26T07:02:06Z</time>
      </trkpt>
      <trkpt lat="43.34971" lon="-0.53791">
        <ele>184.71</ele>
        <time>2017-03-26T07:02:07Z</time>
      </trkpt>
      <trkpt lat="43.3497" lon="-0.53798">
        <ele>183.75</ele>
        <time>2017-03-26T07:02:08Z</time>
      </trkpt>
      <trkpt lat="43.34969" lon="-0.53807">
        <ele>183.27</ele>
        <time>2017-03-26T07:02:09Z</time>
      </trkpt>
      <trkpt lat="43.3497" lon="-0.53815">
        <ele>182.79</ele>
        <time>2017-03-26T07:02:10Z</time>
      </trkpt>
      <trkpt lat="43.34971" lon="-0.53824">
        <ele>181.83</ele>
        <time>2017-03-26T07:02:11Z</time>
      </trkpt>
      <trkpt lat="43.34971" lon="-0.53834">
        <ele>181.35</ele>
        <time>2017-03-26T07:02:12Z</time>
      </trkpt>
      <trkpt lat="43.34971" lon="-0.53841">
        <ele>181.35</ele>
        <time>2017-03-26T07:02:13Z</time>
      </trkpt>
      <trkpt lat="43.34975" lon="-0.53913">
        <ele>182.31</ele>
        <time>2017-03-26T07:02:24Z</time>
      </trkpt>
      <trkpt lat="43.34976" lon="-0.53918">
        <ele>182.31</ele>
        <time>2017-03-26T07:02:25Z</time>
      </trkpt>
      <trkpt lat="43.34978" lon="-0.53925">
        <ele>182.79</ele>
        <time>2017-03-26T07:02:26Z</time>
      </trkpt>
      <trkpt lat="43.34979" lon="-0.5393">
        <ele>183.75</ele>
        <time>2017-03-26T07:02:27Z</time>
      </trkpt>
      <trkpt lat="43.3498" lon="-0.53936">
        <ele>184.23</ele>
        <time>2017-03-26T07:02:28Z</time>
      </trkpt>
      <trkpt lat="43.35" lon="-0.54004">
        <ele>185.67</ele>
        <time>2017-03-26T07:02:40Z</time>
      </trkpt>
      <trkpt lat="43.35001" lon="-0.54011">
        <ele>185.19</ele>
        <time>2017-03-26T07:02:41Z</time>
      </trkpt>
      <trkpt lat="43.35001" lon="-0.54019">
        <ele>185.19</ele>
        <time>2017-03-26T07:02:42Z</time>
      </trkpt>
      <trkpt lat="43.35001" lon="-0.54026">
        <ele>184.71</ele>
        <time>2017-03-26T07:02:43Z</time>
      </trkpt>
      <trkpt lat="43.35" lon="-0.54033">
        <ele>184.71</ele>
        <time>2017-03-26T07:02:44Z</time>
      </trkpt>
      <trkpt lat="43.34998" lon="-0.54039">
        <ele>184.23</ele>
        <time>2017-03-26T07:02:45Z</time>
      </trkpt>
      <trkpt lat="43.34997" lon="-0.54046">
        <ele>184.23</ele>
        <time>2017-03-26T07:02:46Z</time>
      </trkpt>
      <trkpt lat="43.34995" lon="-0.54051">
        <ele>184.23</ele>
        <time>2017-03-26T07:02:47Z</time>
      </trkpt>
      <trkpt lat="43.34993" lon="-0.54057">
        <ele>183.75</ele>
        <time>2017-03-26T07:02:48Z</time>
      </trkpt>
      <trkpt lat="43.34992" lon="-0.54062">
        <ele>183.75</ele>
        <time>2017-03-26T07:02:49Z</time>
      </trkpt>
      <trkpt lat="43.34988" lon="-0.54148">
        <ele>181.83</ele>
        <time>2017-03-26T07:03:01Z</time>
      </trkpt>
      <trkpt lat="43.34988" lon="-0.54155">
        <ele>181.35</ele>
        <time>2017-03-26T07:03:02Z</time>
      </trkpt>
      <trkpt lat="43.34993" lon="-0.54173">
        <ele>181.83</ele>
        <time>2017-03-26T07:03:05Z</time>
      </trkpt>
      <trkpt lat="43.35004" lon="-0.54204">
        <ele>179.42</ele>
        <time>2017-03-26T07:03:10Z</time>
      </trkpt>
      <trkpt lat="43.35007" lon="-0.54218">
        <ele>177.98</ele>
        <time>2017-03-26T07:03:12Z</time>
      </trkpt>
      <trkpt lat="43.35007" lon="-0.54225">
        <ele>177.02</ele>
        <time>2017-03-26T07:03:13Z</time>
      </trkpt>
      <trkpt lat="43.35006" lon="-0.54232">
        <ele>176.06</ele>
        <time>2017-03-26T07:03:14Z</time>
      </trkpt>
      <trkpt lat="43.35004" lon="-0.54238">
        <ele>175.58</ele>
        <time>2017-03-26T07:03:15Z</time>
      </trkpt>
      <trkpt lat="43.35001" lon="-0.54244">
        <ele>174.62</ele>
        <time>2017-03-26T07:03:16Z</time>
      </trkpt>
      <trkpt lat="43.34996" lon="-0.5425">
        <ele>174.14</ele>
        <time>2017-03-26T07:03:17Z</time>
      </trkpt>
      <trkpt lat="43.34991" lon="-0.54256">
        <ele>173.17</ele>
        <time>2017-03-26T07:03:18Z</time>
      </trkpt>
      <trkpt lat="43.34917" lon="-0.5435">
        <ele>163.56</ele>
        <time>2017-03-26T07:03:29Z</time>
      </trkpt>
      <trkpt lat="43.3491" lon="-0.54359">
        <ele>163.08</ele>
        <time>2017-03-26T07:03:30Z</time>
      </trkpt>
      <trkpt lat="43.34903" lon="-0.54365">
        <ele>163.08</ele>
        <time>2017-03-26T07:03:31Z</time>
      </trkpt>
      <trkpt lat="43.34895" lon="-0.54369">
        <ele>162.6</ele>
        <time>2017-03-26T07:03:32Z</time>
      </trkpt>
      <trkpt lat="43.34887" lon="-0.54371">
        <ele>162.6</ele>
        <time>2017-03-26T07:03:33Z</time>
      </trkpt>
      <trkpt lat="43.34879" lon="-0.54372">
        <ele>161.64</ele>
        <time>2017-03-26T07:03:34Z</time>
      </trkpt>
      <trkpt lat="43.34862" lon="-0.54379">
        <ele>160.2</ele>
        <time>2017-03-26T07:03:36Z</time>
      </trkpt>
      <trkpt lat="43.34854" lon="-0.54385">
        <ele>159.72</ele>
        <time>2017-03-26T07:03:37Z</time>
      </trkpt>
      <trkpt lat="43.34847" lon="-0.54391">
        <ele>159.24</ele>
        <time>2017-03-26T07:03:38Z</time>
      </trkpt>
      <trkpt lat="43.34774" lon="-0.54476">
        <ele>154.43</ele>
        <time>2017-03-26T07:03:50Z</time>
      </trkpt>
      <trkpt lat="43.34695" lon="-0.54567">
        <ele>145.3</ele>
        <time>2017-03-26T07:04:01Z</time>
      </trkpt>
      <trkpt lat="43.34662" lon="-0.54608">
        <ele>140.01</ele>
        <time>2017-03-26T07:04:07Z</time>
      </trkpt>
      <trkpt lat="43.34653" lon="-0.54621">
        <ele>138.57</ele>
        <time>2017-03-26T07:04:11Z</time>
      </trkpt>
      <trkpt lat="43.34651" lon="-0.5462">
        <ele>138.09</ele>
        <time>2017-03-26T07:04:12Z</time>
      </trkpt>
      <trkpt lat="43.3465" lon="-0.54617">
        <ele>138.09</ele>
        <time>2017-03-26T07:04:13Z</time>
      </trkpt>
      <trkpt lat="43.3465" lon="-0.54614">
        <ele>138.09</ele>
        <time>2017-03-26T07:04:14Z</time>
      </trkpt>
      <trkpt lat="43.3465" lon="-0.54611">
        <ele>138.09</ele>
        <time>2017-03-26T07:04:15Z</time>
      </trkpt>
      <trkpt lat="43.34656" lon="-0.54566">
        <ele>141.45</ele>
        <time>2017-03-26T07:04:25Z</time>
      </trkpt>
      <trkpt lat="43.34662" lon="-0.54519">
        <ele>147.22</ele>
        <time>2017-03-26T07:04:35Z</time>
      </trkpt>
      <trkpt lat="43.34665" lon="-0.54497">
        <ele>148.18</ele>
        <time>2017-03-26T07:04:39Z</time>
      </trkpt>
      <trkpt lat="43.34665" lon="-0.54491">
        <ele>148.66</ele>
        <time>2017-03-26T07:04:40Z</time>
      </trkpt>
      <trkpt lat="43.34667" lon="-0.54477">
        <ele>149.14</ele>
        <time>2017-03-26T07:04:42Z</time>
      </trkpt>
      <trkpt lat="43.34675" lon="-0.54431">
        <ele>149.62</ele>
        <time>2017-03-26T07:04:49Z</time>
      </trkpt>
      <trkpt lat="43.34676" lon="-0.54425">
        <ele>149.62</ele>
        <time>2017-03-26T07:04:50Z</time>
      </trkpt>
      <trkpt lat="43.34676" lon="-0.54419">
        <ele>150.1</ele>
        <time>2017-03-26T07:04:51Z</time>
      </trkpt>
      <trkpt lat="43.34675" lon="-0.54413">
        <ele>150.1</ele>
        <time>2017-03-26T07:04:52Z</time>
      </trkpt>
      <trkpt lat="43.34674" lon="-0.54408">
        <ele>150.1</ele>
        <time>2017-03-26T07:04:53Z</time>
      </trkpt>
      <trkpt lat="43.34673" lon="-0.54403">
        <ele>150.58</ele>
        <time>2017-03-26T07:04:54Z</time>
      </trkpt>
      <trkpt lat="43.34672" lon="-0.54397">
        <ele>151.06</ele>
        <time>2017-03-26T07:04:55Z</time>
      </trkpt>
      <trkpt lat="43.34672" lon="-0.54392">
        <ele>151.06</ele>
        <time>2017-03-26T07:04:56Z</time>
      </trkpt>
      <trkpt lat="43.34672" lon="-0.54387">
        <ele>151.06</ele>
        <time>2017-03-26T07:04:57Z</time>
      </trkpt>
      <trkpt lat="43.34673" lon="-0.54383">
        <ele>151.54</ele>
        <time>2017-03-26T07:04:58Z</time>
      </trkpt>
      <trkpt lat="43.34674" lon="-0.54379">
        <ele>151.54</ele>
        <time>2017-03-26T07:04:59Z</time>
      </trkpt>
      <trkpt lat="43.34675" lon="-0.54376">
        <ele>151.54</ele>
        <time>2017-03-26T07:05:00Z</time>
      </trkpt>
      <trkpt lat="43.34676" lon="-0.54373">
        <ele>152.03</ele>
        <time>2017-03-26T07:05:01Z</time>
      </trkpt>
      <trkpt lat="43.34677" lon="-0.54371">
        <ele>152.03</ele>
        <time>2017-03-26T07:05:02Z</time>
      </trkpt>
      <trkpt lat="43.34679" lon="-0.54368">
        <ele>152.03</ele>
        <time>2017-03-26T07:05:03Z</time>
      </trkpt>
      <trkpt lat="43.3468" lon="-0.54365">
        <ele>152.03</ele>
        <time>2017-03-26T07:05:04Z</time>
      </trkpt>
      <trkpt lat="43.34681" lon="-0.54363">
        <ele>152.03</ele>
        <time>2017-03-26T07:05:05Z</time>
      </trkpt>
      <trkpt lat="43.34689" lon="-0.54329">
        <ele>152.51</ele>
        <time>2017-03-26T07:05:17Z</time>
      </trkpt>
      <trkpt lat="43.34695" lon="-0.543">
        <ele>156.83</ele>
        <time>2017-03-26T07:05:31Z</time>
      </trkpt>
      <trkpt lat="43.347" lon="-0.54276">
        <ele>161.16</ele>
        <time>2017-03-26T07:05:44Z</time>
      </trkpt>
      <trkpt lat="43.34707" lon="-0.54243">
        <ele>164.04</ele>
        <time>2017-03-26T07:06:00Z</time>
      </trkpt>
      <trkpt lat="43.34708" lon="-0.5422">
        <ele>167.89</ele>
        <time>2017-03-26T07:06:12Z</time>
      </trkpt>
      <trkpt lat="43.34705" lon="-0.54216">
        <ele>167.41</ele>
        <time>2017-03-26T07:06:15Z</time>
      </trkpt>
      <trkpt lat="43.34703" lon="-0.54215">
        <ele>166.93</ele>
        <time>2017-03-26T07:06:16Z</time>
      </trkpt>
      <trkpt lat="43.34702" lon="-0.54215">
        <ele>166.45</ele>
        <time>2017-03-26T07:06:17Z</time>
      </trkpt>
      <trkpt lat="43.347" lon="-0.54215">
        <ele>166.45</ele>
        <time>2017-03-26T07:06:18Z</time>
      </trkpt>
      <trkpt lat="43.34699" lon="-0.54215">
        <ele>165.96</ele>
        <time>2017-03-26T07:06:19Z</time>
      </trkpt>
      <trkpt lat="43.34697" lon="-0.54215">
        <ele>165.96</ele>
        <time>2017-03-26T07:06:20Z</time>
      </trkpt>
      <trkpt lat="43.34672" lon="-0.54224">
        <ele>162.6</ele>
        <time>2017-03-26T07:06:37Z</time>
      </trkpt>
      <trkpt lat="43.34649" lon="-0.54233">
        <ele>158.75</ele>
        <time>2017-03-26T07:06:52Z</time>
      </trkpt>
      <trkpt lat="43.34629" lon="-0.54241">
        <ele>156.83</ele>
        <time>2017-03-26T07:07:06Z</time>
      </trkpt>
      <trkpt lat="43.34607" lon="-0.54247">
        <ele>156.83</ele>
        <time>2017-03-26T07:07:21Z</time>
      </trkpt>
      <trkpt lat="43.34591" lon="-0.54252">
        <ele>156.83</ele>
        <time>2017-03-26T07:07:32Z</time>
      </trkpt>
      <trkpt lat="43.3459" lon="-0.54252">
        <ele>156.83</ele>
        <time>2017-03-26T07:07:33Z</time>
      </trkpt>
      <trkpt lat="43.34569" lon="-0.54248">
        <ele>152.51</ele>
        <time>2017-03-26T07:07:48Z</time>
      </trkpt>
      <trkpt lat="43.34567" lon="-0.54247">
        <ele>152.51</ele>
        <time>2017-03-26T07:07:49Z</time>
      </trkpt>
      <trkpt lat="43.34566" lon="-0.54246">
        <ele>152.51</ele>
        <time>2017-03-26T07:07:50Z</time>
      </trkpt>
      <trkpt lat="43.34565" lon="-0.54245">
        <ele>152.99</ele>
        <time>2017-03-26T07:07:51Z</time>
      </trkpt>
      <trkpt lat="43.34563" lon="-0.54243">
        <ele>153.47</ele>
        <time>2017-03-26T07:07:52Z</time>
      </trkpt>
      <trkpt lat="43.34562" lon="-0.54242">
        <ele>153.95</ele>
        <time>2017-03-26T07:07:53Z</time>
      </trkpt>
      <trkpt lat="43.34561" lon="-0.5424">
        <ele>154.43</ele>
        <time>2017-03-26T07:07:54Z</time>
      </trkpt>
      <trkpt lat="43.34557" lon="-0.54212">
        <ele>161.16</ele>
        <time>2017-03-26T07:08:07Z</time>
      </trkpt>
      <trkpt lat="43.3456" lon="-0.54205">
        <ele>162.6</ele>
        <time>2017-03-26T07:08:11Z</time>
      </trkpt>
      <trkpt lat="43.34576" lon="-0.54183">
        <ele>165.96</ele>
        <time>2017-03-26T07:08:27Z</time>
      </trkpt>
      <trkpt lat="43.34578" lon="-0.54178">
        <ele>167.41</ele>
        <time>2017-03-26T07:08:30Z</time>
      </trkpt>
      <trkpt lat="43.34578" lon="-0.54176">
        <ele>167.89</ele>
        <time>2017-03-26T07:08:31Z</time>
      </trkpt>
      <trkpt lat="43.34578" lon="-0.54174">
        <ele>168.85</ele>
        <time>2017-03-26T07:08:32Z</time>
      </trkpt>
      <trkpt lat="43.34578" lon="-0.54172">
        <ele>169.33</ele>
        <time>2017-03-26T07:08:33Z</time>
      </trkpt>
      <trkpt lat="43.34577" lon="-0.5417">
        <ele>169.81</ele>
        <time>2017-03-26T07:08:34Z</time>
      </trkpt>
      <trkpt lat="43.34577" lon="-0.54169">
        <ele>170.29</ele>
        <time>2017-03-26T07:08:35Z</time>
      </trkpt>
      <trkpt lat="43.34576" lon="-0.54167">
        <ele>170.29</ele>
        <time>2017-03-26T07:08:36Z</time>
      </trkpt>
      <trkpt lat="43.34575" lon="-0.54166">
        <ele>170.77</ele>
        <time>2017-03-26T07:08:37Z</time>
      </trkpt>
      <trkpt lat="43.34575" lon="-0.54164">
        <ele>171.25</ele>
        <time>2017-03-26T07:08:38Z</time>
      </trkpt>
      <trkpt lat="43.34574" lon="-0.54163">
        <ele>171.73</ele>
        <time>2017-03-26T07:08:39Z</time>
      </trkpt>
      <trkpt lat="43.34562" lon="-0.54149">
        <ele>177.98</ele>
        <time>2017-03-26T07:08:51Z</time>
      </trkpt>
      <trkpt lat="43.3454" lon="-0.54133">
        <ele>178.46</ele>
        <time>2017-03-26T07:09:06Z</time>
      </trkpt>
      <trkpt lat="43.34524" lon="-0.54122">
        <ele>183.27</ele>
        <time>2017-03-26T07:09:17Z</time>
      </trkpt>
      <trkpt lat="43.34522" lon="-0.54122">
        <ele>183.75</ele>
        <time>2017-03-26T07:09:18Z</time>
      </trkpt>
      <trkpt lat="43.3452" lon="-0.54121">
        <ele>184.23</ele>
        <time>2017-03-26T07:09:19Z</time>
      </trkpt>
      <trkpt lat="43.34494" lon="-0.54113">
        <ele>186.15</ele>
        <time>2017-03-26T07:09:33Z</time>
      </trkpt>
      <trkpt lat="43.34474" lon="-0.54097">
        <ele>186.15</ele>
        <time>2017-03-26T07:09:49Z</time>
      </trkpt>
      <trkpt lat="43.34461" lon="-0.54083">
        <ele>185.67</ele>
        <time>2017-03-26T07:10:00Z</time>
      </trkpt>
      <trkpt lat="43.34459" lon="-0.54072">
        <ele>187.11</ele>
        <time>2017-03-26T07:10:06Z</time>
      </trkpt>
      <trkpt lat="43.34473" lon="-0.54063">
        <ele>190.48</ele>
        <time>2017-03-26T07:10:18Z</time>
      </trkpt>
      <trkpt lat="43.34495" lon="-0.54047">
        <ele>189.52</ele>
        <time>2017-03-26T07:10:35Z</time>
      </trkpt>
      <trkpt lat="43.3451" lon="-0.54028">
        <ele>188.56</ele>
        <time>2017-03-26T07:10:50Z</time>
      </trkpt>
      <trkpt lat="43.34514" lon="-0.54023">
        <ele>190</ele>
        <time>2017-03-26T07:10:53Z</time>
      </trkpt>
      <trkpt lat="43.34515" lon="-0.54021">
        <ele>190.48</ele>
        <time>2017-03-26T07:10:54Z</time>
      </trkpt>
      <trkpt lat="43.34518" lon="-0.54016">
        <ele>191.44</ele>
        <time>2017-03-26T07:10:57Z</time>
      </trkpt>
      <trkpt lat="43.34519" lon="-0.54014">
        <ele>191.92</ele>
        <time>2017-03-26T07:10:58Z</time>
      </trkpt>
      <trkpt lat="43.34519" lon="-0.54012">
        <ele>192.88</ele>
        <time>2017-03-26T07:10:59Z</time>
      </trkpt>
      <trkpt lat="43.3452" lon="-0.54011">
        <ele>192.88</ele>
        <time>2017-03-26T07:11:00Z</time>
      </trkpt>
      <trkpt lat="43.34521" lon="-0.54009">
        <ele>193.84</ele>
        <time>2017-03-26T07:11:01Z</time>
      </trkpt>
      <trkpt lat="43.34522" lon="-0.54007">
        <ele>193.84</ele>
        <time>2017-03-26T07:11:02Z</time>
      </trkpt>
      <trkpt lat="43.34522" lon="-0.54005">
        <ele>194.8</ele>
        <time>2017-03-26T07:11:03Z</time>
      </trkpt>
      <trkpt lat="43.34523" lon="-0.54004">
        <ele>195.28</ele>
        <time>2017-03-26T07:11:04Z</time>
      </trkpt>
      <trkpt lat="43.34524" lon="-0.54002">
        <ele>195.77</ele>
        <time>2017-03-26T07:11:05Z</time>
      </trkpt>
      <trkpt lat="43.3453" lon="-0.53974">
        <ele>198.65</ele>
        <time>2017-03-26T07:11:19Z</time>
      </trkpt>
      <trkpt lat="43.3453" lon="-0.5396">
        <ele>198.65</ele>
        <time>2017-03-26T07:11:27Z</time>
      </trkpt>
      <trkpt lat="43.3453" lon="-0.53958">
        <ele>198.65</ele>
        <time>2017-03-26T07:11:28Z</time>
      </trkpt>
      <trkpt lat="43.3453" lon="-0.53956">
        <ele>198.65</ele>
        <time>2017-03-26T07:11:29Z</time>
      </trkpt>
      <trkpt lat="43.34526" lon="-0.53936">
        <ele>204.9</ele>
        <time>2017-03-26T07:11:41Z</time>
      </trkpt>
      <trkpt lat="43.34521" lon="-0.53911">
        <ele>213.07</ele>
        <time>2017-03-26T07:11:55Z</time>
      </trkpt>
      <trkpt lat="43.34519" lon="-0.53893">
        <ele>215.95</ele>
        <time>2017-03-26T07:12:07Z</time>
      </trkpt>
      <trkpt lat="43.34513" lon="-0.53859">
        <ele>219.32</ele>
        <time>2017-03-26T07:12:21Z</time>
      </trkpt>
      <trkpt lat="43.3452" lon="-0.53817">
        <ele>220.28</ele>
        <time>2017-03-26T07:12:36Z</time>
      </trkpt>
      <trkpt lat="43.34521" lon="-0.53808">
        <ele>219.8</ele>
        <time>2017-03-26T07:12:39Z</time>
      </trkpt>
      <trkpt lat="43.34531" lon="-0.53772">
        <ele>219.32</ele>
        <time>2017-03-26T07:12:54Z</time>
      </trkpt>
      <trkpt lat="43.34542" lon="-0.53742">
        <ele>216.91</ele>
        <time>2017-03-26T07:13:10Z</time>
      </trkpt>
      <trkpt lat="43.34551" lon="-0.53715">
        <ele>215.95</ele>
        <time>2017-03-26T07:13:24Z</time>
      </trkpt>
      <trkpt lat="43.3456" lon="-0.53683">
        <ele>219.8</ele>
        <time>2017-03-26T07:13:40Z</time>
      </trkpt>
      <trkpt lat="43.34569" lon="-0.53655">
        <ele>222.2</ele>
        <time>2017-03-26T07:13:56Z</time>
      </trkpt>
      <trkpt lat="43.34571" lon="-0.53654">
        <ele>223.16</ele>
        <time>2017-03-26T07:13:58Z</time>
      </trkpt>
      <trkpt lat="43.34572" lon="-0.53655">
        <ele>223.16</ele>
        <time>2017-03-26T07:13:59Z</time>
      </trkpt>
      <trkpt lat="43.34574" lon="-0.53654">
        <ele>223.16</ele>
        <time>2017-03-26T07:14:00Z</time>
      </trkpt>
      <trkpt lat="43.34576" lon="-0.53653">
        <ele>223.64</ele>
        <time>2017-03-26T07:14:01Z</time>
      </trkpt>
      <trkpt lat="43.34578" lon="-0.53652">
        <ele>223.64</ele>
        <time>2017-03-26T07:14:02Z</time>
      </trkpt>
      <trkpt lat="43.34603" lon="-0.53628">
        <ele>222.2</ele>
        <time>2017-03-26T07:14:12Z</time>
      </trkpt>
      <trkpt lat="43.34611" lon="-0.53616">
        <ele>221.72</ele>
        <time>2017-03-26T07:14:14Z</time>
      </trkpt>
      <trkpt lat="43.3463" lon="-0.53581">
        <ele>219.8</ele>
        <time>2017-03-26T07:14:19Z</time>
      </trkpt>
      <trkpt lat="43.34633" lon="-0.53573">
        <ele>219.32</ele>
        <time>2017-03-26T07:14:20Z</time>
      </trkpt>
      <trkpt lat="43.34642" lon="-0.53536">
        <ele>218.84</ele>
        <time>2017-03-26T07:14:24Z</time>
      </trkpt>
      <trkpt lat="43.34658" lon="-0.53493">
        <ele>218.36</ele>
        <time>2017-03-26T07:14:28Z</time>
      </trkpt>
      <trkpt lat="43.34663" lon="-0.53482">
        <ele>217.88</ele>
        <time>2017-03-26T07:14:29Z</time>
      </trkpt>
      <trkpt lat="43.34668" lon="-0.53474">
        <ele>217.88</ele>
        <time>2017-03-26T07:14:30Z</time>
      </trkpt>
      <trkpt lat="43.34672" lon="-0.53465">
        <ele>217.88</ele>
        <time>2017-03-26T07:14:31Z</time>
      </trkpt>
      <trkpt lat="43.34675" lon="-0.53456">
        <ele>217.4</ele>
        <time>2017-03-26T07:14:32Z</time>
      </trkpt>
      <trkpt lat="43.34697" lon="-0.53367">
        <ele>213.07</ele>
        <time>2017-03-26T07:14:42Z</time>
      </trkpt>
      <trkpt lat="43.34699" lon="-0.53353">
        <ele>212.59</ele>
        <time>2017-03-26T07:14:44Z</time>
      </trkpt>
      <trkpt lat="43.34702" lon="-0.53331">
        <ele>212.59</ele>
        <time>2017-03-26T07:14:47Z</time>
      </trkpt>
      <trkpt lat="43.34726" lon="-0.53263">
        <ele>211.15</ele>
        <time>2017-03-26T07:15:01Z</time>
      </trkpt>
      <trkpt lat="43.34756" lon="-0.53216">
        <ele>205.38</ele>
        <time>2017-03-26T07:15:12Z</time>
      </trkpt>
      <trkpt lat="43.34798" lon="-0.53171">
        <ele>200.57</ele>
        <time>2017-03-26T07:15:22Z</time>
      </trkpt>
      <trkpt lat="43.34804" lon="-0.53168">
        <ele>200.57</ele>
        <time>2017-03-26T07:15:26Z</time>
      </trkpt>
      <trkpt lat="43.34805" lon="-0.53166">
        <ele>200.57</ele>
        <time>2017-03-26T07:15:27Z</time>
      </trkpt>
      <trkpt lat="43.34806" lon="-0.53164">
        <ele>200.57</ele>
        <time>2017-03-26T07:15:28Z</time>
      </trkpt>
      <trkpt lat="43.34805" lon="-0.53162">
        <ele>200.57</ele>
        <time>2017-03-26T07:15:29Z</time>
      </trkpt>
      <trkpt lat="43.34804" lon="-0.53161">
        <ele>201.05</ele>
        <time>2017-03-26T07:15:30Z</time>
      </trkpt>
      <trkpt lat="43.34803" lon="-0.53161">
        <ele>201.53</ele>
        <time>2017-03-26T07:15:31Z</time>
      </trkpt>
      <trkpt lat="43.34801" lon="-0.53161">
        <ele>201.53</ele>
        <time>2017-03-26T07:15:32Z</time>
      </trkpt>
      <trkpt lat="43.348" lon="-0.53161">
        <ele>201.53</ele>
        <time>2017-03-26T07:15:33Z</time>
      </trkpt>
      <trkpt lat="43.34798" lon="-0.53161">
        <ele>201.53</ele>
        <time>2017-03-26T07:15:34Z</time>
      </trkpt>
      <trkpt lat="43.34797" lon="-0.5316">
        <ele>201.53</ele>
        <time>2017-03-26T07:15:35Z</time>
      </trkpt>
      <trkpt lat="43.34796" lon="-0.5316">
        <ele>201.53</ele>
        <time>2017-03-26T07:15:36Z</time>
      </trkpt>
      <trkpt lat="43.34794" lon="-0.53159">
        <ele>201.53</ele>
        <time>2017-03-26T07:15:37Z</time>
      </trkpt>
      <trkpt lat="43.34793" lon="-0.53159">
        <ele>201.05</ele>
        <time>2017-03-26T07:15:38Z</time>
      </trkpt>
      <trkpt lat="43.34791" lon="-0.53158">
        <ele>201.05</ele>
        <time>2017-03-26T07:15:39Z</time>
      </trkpt>
      <trkpt lat="43.3479" lon="-0.53158">
        <ele>201.05</ele>
        <time>2017-03-26T07:15:40Z</time>
      </trkpt>
      <trkpt lat="43.34789" lon="-0.53157">
        <ele>201.05</ele>
        <time>2017-03-26T07:15:41Z</time>
      </trkpt>
      <trkpt lat="43.34787" lon="-0.53157">
        <ele>201.05</ele>
        <time>2017-03-26T07:15:42Z</time>
      </trkpt>
      <trkpt lat="43.34785" lon="-0.53157">
        <ele>201.05</ele>
        <time>2017-03-26T07:15:43Z</time>
      </trkpt>
      <trkpt lat="43.34774" lon="-0.53149">
        <ele>201.53</ele>
        <time>2017-03-26T07:15:52Z</time>
      </trkpt>
      <trkpt lat="43.34772" lon="-0.53148">
        <ele>202.01</ele>
        <time>2017-03-26T07:15:53Z</time>
      </trkpt>
      <trkpt lat="43.34762" lon="-0.53143">
        <ele>203.94</ele>
        <time>2017-03-26T07:16:01Z</time>
      </trkpt>
      <trkpt lat="43.34752" lon="-0.5312">
        <ele>207.3</ele>
        <time>2017-03-26T07:16:14Z</time>
      </trkpt>
      <trkpt lat="43.34743" lon="-0.53109">
        <ele>206.82</ele>
        <time>2017-03-26T07:16:21Z</time>
      </trkpt>
      <trkpt lat="43.34742" lon="-0.53107">
        <ele>207.3</ele>
        <time>2017-03-26T07:16:22Z</time>
      </trkpt>
      <trkpt lat="43.34741" lon="-0.53105">
        <ele>207.3</ele>
        <time>2017-03-26T07:16:23Z</time>
      </trkpt>
      <trkpt lat="43.34725" lon="-0.53083">
        <ele>211.15</ele>
        <time>2017-03-26T07:16:37Z</time>
      </trkpt>
      <trkpt lat="43.34701" lon="-0.53061">
        <ele>212.11</ele>
        <time>2017-03-26T07:16:49Z</time>
      </trkpt>
      <trkpt lat="43.34684" lon="-0.53044">
        <ele>214.51</ele>
        <time>2017-03-26T07:16:59Z</time>
      </trkpt>
      <trkpt lat="43.34669" lon="-0.53029">
        <ele>217.88</ele>
        <time>2017-03-26T07:17:07Z</time>
      </trkpt>
      <trkpt lat="43.34667" lon="-0.53027">
        <ele>218.36</ele>
        <time>2017-03-26T07:17:08Z</time>
      </trkpt>
      <trkpt lat="43.34666" lon="-0.53026">
        <ele>218.84</ele>
        <time>2017-03-26T07:17:09Z</time>
      </trkpt>
      <trkpt lat="43.34664" lon="-0.53025">
        <ele>219.32</ele>
        <time>2017-03-26T07:17:10Z</time>
      </trkpt>
      <trkpt lat="43.34662" lon="-0.53024">
        <ele>219.8</ele>
        <time>2017-03-26T07:17:11Z</time>
      </trkpt>
      <trkpt lat="43.34639" lon="-0.53005">
        <ele>219.8</ele>
        <time>2017-03-26T07:17:22Z</time>
      </trkpt>
      <trkpt lat="43.34625" lon="-0.52989">
        <ele>221.24</ele>
        <time>2017-03-26T07:17:29Z</time>
      </trkpt>
      <trkpt lat="43.34623" lon="-0.52987">
        <ele>221.72</ele>
        <time>2017-03-26T07:17:30Z</time>
      </trkpt>
      <trkpt lat="43.34621" lon="-0.52985">
        <ele>222.2</ele>
        <time>2017-03-26T07:17:31Z</time>
      </trkpt>
      <trkpt lat="43.34619" lon="-0.52984">
        <ele>222.2</ele>
        <time>2017-03-26T07:17:32Z</time>
      </trkpt>
      <trkpt lat="43.34617" lon="-0.52982">
        <ele>222.2</ele>
        <time>2017-03-26T07:17:33Z</time>
      </trkpt>
      <trkpt lat="43.34594" lon="-0.52967">
        <ele>222.2</ele>
        <time>2017-03-26T07:17:44Z</time>
      </trkpt>
      <trkpt lat="43.34589" lon="-0.52963">
        <ele>223.16</ele>
        <time>2017-03-26T07:17:46Z</time>
      </trkpt>
      <trkpt lat="43.34587" lon="-0.52961">
        <ele>223.64</ele>
        <time>2017-03-26T07:17:47Z</time>
      </trkpt>
      <trkpt lat="43.34586" lon="-0.5296">
        <ele>224.12</ele>
        <time>2017-03-26T07:17:48Z</time>
      </trkpt>
      <trkpt lat="43.34584" lon="-0.52957">
        <ele>224.61</ele>
        <time>2017-03-26T07:17:49Z</time>
      </trkpt>
      <trkpt lat="43.34582" lon="-0.52956">
        <ele>225.09</ele>
        <time>2017-03-26T07:17:50Z</time>
      </trkpt>
      <trkpt lat="43.3458" lon="-0.52954">
        <ele>225.09</ele>
        <time>2017-03-26T07:17:51Z</time>
      </trkpt>
      <trkpt lat="43.34579" lon="-0.52952">
        <ele>225.09</ele>
        <time>2017-03-26T07:17:52Z</time>
      </trkpt>
      <trkpt lat="43.34577" lon="-0.5295">
        <ele>225.09</ele>
        <time>2017-03-26T07:17:53Z</time>
      </trkpt>
      <trkpt lat="43.34556" lon="-0.52934">
        <ele>223.16</ele>
        <time>2017-03-26T07:18:02Z</time>
      </trkpt>
      <trkpt lat="43.34549" lon="-0.52926">
        <ele>223.16</ele>
        <time>2017-03-26T07:18:07Z</time>
      </trkpt>
      <trkpt lat="43.34547" lon="-0.52925">
        <ele>223.16</ele>
        <time>2017-03-26T07:18:08Z</time>
      </trkpt>
      <trkpt lat="43.34545" lon="-0.52924">
        <ele>222.68</ele>
        <time>2017-03-26T07:18:09Z</time>
      </trkpt>
      <trkpt lat="43.34542" lon="-0.52921">
        <ele>222.68</ele>
        <time>2017-03-26T07:18:10Z</time>
      </trkpt>
      <trkpt lat="43.3454" lon="-0.52918">
        <ele>222.68</ele>
        <time>2017-03-26T07:18:11Z</time>
      </trkpt>
      <trkpt lat="43.34515" lon="-0.52878">
        <ele>223.64</ele>
        <time>2017-03-26T07:18:22Z</time>
      </trkpt>
      <trkpt lat="43.34498" lon="-0.52858">
        <ele>222.2</ele>
        <time>2017-03-26T07:18:32Z</time>
      </trkpt>
      <trkpt lat="43.34486" lon="-0.52843">
        <ele>221.24</ele>
        <time>2017-03-26T07:18:42Z</time>
      </trkpt>
      <trkpt lat="43.34484" lon="-0.52837">
        <ele>221.72</ele>
        <time>2017-03-26T07:18:46Z</time>
      </trkpt>
      <trkpt lat="43.34478" lon="-0.52829">
        <ele>222.68</ele>
        <time>2017-03-26T07:18:50Z</time>
      </trkpt>
      <trkpt lat="43.34467" lon="-0.52788">
        <ele>225.57</ele>
        <time>2017-03-26T07:19:00Z</time>
      </trkpt>
      <trkpt lat="43.34464" lon="-0.52758">
        <ele>227.49</ele>
        <time>2017-03-26T07:19:06Z</time>
      </trkpt>
      <trkpt lat="43.34461" lon="-0.52728">
        <ele>229.89</ele>
        <time>2017-03-26T07:19:14Z</time>
      </trkpt>
      <trkpt lat="43.3446" lon="-0.52724">
        <ele>230.37</ele>
        <time>2017-03-26T07:19:15Z</time>
      </trkpt>
      <trkpt lat="43.34458" lon="-0.5272">
        <ele>230.37</ele>
        <time>2017-03-26T07:19:16Z</time>
      </trkpt>
      <trkpt lat="43.34456" lon="-0.52717">
        <ele>230.37</ele>
        <time>2017-03-26T07:19:17Z</time>
      </trkpt>
      <trkpt lat="43.34454" lon="-0.52715">
        <ele>230.37</ele>
        <time>2017-03-26T07:19:18Z</time>
      </trkpt>
      <trkpt lat="43.34442" lon="-0.52702">
        <ele>226.53</ele>
        <time>2017-03-26T07:19:24Z</time>
      </trkpt>
      <trkpt lat="43.34441" lon="-0.52697">
        <ele>225.57</ele>
        <time>2017-03-26T07:19:25Z</time>
      </trkpt>
      <trkpt lat="43.34441" lon="-0.52691">
        <ele>225.09</ele>
        <time>2017-03-26T07:19:26Z</time>
      </trkpt>
      <trkpt lat="43.34441" lon="-0.52686">
        <ele>225.09</ele>
        <time>2017-03-26T07:19:27Z</time>
      </trkpt>
      <trkpt lat="43.3444" lon="-0.52682">
        <ele>224.61</ele>
        <time>2017-03-26T07:19:28Z</time>
      </trkpt>
      <trkpt lat="43.34438" lon="-0.52679">
        <ele>224.12</ele>
        <time>2017-03-26T07:19:29Z</time>
      </trkpt>
      <trkpt lat="43.34435" lon="-0.52677">
        <ele>224.12</ele>
        <time>2017-03-26T07:19:30Z</time>
      </trkpt>
      <trkpt lat="43.34428" lon="-0.52675">
        <ele>223.16</ele>
        <time>2017-03-26T07:19:33Z</time>
      </trkpt>
      <trkpt lat="43.34426" lon="-0.52672">
        <ele>223.16</ele>
        <time>2017-03-26T07:19:34Z</time>
      </trkpt>
      <trkpt lat="43.34426" lon="-0.52668">
        <ele>222.68</ele>
        <time>2017-03-26T07:19:35Z</time>
      </trkpt>
      <trkpt lat="43.34424" lon="-0.52651">
        <ele>221.72</ele>
        <time>2017-03-26T07:19:41Z</time>
      </trkpt>
      <trkpt lat="43.3442" lon="-0.52641">
        <ele>220.76</ele>
        <time>2017-03-26T07:19:45Z</time>
      </trkpt>
      <trkpt lat="43.34418" lon="-0.5262">
        <ele>220.76</ele>
        <time>2017-03-26T07:19:51Z</time>
      </trkpt>
      <trkpt lat="43.3441" lon="-0.5261">
        <ele>218.84</ele>
        <time>2017-03-26T07:20:01Z</time>
      </trkpt>
      <trkpt lat="43.34405" lon="-0.52607">
        <ele>220.28</ele>
        <time>2017-03-26T07:20:12Z</time>
      </trkpt>
      <trkpt lat="43.34398" lon="-0.52602">
        <ele>220.76</ele>
        <time>2017-03-26T07:20:23Z</time>
      </trkpt>
      <trkpt lat="43.34392" lon="-0.52595">
        <ele>222.68</ele>
        <time>2017-03-26T07:20:36Z</time>
      </trkpt>
      <trkpt lat="43.34379" lon="-0.5258">
        <ele>223.16</ele>
        <time>2017-03-26T07:20:45Z</time>
      </trkpt>
      <trkpt lat="43.34365" lon="-0.5255">
        <ele>224.61</ele>
        <time>2017-03-26T07:20:54Z</time>
      </trkpt>
      <trkpt lat="43.34363" lon="-0.52534">
        <ele>225.57</ele>
        <time>2017-03-26T07:21:00Z</time>
      </trkpt>
      <trkpt lat="43.34358" lon="-0.52521">
        <ele>227.01</ele>
        <time>2017-03-26T07:21:06Z</time>
      </trkpt>
      <trkpt lat="43.34356" lon="-0.52519">
        <ele>227.01</ele>
        <time>2017-03-26T07:21:07Z</time>
      </trkpt>
      <trkpt lat="43.34354" lon="-0.52518">
        <ele>227.01</ele>
        <time>2017-03-26T07:21:08Z</time>
      </trkpt>
      <trkpt lat="43.34353" lon="-0.52516">
        <ele>227.49</ele>
        <time>2017-03-26T07:21:09Z</time>
      </trkpt>
      <trkpt lat="43.3434" lon="-0.52492">
        <ele>228.45</ele>
        <time>2017-03-26T07:21:20Z</time>
      </trkpt>
      <trkpt lat="43.34336" lon="-0.52487">
        <ele>228.45</ele>
        <time>2017-03-26T07:21:22Z</time>
      </trkpt>
      <trkpt lat="43.34333" lon="-0.52484">
        <ele>227.97</ele>
        <time>2017-03-26T07:21:23Z</time>
      </trkpt>
      <trkpt lat="43.34331" lon="-0.52482">
        <ele>228.45</ele>
        <time>2017-03-26T07:21:24Z</time>
      </trkpt>
      <trkpt lat="43.3431" lon="-0.52456">
        <ele>229.41</ele>
        <time>2017-03-26T07:21:34Z</time>
      </trkpt>
      <trkpt lat="43.34309" lon="-0.52454">
        <ele>229.41</ele>
        <time>2017-03-26T07:21:35Z</time>
      </trkpt>
      <trkpt lat="43.34307" lon="-0.52452">
        <ele>229.41</ele>
        <time>2017-03-26T07:21:36Z</time>
      </trkpt>
      <trkpt lat="43.34294" lon="-0.52419">
        <ele>230.37</ele>
        <time>2017-03-26T07:21:49Z</time>
      </trkpt>
      <trkpt lat="43.34293" lon="-0.52416">
        <ele>230.37</ele>
        <time>2017-03-26T07:21:50Z</time>
      </trkpt>
      <trkpt lat="43.34287" lon="-0.52386">
        <ele>233.26</ele>
        <time>2017-03-26T07:22:01Z</time>
      </trkpt>
      <trkpt lat="43.34286" lon="-0.52382">
        <ele>233.26</ele>
        <time>2017-03-26T07:22:02Z</time>
      </trkpt>
      <trkpt lat="43.34275" lon="-0.52363">
        <ele>230.85</ele>
        <time>2017-03-26T07:22:07Z</time>
      </trkpt>
      <trkpt lat="43.34272" lon="-0.52359">
        <ele>229.89</ele>
        <time>2017-03-26T07:22:08Z</time>
      </trkpt>
      <trkpt lat="43.3427" lon="-0.52356">
        <ele>229.89</ele>
        <time>2017-03-26T07:22:09Z</time>
      </trkpt>
      <trkpt lat="43.34268" lon="-0.52353">
        <ele>229.41</ele>
        <time>2017-03-26T07:22:10Z</time>
      </trkpt>
      <trkpt lat="43.34266" lon="-0.5235">
        <ele>228.93</ele>
        <time>2017-03-26T07:22:11Z</time>
      </trkpt>
      <trkpt lat="43.34264" lon="-0.52348">
        <ele>228.45</ele>
        <time>2017-03-26T07:22:12Z</time>
      </trkpt>
      <trkpt lat="43.3424" lon="-0.52334">
        <ele>227.01</ele>
        <time>2017-03-26T07:22:21Z</time>
      </trkpt>
      <trkpt lat="43.34211" lon="-0.52323">
        <ele>224.12</ele>
        <time>2017-03-26T07:22:33Z</time>
      </trkpt>
      <trkpt lat="43.3419" lon="-0.52307">
        <ele>226.53</ele>
        <time>2017-03-26T07:22:45Z</time>
      </trkpt>
      <trkpt lat="43.34176" lon="-0.52292">
        <ele>228.45</ele>
        <time>2017-03-26T07:22:54Z</time>
      </trkpt>
      <trkpt lat="43.3415" lon="-0.52272">
        <ele>230.37</ele>
        <time>2017-03-26T07:23:08Z</time>
      </trkpt>
      <trkpt lat="43.34128" lon="-0.52262">
        <ele>228.93</ele>
        <time>2017-03-26T07:23:19Z</time>
      </trkpt>
      <trkpt lat="43.3411" lon="-0.52246">
        <ele>227.97</ele>
        <time>2017-03-26T07:23:29Z</time>
      </trkpt>
      <trkpt lat="43.34098" lon="-0.52231">
        <ele>227.97</ele>
        <time>2017-03-26T07:23:33Z</time>
      </trkpt>
      <trkpt lat="43.34095" lon="-0.52226">
        <ele>227.49</ele>
        <time>2017-03-26T07:23:34Z</time>
      </trkpt>
      <trkpt lat="43.34091" lon="-0.52222">
        <ele>226.53</ele>
        <time>2017-03-26T07:23:35Z</time>
      </trkpt>
      <trkpt lat="43.34087" lon="-0.52218">
        <ele>226.05</ele>
        <time>2017-03-26T07:23:36Z</time>
      </trkpt>
      <trkpt lat="43.34083" lon="-0.52215">
        <ele>225.57</ele>
        <time>2017-03-26T07:23:37Z</time>
      </trkpt>
      <trkpt lat="43.34078" lon="-0.52212">
        <ele>225.57</ele>
        <time>2017-03-26T07:23:38Z</time>
      </trkpt>
      <trkpt lat="43.34074" lon="-0.52209">
        <ele>225.09</ele>
        <time>2017-03-26T07:23:39Z</time>
      </trkpt>
      <trkpt lat="43.34068" lon="-0.52207">
        <ele>225.09</ele>
        <time>2017-03-26T07:23:40Z</time>
      </trkpt>
      <trkpt lat="43.34063" lon="-0.52205">
        <ele>224.61</ele>
        <time>2017-03-26T07:23:41Z</time>
      </trkpt>
      <trkpt lat="43.34059" lon="-0.52202">
        <ele>224.61</ele>
        <time>2017-03-26T07:23:42Z</time>
      </trkpt>
      <trkpt lat="43.34055" lon="-0.52199">
        <ele>224.61</ele>
        <time>2017-03-26T07:23:43Z</time>
      </trkpt>
      <trkpt lat="43.34053" lon="-0.52197">
        <ele>224.61</ele>
        <time>2017-03-26T07:23:44Z</time>
      </trkpt>
      <trkpt lat="43.3405" lon="-0.52195">
        <ele>224.61</ele>
        <time>2017-03-26T07:23:45Z</time>
      </trkpt>
      <trkpt lat="43.34048" lon="-0.52193">
        <ele>224.61</ele>
        <time>2017-03-26T07:23:46Z</time>
      </trkpt>
      <trkpt lat="43.34018" lon="-0.5218">
        <ele>226.05</ele>
        <time>2017-03-26T07:23:56Z</time>
      </trkpt>
      <trkpt lat="43.34015" lon="-0.52178">
        <ele>226.05</ele>
        <time>2017-03-26T07:23:58Z</time>
      </trkpt>
      <trkpt lat="43.34013" lon="-0.52179">
        <ele>226.05</ele>
        <time>2017-03-26T07:23:59Z</time>
      </trkpt>
      <trkpt lat="43.34012" lon="-0.52181">
        <ele>225.09</ele>
        <time>2017-03-26T07:24:00Z</time>
      </trkpt>
      <trkpt lat="43.34012" lon="-0.52183">
        <ele>224.61</ele>
        <time>2017-03-26T07:24:01Z</time>
      </trkpt>
      <trkpt lat="43.34013" lon="-0.52186">
        <ele>224.12</ele>
        <time>2017-03-26T07:24:02Z</time>
      </trkpt>
      <trkpt lat="43.34015" lon="-0.5219">
        <ele>223.16</ele>
        <time>2017-03-26T07:24:03Z</time>
      </trkpt>
      <trkpt lat="43.34017" lon="-0.52196">
        <ele>222.68</ele>
        <time>2017-03-26T07:24:04Z</time>
      </trkpt>
      <trkpt lat="43.34019" lon="-0.52203">
        <ele>221.72</ele>
        <time>2017-03-26T07:24:05Z</time>
      </trkpt>
      <trkpt lat="43.3404" lon="-0.52256">
        <ele>214.51</ele>
        <time>2017-03-26T07:24:13Z</time>
      </trkpt>
      <trkpt lat="43.34057" lon="-0.52277">
        <ele>212.59</ele>
        <time>2017-03-26T07:24:24Z</time>
      </trkpt>
      <trkpt lat="43.34077" lon="-0.52308">
        <ele>213.55</ele>
        <time>2017-03-26T07:24:38Z</time>
      </trkpt>
      <trkpt lat="43.34087" lon="-0.52348">
        <ele>206.34</ele>
        <time>2017-03-26T07:24:49Z</time>
      </trkpt>
      <trkpt lat="43.34106" lon="-0.52396">
        <ele>202.49</ele>
        <time>2017-03-26T07:25:00Z</time>
      </trkpt>
      <trkpt lat="43.34127" lon="-0.52454">
        <ele>202.01</ele>
        <time>2017-03-26T07:25:12Z</time>
      </trkpt>
      <trkpt lat="43.34131" lon="-0.52463">
        <ele>202.01</ele>
        <time>2017-03-26T07:25:14Z</time>
      </trkpt>
      <trkpt lat="43.34152" lon="-0.52523">
        <ele>196.73</ele>
        <time>2017-03-26T07:25:26Z</time>
      </trkpt>
      <trkpt lat="43.3415" lon="-0.52549">
        <ele>196.25</ele>
        <time>2017-03-26T07:25:32Z</time>
      </trkpt>
      <trkpt lat="43.34143" lon="-0.52555">
        <ele>196.25</ele>
        <time>2017-03-26T07:25:34Z</time>
      </trkpt>
      <trkpt lat="43.34089" lon="-0.526">
        <ele>196.25</ele>
        <time>2017-03-26T07:25:48Z</time>
      </trkpt>
      <trkpt lat="43.34058" lon="-0.52612">
        <ele>200.09</ele>
        <time>2017-03-26T07:25:59Z</time>
      </trkpt>
      <trkpt lat="43.34027" lon="-0.52642">
        <ele>200.57</ele>
        <time>2017-03-26T07:26:12Z</time>
      </trkpt>
      <trkpt lat="43.34001" lon="-0.52696">
        <ele>203.94</ele>
        <time>2017-03-26T07:26:26Z</time>
      </trkpt>
      <trkpt lat="43.33974" lon="-0.52774">
        <ele>205.38</ele>
        <time>2017-03-26T07:26:41Z</time>
      </trkpt>
      <trkpt lat="43.33968" lon="-0.52795">
        <ele>204.42</ele>
        <time>2017-03-26T07:26:44Z</time>
      </trkpt>
      <trkpt lat="43.3395" lon="-0.52896">
        <ele>197.69</ele>
        <time>2017-03-26T07:26:55Z</time>
      </trkpt>
      <trkpt lat="43.33947" lon="-0.52988">
        <ele>195.77</ele>
        <time>2017-03-26T07:27:07Z</time>
      </trkpt>
      <trkpt lat="43.33955" lon="-0.53056">
        <ele>197.69</ele>
        <time>2017-03-26T07:27:19Z</time>
      </trkpt>
      <trkpt lat="43.33955" lon="-0.53067">
        <ele>198.17</ele>
        <time>2017-03-26T07:27:21Z</time>
      </trkpt>
      <trkpt lat="43.33955" lon="-0.53073">
        <ele>198.17</ele>
        <time>2017-03-26T07:27:22Z</time>
      </trkpt>
      <trkpt lat="43.33955" lon="-0.5309">
        <ele>198.65</ele>
        <time>2017-03-26T07:27:25Z</time>
      </trkpt>
      <trkpt lat="43.33955" lon="-0.53096">
        <ele>198.65</ele>
        <time>2017-03-26T07:27:26Z</time>
      </trkpt>
      <trkpt lat="43.33958" lon="-0.53118">
        <ele>199.61</ele>
        <time>2017-03-26T07:27:30Z</time>
      </trkpt>
      <trkpt lat="43.3396" lon="-0.53124">
        <ele>200.09</ele>
        <time>2017-03-26T07:27:31Z</time>
      </trkpt>
      <trkpt lat="43.33962" lon="-0.53128">
        <ele>200.09</ele>
        <time>2017-03-26T07:27:32Z</time>
      </trkpt>
      <trkpt lat="43.33964" lon="-0.53132">
        <ele>200.57</ele>
        <time>2017-03-26T07:27:33Z</time>
      </trkpt>
      <trkpt lat="43.33966" lon="-0.53136">
        <ele>200.57</ele>
        <time>2017-03-26T07:27:34Z</time>
      </trkpt>
      <trkpt lat="43.33969" lon="-0.53139">
        <ele>201.05</ele>
        <time>2017-03-26T07:27:35Z</time>
      </trkpt>
      <trkpt lat="43.33989" lon="-0.53162">
        <ele>204.9</ele>
        <time>2017-03-26T07:27:47Z</time>
      </trkpt>
      <trkpt lat="43.33989" lon="-0.53167">
        <ele>205.38</ele>
        <time>2017-03-26T07:28:12Z</time>
      </trkpt>
      <trkpt lat="43.33981" lon="-0.53197">
        <ele>203.46</ele>
        <time>2017-03-26T07:28:20Z</time>
      </trkpt>
      <trkpt lat="43.33958" lon="-0.53214">
        <ele>202.01</ele>
        <time>2017-03-26T07:28:26Z</time>
      </trkpt>
      <trkpt lat="43.33937" lon="-0.53213">
        <ele>199.61</ele>
        <time>2017-03-26T07:28:33Z</time>
      </trkpt>
      <trkpt lat="43.33922" lon="-0.5321">
        <ele>197.69</ele>
        <time>2017-03-26T07:28:38Z</time>
      </trkpt>
      <trkpt lat="43.33915" lon="-0.53199">
        <ele>197.21</ele>
        <time>2017-03-26T07:28:42Z</time>
      </trkpt>
      <trkpt lat="43.33912" lon="-0.53192">
        <ele>197.21</ele>
        <time>2017-03-26T07:28:44Z</time>
      </trkpt>
      <trkpt lat="43.33896" lon="-0.53199">
        <ele>196.73</ele>
        <time>2017-03-26T07:28:51Z</time>
      </trkpt>
      <trkpt lat="43.33867" lon="-0.53195">
        <ele>193.36</ele>
        <time>2017-03-26T07:28:59Z</time>
      </trkpt>
      <trkpt lat="43.33856" lon="-0.53191">
        <ele>191.92</ele>
        <time>2017-03-26T07:29:02Z</time>
      </trkpt>
      <trkpt lat="43.33849" lon="-0.53174">
        <ele>190.96</ele>
        <time>2017-03-26T07:29:07Z</time>
      </trkpt>
      <trkpt lat="43.3383" lon="-0.5317">
        <ele>188.56</ele>
        <time>2017-03-26T07:29:13Z</time>
      </trkpt>
      <trkpt lat="43.33823" lon="-0.5316">
        <ele>187.11</ele>
        <time>2017-03-26T07:29:18Z</time>
      </trkpt>
      <trkpt lat="43.33793" lon="-0.53157">
        <ele>183.27</ele>
        <time>2017-03-26T07:29:26Z</time>
      </trkpt>
      <trkpt lat="43.33785" lon="-0.53154">
        <ele>182.31</ele>
        <time>2017-03-26T07:29:28Z</time>
      </trkpt>
      <trkpt lat="43.33767" lon="-0.53161">
        <ele>179.42</ele>
        <time>2017-03-26T07:29:32Z</time>
      </trkpt>
      <trkpt lat="43.33758" lon="-0.53167">
        <ele>178.46</ele>
        <time>2017-03-26T07:29:34Z</time>
      </trkpt>
      <trkpt lat="43.33721" lon="-0.53155">
        <ele>173.66</ele>
        <time>2017-03-26T07:29:43Z</time>
      </trkpt>
      <trkpt lat="43.3371" lon="-0.53149">
        <ele>171.25</ele>
        <time>2017-03-26T07:29:45Z</time>
      </trkpt>
      <trkpt lat="43.33689" lon="-0.53135">
        <ele>165</ele>
        <time>2017-03-26T07:29:49Z</time>
      </trkpt>
      <trkpt lat="43.33652" lon="-0.53158">
        <ele>150.58</ele>
        <time>2017-03-26T07:29:57Z</time>
      </trkpt>
      <trkpt lat="43.33634" lon="-0.5316">
        <ele>145.78</ele>
        <time>2017-03-26T07:30:00Z</time>
      </trkpt>
      <trkpt lat="43.33616" lon="-0.53171">
        <ele>138.09</ele>
        <time>2017-03-26T07:30:05Z</time>
      </trkpt>
      <trkpt lat="43.33604" lon="-0.53177">
        <ele>132.32</ele>
        <time>2017-03-26T07:30:09Z</time>
      </trkpt>
      <trkpt lat="43.33585" lon="-0.53171">
        <ele>127.99</ele>
        <time>2017-03-26T07:30:13Z</time>
      </trkpt>
      <trkpt lat="43.33557" lon="-0.53176">
        <ele>123.67</ele>
        <time>2017-03-26T07:30:20Z</time>
      </trkpt>
      <trkpt lat="43.33547" lon="-0.53185">
        <ele>121.74</ele>
        <time>2017-03-26T07:30:23Z</time>
      </trkpt>
      <trkpt lat="43.33541" lon="-0.53191">
        <ele>119.82</ele>
        <time>2017-03-26T07:30:25Z</time>
      </trkpt>
      <trkpt lat="43.33513" lon="-0.53206">
        <ele>117.42</ele>
        <time>2017-03-26T07:30:31Z</time>
      </trkpt>
      <trkpt lat="43.33496" lon="-0.53218">
        <ele>115.5</ele>
        <time>2017-03-26T07:30:37Z</time>
      </trkpt>
      <trkpt lat="43.33496" lon="-0.5322">
        <ele>115.5</ele>
        <time>2017-03-26T07:30:38Z</time>
      </trkpt>
      <trkpt lat="43.33498" lon="-0.53221">
        <ele>114.53</ele>
        <time>2017-03-26T07:30:41Z</time>
      </trkpt>
      <trkpt lat="43.33519" lon="-0.53224">
        <ele>116.46</ele>
        <time>2017-03-26T07:30:56Z</time>
      </trkpt>
      <trkpt lat="43.33538" lon="-0.53227">
        <ele>122.22</ele>
        <time>2017-03-26T07:31:09Z</time>
      </trkpt>
      <trkpt lat="43.33558" lon="-0.5323">
        <ele>126.55</ele>
        <time>2017-03-26T07:31:22Z</time>
      </trkpt>
      <trkpt lat="43.33573" lon="-0.53234">
        <ele>128.95</ele>
        <time>2017-03-26T07:31:32Z</time>
      </trkpt>
      <trkpt lat="43.33574" lon="-0.53234">
        <ele>129.43</ele>
        <time>2017-03-26T07:31:33Z</time>
      </trkpt>
      <trkpt lat="43.33576" lon="-0.53234">
        <ele>129.43</ele>
        <time>2017-03-26T07:31:34Z</time>
      </trkpt>
      <trkpt lat="43.33577" lon="-0.53234">
        <ele>129.92</ele>
        <time>2017-03-26T07:31:35Z</time>
      </trkpt>
      <trkpt lat="43.33579" lon="-0.53235">
        <ele>129.92</ele>
        <time>2017-03-26T07:31:36Z</time>
      </trkpt>
      <trkpt lat="43.3358" lon="-0.53235">
        <ele>130.4</ele>
        <time>2017-03-26T07:31:37Z</time>
      </trkpt>
      <trkpt lat="43.33582" lon="-0.53234">
        <ele>130.4</ele>
        <time>2017-03-26T07:31:38Z</time>
      </trkpt>
      <trkpt lat="43.33584" lon="-0.53235">
        <ele>130.4</ele>
        <time>2017-03-26T07:31:39Z</time>
      </trkpt>
      <trkpt lat="43.33585" lon="-0.53235">
        <ele>130.88</ele>
        <time>2017-03-26T07:31:40Z</time>
      </trkpt>
      <trkpt lat="43.33587" lon="-0.53235">
        <ele>130.88</ele>
        <time>2017-03-26T07:31:41Z</time>
      </trkpt>
      <trkpt lat="43.33588" lon="-0.53234">
        <ele>130.88</ele>
        <time>2017-03-26T07:31:42Z</time>
      </trkpt>
      <trkpt lat="43.3359" lon="-0.53234">
        <ele>131.36</ele>
        <time>2017-03-26T07:31:43Z</time>
      </trkpt>
      <trkpt lat="43.33591" lon="-0.53234">
        <ele>131.36</ele>
        <time>2017-03-26T07:31:44Z</time>
      </trkpt>
      <trkpt lat="43.33593" lon="-0.53234">
        <ele>131.84</ele>
        <time>2017-03-26T07:31:45Z</time>
      </trkpt>
      <trkpt lat="43.33594" lon="-0.53234">
        <ele>131.84</ele>
        <time>2017-03-26T07:31:46Z</time>
      </trkpt>
      <trkpt lat="43.33595" lon="-0.53234">
        <ele>131.84</ele>
        <time>2017-03-26T07:31:47Z</time>
      </trkpt>
      <trkpt lat="43.33605" lon="-0.53236">
        <ele>134.72</ele>
        <time>2017-03-26T07:31:54Z</time>
      </trkpt>
      <trkpt lat="43.33607" lon="-0.53237">
        <ele>135.2</ele>
        <time>2017-03-26T07:31:55Z</time>
      </trkpt>
      <trkpt lat="43.33626" lon="-0.53244">
        <ele>141.45</ele>
        <time>2017-03-26T07:32:09Z</time>
      </trkpt>
      <trkpt lat="43.33651" lon="-0.53259">
        <ele>146.26</ele>
        <time>2017-03-26T07:32:24Z</time>
      </trkpt>
      <trkpt lat="43.33683" lon="-0.53286">
        <ele>152.99</ele>
        <time>2017-03-26T07:32:44Z</time>
      </trkpt>
      <trkpt lat="43.33688" lon="-0.53292">
        <ele>153.47</ele>
        <time>2017-03-26T07:32:48Z</time>
      </trkpt>
      <trkpt lat="43.33711" lon="-0.53309">
        <ele>155.87</ele>
        <time>2017-03-26T07:33:04Z</time>
      </trkpt>
      <trkpt lat="43.33729" lon="-0.53304">
        <ele>157.79</ele>
        <time>2017-03-26T07:33:17Z</time>
      </trkpt>
      <trkpt lat="43.33738" lon="-0.533">
        <ele>156.83</ele>
        <time>2017-03-26T07:33:23Z</time>
      </trkpt>
      <trkpt lat="43.33757" lon="-0.533">
        <ele>158.75</ele>
        <time>2017-03-26T07:33:37Z</time>
      </trkpt>
      <trkpt lat="43.33776" lon="-0.53304">
        <ele>163.08</ele>
        <time>2017-03-26T07:33:50Z</time>
      </trkpt>
      <trkpt lat="43.33784" lon="-0.53304">
        <ele>165.48</ele>
        <time>2017-03-26T07:33:56Z</time>
      </trkpt>
      <trkpt lat="43.33786" lon="-0.53304">
        <ele>165.48</ele>
        <time>2017-03-26T07:33:57Z</time>
      </trkpt>
      <trkpt lat="43.33787" lon="-0.53304">
        <ele>165.96</ele>
        <time>2017-03-26T07:33:58Z</time>
      </trkpt>
      <trkpt lat="43.33789" lon="-0.53304">
        <ele>165.96</ele>
        <time>2017-03-26T07:33:59Z</time>
      </trkpt>
      <trkpt lat="43.3379" lon="-0.53303">
        <ele>166.45</ele>
        <time>2017-03-26T07:34:00Z</time>
      </trkpt>
      <trkpt lat="43.33792" lon="-0.53303">
        <ele>166.45</ele>
        <time>2017-03-26T07:34:01Z</time>
      </trkpt>
      <trkpt lat="43.33801" lon="-0.53302">
        <ele>166.45</ele>
        <time>2017-03-26T07:34:07Z</time>
      </trkpt>
      <trkpt lat="43.33802" lon="-0.53302">
        <ele>166.45</ele>
        <time>2017-03-26T07:34:08Z</time>
      </trkpt>
      <trkpt lat="43.33818" lon="-0.533">
        <ele>169.81</ele>
        <time>2017-03-26T07:34:20Z</time>
      </trkpt>
      <trkpt lat="43.33837" lon="-0.533">
        <ele>172.69</ele>
        <time>2017-03-26T07:34:33Z</time>
      </trkpt>
      <trkpt lat="43.33857" lon="-0.53301">
        <ele>173.66</ele>
        <time>2017-03-26T07:34:46Z</time>
      </trkpt>
      <trkpt lat="43.33862" lon="-0.53302">
        <ele>174.14</ele>
        <time>2017-03-26T07:34:49Z</time>
      </trkpt>
      <trkpt lat="43.33864" lon="-0.53302">
        <ele>174.14</ele>
        <time>2017-03-26T07:34:50Z</time>
      </trkpt>
      <trkpt lat="43.33865" lon="-0.53302">
        <ele>174.14</ele>
        <time>2017-03-26T07:34:51Z</time>
      </trkpt>
      <trkpt lat="43.33867" lon="-0.53302">
        <ele>174.14</ele>
        <time>2017-03-26T07:34:52Z</time>
      </trkpt>
      <trkpt lat="43.33869" lon="-0.53303">
        <ele>174.62</ele>
        <time>2017-03-26T07:34:53Z</time>
      </trkpt>
      <trkpt lat="43.33871" lon="-0.53303">
        <ele>175.1</ele>
        <time>2017-03-26T07:34:54Z</time>
      </trkpt>
      <trkpt lat="43.33873" lon="-0.53303">
        <ele>175.58</ele>
        <time>2017-03-26T07:34:55Z</time>
      </trkpt>
      <trkpt lat="43.3388" lon="-0.53304">
        <ele>177.02</ele>
        <time>2017-03-26T07:35:00Z</time>
      </trkpt>
      <trkpt lat="43.33881" lon="-0.53303">
        <ele>177.02</ele>
        <time>2017-03-26T07:35:01Z</time>
      </trkpt>
      <trkpt lat="43.33903" lon="-0.53307">
        <ele>178.46</ele>
        <time>2017-03-26T07:35:16Z</time>
      </trkpt>
      <trkpt lat="43.33923" lon="-0.53315">
        <ele>178.94</ele>
        <time>2017-03-26T07:35:28Z</time>
      </trkpt>
      <trkpt lat="43.33924" lon="-0.53315">
        <ele>178.94</ele>
        <time>2017-03-26T07:35:29Z</time>
      </trkpt>
      <trkpt lat="43.33926" lon="-0.53315">
        <ele>178.94</ele>
        <time>2017-03-26T07:35:30Z</time>
      </trkpt>
      <trkpt lat="43.33944" lon="-0.5331">
        <ele>179.9</ele>
        <time>2017-03-26T07:35:42Z</time>
      </trkpt>
      <trkpt lat="43.33945" lon="-0.5331">
        <ele>179.9</ele>
        <time>2017-03-26T07:35:43Z</time>
      </trkpt>
      <trkpt lat="43.33947" lon="-0.53309">
        <ele>179.9</ele>
        <time>2017-03-26T07:35:44Z</time>
      </trkpt>
      <trkpt lat="43.33948" lon="-0.53309">
        <ele>179.9</ele>
        <time>2017-03-26T07:35:45Z</time>
      </trkpt>
      <trkpt lat="43.3395" lon="-0.53308">
        <ele>179.9</ele>
        <time>2017-03-26T07:35:46Z</time>
      </trkpt>
      <trkpt lat="43.33966" lon="-0.53303">
        <ele>180.38</ele>
        <time>2017-03-26T07:35:57Z</time>
      </trkpt>
      <trkpt lat="43.33991" lon="-0.5331">
        <ele>185.19</ele>
        <time>2017-03-26T07:36:13Z</time>
      </trkpt>
      <trkpt lat="43.34003" lon="-0.53308">
        <ele>187.59</ele>
        <time>2017-03-26T07:36:21Z</time>
      </trkpt>
      <trkpt lat="43.34028" lon="-0.53307">
        <ele>191.44</ele>
        <time>2017-03-26T07:36:36Z</time>
      </trkpt>
      <trkpt lat="43.34037" lon="-0.53305">
        <ele>193.36</ele>
        <time>2017-03-26T07:36:42Z</time>
      </trkpt>
      <trkpt lat="43.3404" lon="-0.53303">
        <ele>194.32</ele>
        <time>2017-03-26T07:36:44Z</time>
      </trkpt>
      <trkpt lat="43.34041" lon="-0.53303">
        <ele>194.8</ele>
        <time>2017-03-26T07:36:45Z</time>
      </trkpt>
      <trkpt lat="43.34043" lon="-0.53302">
        <ele>195.28</ele>
        <time>2017-03-26T07:36:46Z</time>
      </trkpt>
      <trkpt lat="43.34045" lon="-0.53301">
        <ele>196.25</ele>
        <time>2017-03-26T07:36:47Z</time>
      </trkpt>
      <trkpt lat="43.34046" lon="-0.533">
        <ele>196.73</ele>
        <time>2017-03-26T07:36:48Z</time>
      </trkpt>
      <trkpt lat="43.34048" lon="-0.53299">
        <ele>197.69</ele>
        <time>2017-03-26T07:36:49Z</time>
      </trkpt>
      <trkpt lat="43.34061" lon="-0.53286">
        <ele>206.34</ele>
        <time>2017-03-26T07:36:59Z</time>
      </trkpt>
      <trkpt lat="43.34062" lon="-0.53285">
        <ele>207.3</ele>
        <time>2017-03-26T07:37:00Z</time>
      </trkpt>
      <trkpt lat="43.34063" lon="-0.53284">
        <ele>207.78</ele>
        <time>2017-03-26T07:37:01Z</time>
      </trkpt>
      <trkpt lat="43.34066" lon="-0.53283">
        <ele>209.22</ele>
        <time>2017-03-26T07:37:03Z</time>
      </trkpt>
      <trkpt lat="43.34067" lon="-0.53282">
        <ele>210.19</ele>
        <time>2017-03-26T07:37:04Z</time>
      </trkpt>
      <trkpt lat="43.3408" lon="-0.53273">
        <ele>214.99</ele>
        <time>2017-03-26T07:37:13Z</time>
      </trkpt>
      <trkpt lat="43.34081" lon="-0.53272">
        <ele>214.99</ele>
        <time>2017-03-26T07:37:14Z</time>
      </trkpt>
      <trkpt lat="43.34089" lon="-0.53265">
        <ele>214.03</ele>
        <time>2017-03-26T07:37:19Z</time>
      </trkpt>
      <trkpt lat="43.34104" lon="-0.53254">
        <ele>218.84</ele>
        <time>2017-03-26T07:37:31Z</time>
      </trkpt>
      <trkpt lat="43.34121" lon="-0.53238">
        <ele>221.72</ele>
        <time>2017-03-26T07:37:44Z</time>
      </trkpt>
      <trkpt lat="43.34132" lon="-0.53214">
        <ele>224.61</ele>
        <time>2017-03-26T07:37:57Z</time>
      </trkpt>
      <trkpt lat="43.34133" lon="-0.53212">
        <ele>224.61</ele>
        <time>2017-03-26T07:37:58Z</time>
      </trkpt>
      <trkpt lat="43.34134" lon="-0.53211">
        <ele>225.09</ele>
        <time>2017-03-26T07:37:59Z</time>
      </trkpt>
      <trkpt lat="43.34134" lon="-0.53209">
        <ele>225.57</ele>
        <time>2017-03-26T07:38:00Z</time>
      </trkpt>
      <trkpt lat="43.34135" lon="-0.53207">
        <ele>225.09</ele>
        <time>2017-03-26T07:38:01Z</time>
      </trkpt>
      <trkpt lat="43.34136" lon="-0.53205">
        <ele>225.09</ele>
        <time>2017-03-26T07:38:02Z</time>
      </trkpt>
      <trkpt lat="43.34137" lon="-0.53203">
        <ele>225.09</ele>
        <time>2017-03-26T07:38:03Z</time>
      </trkpt>
      <trkpt lat="43.34138" lon="-0.53201">
        <ele>224.61</ele>
        <time>2017-03-26T07:38:04Z</time>
      </trkpt>
      <trkpt lat="43.34146" lon="-0.53182">
        <ele>223.64</ele>
        <time>2017-03-26T07:38:14Z</time>
      </trkpt>
      <trkpt lat="43.34147" lon="-0.53181">
        <ele>223.64</ele>
        <time>2017-03-26T07:38:15Z</time>
      </trkpt>
      <trkpt lat="43.34148" lon="-0.5318">
        <ele>223.64</ele>
        <time>2017-03-26T07:38:16Z</time>
      </trkpt>
      <trkpt lat="43.34153" lon="-0.53178">
        <ele>222.2</ele>
        <time>2017-03-26T07:38:20Z</time>
      </trkpt>
      <trkpt lat="43.34154" lon="-0.53177">
        <ele>222.2</ele>
        <time>2017-03-26T07:38:21Z</time>
      </trkpt>
      <trkpt lat="43.34154" lon="-0.53175">
        <ele>222.2</ele>
        <time>2017-03-26T07:38:22Z</time>
      </trkpt>
      <trkpt lat="43.34155" lon="-0.53174">
        <ele>222.2</ele>
        <time>2017-03-26T07:38:23Z</time>
      </trkpt>
      <trkpt lat="43.34156" lon="-0.53172">
        <ele>222.68</ele>
        <time>2017-03-26T07:38:24Z</time>
      </trkpt>
      <trkpt lat="43.34159" lon="-0.53151">
        <ele>223.64</ele>
        <time>2017-03-26T07:38:36Z</time>
      </trkpt>
      <trkpt lat="43.3416" lon="-0.53149">
        <ele>223.64</ele>
        <time>2017-03-26T07:38:37Z</time>
      </trkpt>
      <trkpt lat="43.3416" lon="-0.53147">
        <ele>224.12</ele>
        <time>2017-03-26T07:38:38Z</time>
      </trkpt>
      <trkpt lat="43.34164" lon="-0.53136">
        <ele>226.05</ele>
        <time>2017-03-26T07:38:44Z</time>
      </trkpt>
      <trkpt lat="43.34165" lon="-0.53134">
        <ele>226.53</ele>
        <time>2017-03-26T07:38:45Z</time>
      </trkpt>
      <trkpt lat="43.34175" lon="-0.53112">
        <ele>228.93</ele>
        <time>2017-03-26T07:38:59Z</time>
      </trkpt>
      <trkpt lat="43.34186" lon="-0.53087">
        <ele>232.3</ele>
        <time>2017-03-26T07:39:15Z</time>
      </trkpt>
      <trkpt lat="43.34197" lon="-0.53073">
        <ele>236.14</ele>
        <time>2017-03-26T07:39:28Z</time>
      </trkpt>
      <trkpt lat="43.34207" lon="-0.53056">
        <ele>241.43</ele>
        <time>2017-03-26T07:39:41Z</time>
      </trkpt>
      <trkpt lat="43.34225" lon="-0.53032">
        <ele>238.06</ele>
        <time>2017-03-26T07:39:55Z</time>
      </trkpt>
      <trkpt lat="43.34229" lon="-0.53029">
        <ele>237.58</ele>
        <time>2017-03-26T07:39:56Z</time>
      </trkpt>
      <trkpt lat="43.34232" lon="-0.53025">
        <ele>237.1</ele>
        <time>2017-03-26T07:39:57Z</time>
      </trkpt>
      <trkpt lat="43.34236" lon="-0.53021">
        <ele>236.14</ele>
        <time>2017-03-26T07:39:58Z</time>
      </trkpt>
      <trkpt lat="43.34253" lon="-0.52998">
        <ele>232.3</ele>
        <time>2017-03-26T07:40:08Z</time>
      </trkpt>
      <trkpt lat="43.3427" lon="-0.52976">
        <ele>236.62</ele>
        <time>2017-03-26T07:40:21Z</time>
      </trkpt>
      <trkpt lat="43.34282" lon="-0.52944">
        <ele>239.02</ele>
        <time>2017-03-26T07:40:37Z</time>
      </trkpt>
      <trkpt lat="43.34292" lon="-0.52926">
        <ele>243.35</ele>
        <time>2017-03-26T07:40:49Z</time>
      </trkpt>
      <trkpt lat="43.34313" lon="-0.52911">
        <ele>244.79</ele>
        <time>2017-03-26T07:41:03Z</time>
      </trkpt>
      <trkpt lat="43.34328" lon="-0.52892">
        <ele>244.79</ele>
        <time>2017-03-26T07:41:14Z</time>
      </trkpt>
      <trkpt lat="43.3434" lon="-0.52882">
        <ele>244.79</ele>
        <time>2017-03-26T07:41:21Z</time>
      </trkpt>
      <trkpt lat="43.34344" lon="-0.52874">
        <ele>244.31</ele>
        <time>2017-03-26T07:41:24Z</time>
      </trkpt>
      <trkpt lat="43.34353" lon="-0.52865">
        <ele>243.35</ele>
        <time>2017-03-26T07:41:28Z</time>
      </trkpt>
      <trkpt lat="43.34361" lon="-0.52847">
        <ele>241.91</ele>
        <time>2017-03-26T07:41:33Z</time>
      </trkpt>
      <trkpt lat="43.34371" lon="-0.52822">
        <ele>241.43</ele>
        <time>2017-03-26T07:41:40Z</time>
      </trkpt>
      <trkpt lat="43.34375" lon="-0.52816">
        <ele>240.95</ele>
        <time>2017-03-26T07:41:42Z</time>
      </trkpt>
      <trkpt lat="43.34404" lon="-0.52813">
        <ele>243.83</ele>
        <time>2017-03-26T07:41:53Z</time>
      </trkpt>
      <trkpt lat="43.34425" lon="-0.52851">
        <ele>242.39</ele>
        <time>2017-03-26T07:42:05Z</time>
      </trkpt>
      <trkpt lat="43.34439" lon="-0.52886">
        <ele>239.02</ele>
        <time>2017-03-26T07:42:16Z</time>
      </trkpt>
      <trkpt lat="43.34444" lon="-0.52898">
        <ele>238.54</ele>
        <time>2017-03-26T07:42:22Z</time>
      </trkpt>
      <trkpt lat="43.34445" lon="-0.52899">
        <ele>238.54</ele>
        <time>2017-03-26T07:42:23Z</time>
      </trkpt>
      <trkpt lat="43.34446" lon="-0.529">
        <ele>238.54</ele>
        <time>2017-03-26T07:42:24Z</time>
      </trkpt>
      <trkpt lat="43.34447" lon="-0.52902">
        <ele>238.54</ele>
        <time>2017-03-26T07:42:25Z</time>
      </trkpt>
      <trkpt lat="43.34448" lon="-0.52904">
        <ele>238.06</ele>
        <time>2017-03-26T07:42:26Z</time>
      </trkpt>
      <trkpt lat="43.34454" lon="-0.52914">
        <ele>237.58</ele>
        <time>2017-03-26T07:42:33Z</time>
      </trkpt>
      <trkpt lat="43.3446" lon="-0.52925">
        <ele>239.02</ele>
        <time>2017-03-26T07:42:39Z</time>
      </trkpt>
      <trkpt lat="43.34461" lon="-0.52926">
        <ele>239.51</ele>
        <time>2017-03-26T07:42:40Z</time>
      </trkpt>
      <trkpt lat="43.34462" lon="-0.52926">
        <ele>239.99</ele>
        <time>2017-03-26T07:42:41Z</time>
      </trkpt>
      <trkpt lat="43.34463" lon="-0.52928">
        <ele>240.47</ele>
        <time>2017-03-26T07:42:42Z</time>
      </trkpt>
      <trkpt lat="43.34464" lon="-0.52929">
        <ele>240.95</ele>
        <time>2017-03-26T07:42:43Z</time>
      </trkpt>
      <trkpt lat="43.34465" lon="-0.52931">
        <ele>240.95</ele>
        <time>2017-03-26T07:42:44Z</time>
      </trkpt>
      <trkpt lat="43.34477" lon="-0.52948">
        <ele>244.79</ele>
        <time>2017-03-26T07:42:58Z</time>
      </trkpt>
      <trkpt lat="43.34481" lon="-0.52954">
        <ele>246.23</ele>
        <time>2017-03-26T07:43:02Z</time>
      </trkpt>
      <trkpt lat="43.34482" lon="-0.52955">
        <ele>246.23</ele>
        <time>2017-03-26T07:43:03Z</time>
      </trkpt>
      <trkpt lat="43.34492" lon="-0.52971">
        <ele>245.27</ele>
        <time>2017-03-26T07:43:15Z</time>
      </trkpt>
      <trkpt lat="43.34494" lon="-0.52975">
        <ele>245.27</ele>
        <time>2017-03-26T07:43:17Z</time>
      </trkpt>
      <trkpt lat="43.34496" lon="-0.52978">
        <ele>244.79</ele>
        <time>2017-03-26T07:43:19Z</time>
      </trkpt>
      <trkpt lat="43.3451" lon="-0.53001">
        <ele>247.68</ele>
        <time>2017-03-26T07:43:33Z</time>
      </trkpt>
      <trkpt lat="43.34524" lon="-0.53021">
        <ele>249.6</ele>
        <time>2017-03-26T07:43:46Z</time>
      </trkpt>
      <trkpt lat="43.34529" lon="-0.53034">
        <ele>252.48</ele>
        <time>2017-03-26T07:43:58Z</time>
      </trkpt>
      <trkpt lat="43.34543" lon="-0.53072">
        <ele>255.37</ele>
        <time>2017-03-26T07:44:09Z</time>
      </trkpt>
      <trkpt lat="43.34545" lon="-0.53078">
        <ele>255.85</ele>
        <time>2017-03-26T07:44:10Z</time>
      </trkpt>
      <trkpt lat="43.34546" lon="-0.53085">
        <ele>255.85</ele>
        <time>2017-03-26T07:44:11Z</time>
      </trkpt>
      <trkpt lat="43.34555" lon="-0.53161">
        <ele>255.37</ele>
        <time>2017-03-26T07:44:19Z</time>
      </trkpt>
      <trkpt lat="43.34556" lon="-0.5317">
        <ele>255.37</ele>
        <time>2017-03-26T07:44:20Z</time>
      </trkpt>
      <trkpt lat="43.34555" lon="-0.5319">
        <ele>254.41</ele>
        <time>2017-03-26T07:44:22Z</time>
      </trkpt>
      <trkpt lat="43.3456" lon="-0.53238">
        <ele>250.56</ele>
        <time>2017-03-26T07:44:26Z</time>
      </trkpt>
      <trkpt lat="43.3457" lon="-0.533">
        <ele>245.75</ele>
        <time>2017-03-26T07:44:32Z</time>
      </trkpt>
      <trkpt lat="43.34581" lon="-0.53389">
        <ele>238.54</ele>
        <time>2017-03-26T07:44:43Z</time>
      </trkpt>
      <trkpt lat="43.34581" lon="-0.53398">
        <ele>237.58</ele>
        <time>2017-03-26T07:44:44Z</time>
      </trkpt>
      <trkpt lat="43.34591" lon="-0.53495">
        <ele>231.81</ele>
        <time>2017-03-26T07:44:51Z</time>
      </trkpt>
      <trkpt lat="43.34588" lon="-0.53552">
        <ele>227.97</ele>
        <time>2017-03-26T07:44:55Z</time>
      </trkpt>
      <trkpt lat="43.34586" lon="-0.53566">
        <ele>227.01</ele>
        <time>2017-03-26T07:44:56Z</time>
      </trkpt>
      <trkpt lat="43.34584" lon="-0.53578">
        <ele>226.05</ele>
        <time>2017-03-26T07:44:57Z</time>
      </trkpt>
      <trkpt lat="43.3457" lon="-0.53646">
        <ele>218.84</ele>
        <time>2017-03-26T07:45:04Z</time>
      </trkpt>
      <trkpt lat="43.34542" lon="-0.53737">
        <ele>212.11</ele>
        <time>2017-03-26T07:45:12Z</time>
      </trkpt>
      <trkpt lat="43.34521" lon="-0.53803">
        <ele>207.78</ele>
        <time>2017-03-26T07:45:17Z</time>
      </trkpt>
      <trkpt lat="43.34513" lon="-0.5384">
        <ele>203.94</ele>
        <time>2017-03-26T07:45:21Z</time>
      </trkpt>
      <trkpt lat="43.34513" lon="-0.53847">
        <ele>202.98</ele>
        <time>2017-03-26T07:45:22Z</time>
      </trkpt>
      <trkpt lat="43.34513" lon="-0.53855">
        <ele>202.49</ele>
        <time>2017-03-26T07:45:23Z</time>
      </trkpt>
      <trkpt lat="43.34515" lon="-0.5387">
        <ele>201.53</ele>
        <time>2017-03-26T07:45:25Z</time>
      </trkpt>
      <trkpt lat="43.3453" lon="-0.53931">
        <ele>195.28</ele>
        <time>2017-03-26T07:45:32Z</time>
      </trkpt>
      <trkpt lat="43.34532" lon="-0.53941">
        <ele>194.32</ele>
        <time>2017-03-26T07:45:33Z</time>
      </trkpt>
      <trkpt lat="43.34532" lon="-0.53951">
        <ele>193.36</ele>
        <time>2017-03-26T07:45:34Z</time>
      </trkpt>
      <trkpt lat="43.34532" lon="-0.53961">
        <ele>192.4</ele>
        <time>2017-03-26T07:45:35Z</time>
      </trkpt>
      <trkpt lat="43.34531" lon="-0.5397">
        <ele>190.96</ele>
        <time>2017-03-26T07:45:36Z</time>
      </trkpt>
      <trkpt lat="43.3453" lon="-0.53978">
        <ele>190</ele>
        <time>2017-03-26T07:45:37Z</time>
      </trkpt>
      <trkpt lat="43.34529" lon="-0.53985">
        <ele>189.04</ele>
        <time>2017-03-26T07:45:38Z</time>
      </trkpt>
      <trkpt lat="43.34529" lon="-0.53993">
        <ele>188.08</ele>
        <time>2017-03-26T07:45:39Z</time>
      </trkpt>
      <trkpt lat="43.34525" lon="-0.54055">
        <ele>180.38</ele>
        <time>2017-03-26T07:45:50Z</time>
      </trkpt>
      <trkpt lat="43.34521" lon="-0.54107">
        <ele>171.73</ele>
        <time>2017-03-26T07:46:03Z</time>
      </trkpt>
      <trkpt lat="43.34522" lon="-0.54111">
        <ele>170.77</ele>
        <time>2017-03-26T07:46:04Z</time>
      </trkpt>
      <trkpt lat="43.34523" lon="-0.54114">
        <ele>170.29</ele>
        <time>2017-03-26T07:46:05Z</time>
      </trkpt>
      <trkpt lat="43.34526" lon="-0.54116">
        <ele>169.81</ele>
        <time>2017-03-26T07:46:06Z</time>
      </trkpt>
      <trkpt lat="43.34529" lon="-0.54118">
        <ele>169.33</ele>
        <time>2017-03-26T07:46:07Z</time>
      </trkpt>
      <trkpt lat="43.34533" lon="-0.54121">
        <ele>168.85</ele>
        <time>2017-03-26T07:46:08Z</time>
      </trkpt>
      <trkpt lat="43.34538" lon="-0.54124">
        <ele>167.89</ele>
        <time>2017-03-26T07:46:09Z</time>
      </trkpt>
      <trkpt lat="43.34543" lon="-0.54128">
        <ele>167.41</ele>
        <time>2017-03-26T07:46:10Z</time>
      </trkpt>
      <trkpt lat="43.34549" lon="-0.54133">
        <ele>166.93</ele>
        <time>2017-03-26T07:46:11Z</time>
      </trkpt>
      <trkpt lat="43.34555" lon="-0.54138">
        <ele>165.96</ele>
        <time>2017-03-26T07:46:12Z</time>
      </trkpt>
      <trkpt lat="43.34575" lon="-0.54158">
        <ele>163.56</ele>
        <time>2017-03-26T07:46:16Z</time>
      </trkpt>
      <trkpt lat="43.34577" lon="-0.54162">
        <ele>163.08</ele>
        <time>2017-03-26T07:46:17Z</time>
      </trkpt>
      <trkpt lat="43.34578" lon="-0.54167">
        <ele>162.6</ele>
        <time>2017-03-26T07:46:18Z</time>
      </trkpt>
      <trkpt lat="43.34577" lon="-0.54172">
        <ele>162.6</ele>
        <time>2017-03-26T07:46:19Z</time>
      </trkpt>
      <trkpt lat="43.34575" lon="-0.54176">
        <ele>162.12</ele>
        <time>2017-03-26T07:46:20Z</time>
      </trkpt>
      <trkpt lat="43.34573" lon="-0.54179">
        <ele>161.64</ele>
        <time>2017-03-26T07:46:21Z</time>
      </trkpt>
      <trkpt lat="43.34571" lon="-0.54183">
        <ele>161.16</ele>
        <time>2017-03-26T07:46:22Z</time>
      </trkpt>
      <trkpt lat="43.34559" lon="-0.54202">
        <ele>159.24</ele>
        <time>2017-03-26T07:46:26Z</time>
      </trkpt>
      <trkpt lat="43.34557" lon="-0.54208">
        <ele>158.27</ele>
        <time>2017-03-26T07:46:27Z</time>
      </trkpt>
      <trkpt lat="43.34557" lon="-0.54215">
        <ele>157.79</ele>
        <time>2017-03-26T07:46:28Z</time>
      </trkpt>
      <trkpt lat="43.34557" lon="-0.54223">
        <ele>157.31</ele>
        <time>2017-03-26T07:46:29Z</time>
      </trkpt>
      <trkpt lat="43.34558" lon="-0.5423">
        <ele>156.83</ele>
        <time>2017-03-26T07:46:30Z</time>
      </trkpt>
      <trkpt lat="43.34561" lon="-0.54237">
        <ele>156.35</ele>
        <time>2017-03-26T07:46:31Z</time>
      </trkpt>
      <trkpt lat="43.34564" lon="-0.54242">
        <ele>156.35</ele>
        <time>2017-03-26T07:46:32Z</time>
      </trkpt>
      <trkpt lat="43.34569" lon="-0.54245">
        <ele>155.39</ele>
        <time>2017-03-26T07:46:33Z</time>
      </trkpt>
      <trkpt lat="43.34574" lon="-0.54249">
        <ele>154.91</ele>
        <time>2017-03-26T07:46:34Z</time>
      </trkpt>
      <trkpt lat="43.34579" lon="-0.54251">
        <ele>154.43</ele>
        <time>2017-03-26T07:46:35Z</time>
      </trkpt>
      <trkpt lat="43.34585" lon="-0.54252">
        <ele>153.95</ele>
        <time>2017-03-26T07:46:36Z</time>
      </trkpt>
      <trkpt lat="43.34592" lon="-0.54252">
        <ele>153.47</ele>
        <time>2017-03-26T07:46:37Z</time>
      </trkpt>
      <trkpt lat="43.34599" lon="-0.54251">
        <ele>152.99</ele>
        <time>2017-03-26T07:46:38Z</time>
      </trkpt>
      <trkpt lat="43.34606" lon="-0.54249">
        <ele>152.03</ele>
        <time>2017-03-26T07:46:39Z</time>
      </trkpt>
      <trkpt lat="43.34614" lon="-0.54246">
        <ele>151.06</ele>
        <time>2017-03-26T07:46:40Z</time>
      </trkpt>
      <trkpt lat="43.34679" lon="-0.54215">
        <ele>146.26</ele>
        <time>2017-03-26T07:46:48Z</time>
      </trkpt>
      <trkpt lat="43.34698" lon="-0.54204">
        <ele>143.85</ele>
        <time>2017-03-26T07:46:51Z</time>
      </trkpt>
      <trkpt lat="43.34702" lon="-0.54204">
        <ele>143.37</ele>
        <time>2017-03-26T07:46:52Z</time>
      </trkpt>
      <trkpt lat="43.34705" lon="-0.54206">
        <ele>142.41</ele>
        <time>2017-03-26T07:46:53Z</time>
      </trkpt>
      <trkpt lat="43.34707" lon="-0.54211">
        <ele>141.45</ele>
        <time>2017-03-26T07:46:54Z</time>
      </trkpt>
      <trkpt lat="43.34707" lon="-0.54217">
        <ele>140.49</ele>
        <time>2017-03-26T07:46:55Z</time>
      </trkpt>
      <trkpt lat="43.34707" lon="-0.54223">
        <ele>139.53</ele>
        <time>2017-03-26T07:46:56Z</time>
      </trkpt>
      <trkpt lat="43.34705" lon="-0.54231">
        <ele>138.57</ele>
        <time>2017-03-26T07:46:57Z</time>
      </trkpt>
      <trkpt lat="43.34703" lon="-0.5424">
        <ele>137.61</ele>
        <time>2017-03-26T07:46:58Z</time>
      </trkpt>
      <trkpt lat="43.3468" lon="-0.54347">
        <ele>129.92</ele>
        <time>2017-03-26T07:47:07Z</time>
      </trkpt>
      <trkpt lat="43.34674" lon="-0.54367">
        <ele>127.99</ele>
        <time>2017-03-26T07:47:09Z</time>
      </trkpt>
      <trkpt lat="43.34673" lon="-0.54376">
        <ele>127.03</ele>
        <time>2017-03-26T07:47:10Z</time>
      </trkpt>
      <trkpt lat="43.34674" lon="-0.54384">
        <ele>125.59</ele>
        <time>2017-03-26T07:47:11Z</time>
      </trkpt>
      <trkpt lat="43.34677" lon="-0.54399">
        <ele>124.15</ele>
        <time>2017-03-26T07:47:13Z</time>
      </trkpt>
      <trkpt lat="43.34678" lon="-0.54405">
        <ele>123.19</ele>
        <time>2017-03-26T07:47:14Z</time>
      </trkpt>
      <trkpt lat="43.34677" lon="-0.54411">
        <ele>122.71</ele>
        <time>2017-03-26T07:47:15Z</time>
      </trkpt>
      <trkpt lat="43.34675" lon="-0.54418">
        <ele>122.22</ele>
        <time>2017-03-26T07:47:16Z</time>
      </trkpt>
      <trkpt lat="43.34674" lon="-0.54424">
        <ele>121.26</ele>
        <time>2017-03-26T07:47:17Z</time>
      </trkpt>
      <trkpt lat="43.34672" lon="-0.54431">
        <ele>120.78</ele>
        <time>2017-03-26T07:47:18Z</time>
      </trkpt>
      <trkpt lat="43.34671" lon="-0.54437">
        <ele>119.82</ele>
        <time>2017-03-26T07:47:19Z</time>
      </trkpt>
      <trkpt lat="43.34669" lon="-0.54451">
        <ele>118.38</ele>
        <time>2017-03-26T07:47:21Z</time>
      </trkpt>
      <trkpt lat="43.34666" lon="-0.54465">
        <ele>117.9</ele>
        <time>2017-03-26T07:47:23Z</time>
      </trkpt>
      <trkpt lat="43.34656" lon="-0.54562">
        <ele>116.94</ele>
        <time>2017-03-26T07:47:36Z</time>
      </trkpt>
      <trkpt lat="43.34649" lon="-0.54622">
        <ele>115.01</ele>
        <time>2017-03-26T07:47:45Z</time>
      </trkpt>
      <trkpt lat="43.34649" lon="-0.54635">
        <ele>115.98</ele>
        <time>2017-03-26T07:47:47Z</time>
      </trkpt>
      <trkpt lat="43.3465" lon="-0.54643">
        <ele>117.42</ele>
        <time>2017-03-26T07:47:48Z</time>
      </trkpt>
      <trkpt lat="43.3465" lon="-0.54649">
        <ele>118.86</ele>
        <time>2017-03-26T07:47:49Z</time>
      </trkpt>
      <trkpt lat="43.3465" lon="-0.54653">
        <ele>119.34</ele>
        <time>2017-03-26T07:47:50Z</time>
      </trkpt>
      <trkpt lat="43.3465" lon="-0.54656">
        <ele>120.3</ele>
        <time>2017-03-26T07:47:51Z</time>
      </trkpt>
      <trkpt lat="43.34649" lon="-0.54658">
        <ele>120.3</ele>
        <time>2017-03-26T07:47:52Z</time>
      </trkpt>
      <trkpt lat="43.34647" lon="-0.54661">
        <ele>120.78</ele>
        <time>2017-03-26T07:47:53Z</time>
      </trkpt>
      <trkpt lat="43.34644" lon="-0.54662">
        <ele>120.78</ele>
        <time>2017-03-26T07:47:54Z</time>
      </trkpt>
      <trkpt lat="43.3464" lon="-0.54663">
        <ele>121.74</ele>
        <time>2017-03-26T07:47:55Z</time>
      </trkpt>
      <trkpt lat="43.34636" lon="-0.54662">
        <ele>121.74</ele>
        <time>2017-03-26T07:47:56Z</time>
      </trkpt>
      <trkpt lat="43.34621" lon="-0.5466">
        <ele>121.74</ele>
        <time>2017-03-26T07:47:59Z</time>
      </trkpt>
      <trkpt lat="43.34616" lon="-0.54657">
        <ele>121.74</ele>
        <time>2017-03-26T07:48:00Z</time>
      </trkpt>
      <trkpt lat="43.34612" lon="-0.54653">
        <ele>121.26</ele>
        <time>2017-03-26T07:48:01Z</time>
      </trkpt>
      <trkpt lat="43.34608" lon="-0.54647">
        <ele>121.26</ele>
        <time>2017-03-26T07:48:02Z</time>
      </trkpt>
      <trkpt lat="43.34606" lon="-0.5464">
        <ele>121.26</ele>
        <time>2017-03-26T07:48:03Z</time>
      </trkpt>
      <trkpt lat="43.34592" lon="-0.54579">
        <ele>121.74</ele>
        <time>2017-03-26T07:48:11Z</time>
      </trkpt>
      <trkpt lat="43.3459" lon="-0.54572">
        <ele>122.22</ele>
        <time>2017-03-26T07:48:12Z</time>
      </trkpt>
      <trkpt lat="43.34588" lon="-0.54566">
        <ele>122.22</ele>
        <time>2017-03-26T07:48:13Z</time>
      </trkpt>
      <trkpt lat="43.34585" lon="-0.5456">
        <ele>122.71</ele>
        <time>2017-03-26T07:48:14Z</time>
      </trkpt>
      <trkpt lat="43.34582" lon="-0.54555">
        <ele>123.19</ele>
        <time>2017-03-26T07:48:15Z</time>
      </trkpt>
      <trkpt lat="43.34579" lon="-0.5455">
        <ele>123.67</ele>
        <time>2017-03-26T07:48:16Z</time>
      </trkpt>
      <trkpt lat="43.34576" lon="-0.54545">
        <ele>123.67</ele>
        <time>2017-03-26T07:48:17Z</time>
      </trkpt>
      <trkpt lat="43.34572" lon="-0.54541">
        <ele>123.67</ele>
        <time>2017-03-26T07:48:18Z</time>
      </trkpt>
      <trkpt lat="43.34569" lon="-0.54538">
        <ele>123.67</ele>
        <time>2017-03-26T07:48:19Z</time>
      </trkpt>
      <trkpt lat="43.34566" lon="-0.54537">
        <ele>124.15</ele>
        <time>2017-03-26T07:48:20Z</time>
      </trkpt>
      <trkpt lat="43.34563" lon="-0.54537">
        <ele>124.15</ele>
        <time>2017-03-26T07:48:21Z</time>
      </trkpt>
      <trkpt lat="43.34539" lon="-0.54538">
        <ele>125.11</ele>
        <time>2017-03-26T07:48:34Z</time>
      </trkpt>
      <trkpt lat="43.34518" lon="-0.54526">
        <ele>133.28</ele>
        <time>2017-03-26T07:48:48Z</time>
      </trkpt>
      <trkpt lat="43.34503" lon="-0.54506">
        <ele>135.68</ele>
        <time>2017-03-26T07:49:02Z</time>
      </trkpt>
      <trkpt lat="43.34495" lon="-0.5449">
        <ele>138.09</ele>
        <time>2017-03-26T07:49:13Z</time>
      </trkpt>
      <trkpt lat="43.34495" lon="-0.54487">
        <ele>138.09</ele>
        <time>2017-03-26T07:49:14Z</time>
      </trkpt>
      <trkpt lat="43.34494" lon="-0.54483">
        <ele>139.53</ele>
        <time>2017-03-26T07:49:16Z</time>
      </trkpt>
      <trkpt lat="43.34488" lon="-0.54453">
        <ele>143.85</ele>
        <time>2017-03-26T07:49:28Z</time>
      </trkpt>
      <trkpt lat="43.3447" lon="-0.54433">
        <ele>147.22</ele>
        <time>2017-03-26T07:49:41Z</time>
      </trkpt>
      <trkpt lat="43.34462" lon="-0.54419">
        <ele>151.54</ele>
        <time>2017-03-26T07:49:49Z</time>
      </trkpt>
      <trkpt lat="43.34462" lon="-0.54418">
        <ele>152.03</ele>
        <time>2017-03-26T07:49:50Z</time>
      </trkpt>
      <trkpt lat="43.34454" lon="-0.54395">
        <ele>155.87</ele>
        <time>2017-03-26T07:50:02Z</time>
      </trkpt>
      <trkpt lat="43.34444" lon="-0.54373">
        <ele>160.2</ele>
        <time>2017-03-26T07:50:13Z</time>
      </trkpt>
      <trkpt lat="43.34422" lon="-0.54371">
        <ele>155.87</ele>
        <time>2017-03-26T07:50:26Z</time>
      </trkpt>
      <trkpt lat="43.34421" lon="-0.54371">
        <ele>155.87</ele>
        <time>2017-03-26T07:50:27Z</time>
      </trkpt>
      <trkpt lat="43.34419" lon="-0.54371">
        <ele>155.87</ele>
        <time>2017-03-26T07:50:28Z</time>
      </trkpt>
      <trkpt lat="43.34417" lon="-0.54371">
        <ele>155.87</ele>
        <time>2017-03-26T07:50:29Z</time>
      </trkpt>
      <trkpt lat="43.34394" lon="-0.54356">
        <ele>157.31</ele>
        <time>2017-03-26T07:50:45Z</time>
      </trkpt>
      <trkpt lat="43.34394" lon="-0.54354">
        <ele>157.79</ele>
        <time>2017-03-26T07:50:46Z</time>
      </trkpt>
      <trkpt lat="43.34394" lon="-0.54352">
        <ele>158.27</ele>
        <time>2017-03-26T07:50:47Z</time>
      </trkpt>
      <trkpt lat="43.34393" lon="-0.5435">
        <ele>158.75</ele>
        <time>2017-03-26T07:50:48Z</time>
      </trkpt>
      <trkpt lat="43.34393" lon="-0.54348">
        <ele>159.24</ele>
        <time>2017-03-26T07:50:49Z</time>
      </trkpt>
      <trkpt lat="43.34391" lon="-0.54319">
        <ele>162.12</ele>
        <time>2017-03-26T07:51:02Z</time>
      </trkpt>
      <trkpt lat="43.34391" lon="-0.54314">
        <ele>162.12</ele>
        <time>2017-03-26T07:51:04Z</time>
      </trkpt>
      <trkpt lat="43.34392" lon="-0.54311">
        <ele>162.12</ele>
        <time>2017-03-26T07:51:05Z</time>
      </trkpt>
      <trkpt lat="43.34392" lon="-0.54309">
        <ele>161.64</ele>
        <time>2017-03-26T07:51:06Z</time>
      </trkpt>
      <trkpt lat="43.34392" lon="-0.54307">
        <ele>161.64</ele>
        <time>2017-03-26T07:51:07Z</time>
      </trkpt>
      <trkpt lat="43.34392" lon="-0.54304">
        <ele>161.16</ele>
        <time>2017-03-26T07:51:08Z</time>
      </trkpt>
      <trkpt lat="43.344" lon="-0.54271">
        <ele>157.79</ele>
        <time>2017-03-26T07:51:23Z</time>
      </trkpt>
      <trkpt lat="43.34404" lon="-0.54254">
        <ele>157.31</ele>
        <time>2017-03-26T07:51:31Z</time>
      </trkpt>
      <trkpt lat="43.34405" lon="-0.54251">
        <ele>157.31</ele>
        <time>2017-03-26T07:51:32Z</time>
      </trkpt>
      <trkpt lat="43.34406" lon="-0.54222">
        <ele>159.72</ele>
        <time>2017-03-26T07:51:46Z</time>
      </trkpt>
      <trkpt lat="43.34405" lon="-0.54193">
        <ele>162.12</ele>
        <time>2017-03-26T07:52:00Z</time>
      </trkpt>
      <trkpt lat="43.34409" lon="-0.54171">
        <ele>163.08</ele>
        <time>2017-03-26T07:52:12Z</time>
      </trkpt>
      <trkpt lat="43.34411" lon="-0.54169">
        <ele>164.04</ele>
        <time>2017-03-26T07:52:23Z</time>
      </trkpt>
      <trkpt lat="43.34412" lon="-0.5417">
        <ele>164.04</ele>
        <time>2017-03-26T07:52:24Z</time>
      </trkpt>
      <trkpt lat="43.34413" lon="-0.54171">
        <ele>164.52</ele>
        <time>2017-03-26T07:52:25Z</time>
      </trkpt>
      <trkpt lat="43.34414" lon="-0.54172">
        <ele>164.52</ele>
        <time>2017-03-26T07:52:26Z</time>
      </trkpt>
      <trkpt lat="43.34415" lon="-0.54173">
        <ele>164.04</ele>
        <time>2017-03-26T07:52:27Z</time>
      </trkpt>
      <trkpt lat="43.3443" lon="-0.54194">
        <ele>164.04</ele>
        <time>2017-03-26T07:52:41Z</time>
      </trkpt>
      <trkpt lat="43.34453" lon="-0.54203">
        <ele>161.16</ele>
        <time>2017-03-26T07:52:56Z</time>
      </trkpt>
      <trkpt lat="43.34493" lon="-0.54205">
        <ele>154.91</ele>
        <time>2017-03-26T07:53:08Z</time>
      </trkpt>
      <trkpt lat="43.34509" lon="-0.54208">
        <ele>152.51</ele>
        <time>2017-03-26T07:53:17Z</time>
      </trkpt>
      <trkpt lat="43.34542" lon="-0.54222">
        <ele>154.91</ele>
        <time>2017-03-26T07:53:31Z</time>
      </trkpt>
      <trkpt lat="43.34562" lon="-0.54201">
        <ele>158.27</ele>
        <time>2017-03-26T07:53:44Z</time>
      </trkpt>
      <trkpt lat="43.34577" lon="-0.5418">
        <ele>157.31</ele>
        <time>2017-03-26T07:53:59Z</time>
      </trkpt>
      <trkpt lat="43.34578" lon="-0.54178">
        <ele>157.31</ele>
        <time>2017-03-26T07:54:00Z</time>
      </trkpt>
      <trkpt lat="43.34573" lon="-0.54158">
        <ele>160.68</ele>
        <time>2017-03-26T07:54:13Z</time>
      </trkpt>
      <trkpt lat="43.34559" lon="-0.54144">
        <ele>167.89</ele>
        <time>2017-03-26T07:54:24Z</time>
      </trkpt>
      <trkpt lat="43.34539" lon="-0.54129">
        <ele>173.17</ele>
        <time>2017-03-26T07:54:36Z</time>
      </trkpt>
      <trkpt lat="43.34516" lon="-0.54118">
        <ele>172.69</ele>
        <time>2017-03-26T07:54:48Z</time>
      </trkpt>
      <trkpt lat="43.34481" lon="-0.54101">
        <ele>175.1</ele>
        <time>2017-03-26T07:55:04Z</time>
      </trkpt>
      <trkpt lat="43.34457" lon="-0.54081">
        <ele>178.94</ele>
        <time>2017-03-26T07:55:16Z</time>
      </trkpt>
      <trkpt lat="43.34438" lon="-0.54063">
        <ele>181.35</ele>
        <time>2017-03-26T07:55:29Z</time>
      </trkpt>
      <trkpt lat="43.34417" lon="-0.54038">
        <ele>182.79</ele>
        <time>2017-03-26T07:55:42Z</time>
      </trkpt>
      <trkpt lat="43.34402" lon="-0.54016">
        <ele>186.15</ele>
        <time>2017-03-26T07:55:54Z</time>
      </trkpt>
      <trkpt lat="43.34401" lon="-0.54015">
        <ele>186.15</ele>
        <time>2017-03-26T07:55:55Z</time>
      </trkpt>
      <trkpt lat="43.34395" lon="-0.54003">
        <ele>187.11</ele>
        <time>2017-03-26T07:56:00Z</time>
      </trkpt>
      <trkpt lat="43.34381" lon="-0.53967">
        <ele>191.44</ele>
        <time>2017-03-26T07:56:15Z</time>
      </trkpt>
      <trkpt lat="43.34376" lon="-0.53942">
        <ele>193.84</ele>
        <time>2017-03-26T07:56:24Z</time>
      </trkpt>
      <trkpt lat="43.34369" lon="-0.53913">
        <ele>197.69</ele>
        <time>2017-03-26T07:56:36Z</time>
      </trkpt>
      <trkpt lat="43.34368" lon="-0.5391">
        <ele>197.69</ele>
        <time>2017-03-26T07:56:37Z</time>
      </trkpt>
      <trkpt lat="43.34368" lon="-0.53906">
        <ele>198.17</ele>
        <time>2017-03-26T07:56:39Z</time>
      </trkpt>
      <trkpt lat="43.34369" lon="-0.53888">
        <ele>194.8</ele>
        <time>2017-03-26T07:56:47Z</time>
      </trkpt>
      <trkpt lat="43.34369" lon="-0.53883">
        <ele>193.84</ele>
        <time>2017-03-26T07:56:49Z</time>
      </trkpt>
      <trkpt lat="43.3437" lon="-0.53869">
        <ele>190.96</ele>
        <time>2017-03-26T07:56:55Z</time>
      </trkpt>
      <trkpt lat="43.34381" lon="-0.53851">
        <ele>185.67</ele>
        <time>2017-03-26T07:57:10Z</time>
      </trkpt>
      <trkpt lat="43.34388" lon="-0.53841">
        <ele>183.75</ele>
        <time>2017-03-26T07:57:22Z</time>
      </trkpt>
      <trkpt lat="43.34395" lon="-0.53834">
        <ele>185.67</ele>
        <time>2017-03-26T07:57:37Z</time>
      </trkpt>
      <trkpt lat="43.34405" lon="-0.53815">
        <ele>188.56</ele>
        <time>2017-03-26T07:57:51Z</time>
      </trkpt>
      <trkpt lat="43.34414" lon="-0.53804">
        <ele>188.56</ele>
        <time>2017-03-26T07:58:02Z</time>
      </trkpt>
      <trkpt lat="43.34421" lon="-0.5379">
        <ele>192.4</ele>
        <time>2017-03-26T07:58:17Z</time>
      </trkpt>
      <trkpt lat="43.34427" lon="-0.53782">
        <ele>193.84</ele>
        <time>2017-03-26T07:58:29Z</time>
      </trkpt>
      <trkpt lat="43.34422" lon="-0.53773">
        <ele>190.96</ele>
        <time>2017-03-26T07:58:40Z</time>
      </trkpt>
      <trkpt lat="43.34422" lon="-0.53761">
        <ele>189.04</ele>
        <time>2017-03-26T07:58:55Z</time>
      </trkpt>
      <trkpt lat="43.34423" lon="-0.53749">
        <ele>190</ele>
        <time>2017-03-26T07:59:03Z</time>
      </trkpt>
      <trkpt lat="43.34425" lon="-0.53725">
        <ele>190.48</ele>
        <time>2017-03-26T07:59:18Z</time>
      </trkpt>
      <trkpt lat="43.34428" lon="-0.53714">
        <ele>190.96</ele>
        <time>2017-03-26T07:59:30Z</time>
      </trkpt>
      <trkpt lat="43.34429" lon="-0.53701">
        <ele>191.44</ele>
        <time>2017-03-26T07:59:41Z</time>
      </trkpt>
      <trkpt lat="43.3443" lon="-0.53685">
        <ele>192.88</ele>
        <time>2017-03-26T07:59:53Z</time>
      </trkpt>
      <trkpt lat="43.34429" lon="-0.53678">
        <ele>193.84</ele>
        <time>2017-03-26T08:00:04Z</time>
      </trkpt>
      <trkpt lat="43.34429" lon="-0.53667">
        <ele>192.4</ele>
        <time>2017-03-26T08:00:17Z</time>
      </trkpt>
      <trkpt lat="43.34432" lon="-0.53664">
        <ele>193.84</ele>
        <time>2017-03-26T08:00:29Z</time>
      </trkpt>
      <trkpt lat="43.34432" lon="-0.53657">
        <ele>194.32</ele>
        <time>2017-03-26T08:00:43Z</time>
      </trkpt>
      <trkpt lat="43.34433" lon="-0.53656">
        <ele>194.8</ele>
        <time>2017-03-26T08:00:47Z</time>
      </trkpt>
      <trkpt lat="43.34438" lon="-0.53646">
        <ele>194.8</ele>
        <time>2017-03-26T08:01:01Z</time>
      </trkpt>
      <trkpt lat="43.3444" lon="-0.53635">
        <ele>196.73</ele>
        <time>2017-03-26T08:01:13Z</time>
      </trkpt>
      <trkpt lat="43.34442" lon="-0.53633">
        <ele>196.73</ele>
        <time>2017-03-26T08:01:26Z</time>
      </trkpt>
      <trkpt lat="43.34451" lon="-0.53635">
        <ele>199.61</ele>
        <time>2017-03-26T08:01:42Z</time>
      </trkpt>
      <trkpt lat="43.3446" lon="-0.53628">
        <ele>199.61</ele>
        <time>2017-03-26T08:01:57Z</time>
      </trkpt>
      <trkpt lat="43.34465" lon="-0.53627">
        <ele>201.05</ele>
        <time>2017-03-26T08:02:08Z</time>
      </trkpt>
      <trkpt lat="43.34474" lon="-0.53624">
        <ele>203.94</ele>
        <time>2017-03-26T08:02:22Z</time>
      </trkpt>
      <trkpt lat="43.34482" lon="-0.53622">
        <ele>206.82</ele>
        <time>2017-03-26T08:02:36Z</time>
      </trkpt>
      <trkpt lat="43.3449" lon="-0.53615">
        <ele>206.82</ele>
        <time>2017-03-26T08:02:50Z</time>
      </trkpt>
      <trkpt lat="43.34498" lon="-0.53606">
        <ele>209.22</ele>
        <time>2017-03-26T08:03:05Z</time>
      </trkpt>
      <trkpt lat="43.34507" lon="-0.53599">
        <ele>210.19</ele>
        <time>2017-03-26T08:03:19Z</time>
      </trkpt>
      <trkpt lat="43.34513" lon="-0.53585">
        <ele>210.19</ele>
        <time>2017-03-26T08:03:33Z</time>
      </trkpt>
      <trkpt lat="43.34522" lon="-0.53571">
        <ele>208.74</ele>
        <time>2017-03-26T08:03:48Z</time>
      </trkpt>
      <trkpt lat="43.34531" lon="-0.53558">
        <ele>209.7</ele>
        <time>2017-03-26T08:04:04Z</time>
      </trkpt>
      <trkpt lat="43.34532" lon="-0.5355">
        <ele>210.67</ele>
        <time>2017-03-26T08:04:18Z</time>
      </trkpt>
      <trkpt lat="43.34532" lon="-0.53545">
        <ele>210.19</ele>
        <time>2017-03-26T08:04:22Z</time>
      </trkpt>
      <trkpt lat="43.34533" lon="-0.53503">
        <ele>210.19</ele>
        <time>2017-03-26T08:04:35Z</time>
      </trkpt>
      <trkpt lat="43.34524" lon="-0.53463">
        <ele>213.07</ele>
        <time>2017-03-26T08:04:46Z</time>
      </trkpt>
      <trkpt lat="43.34508" lon="-0.53421">
        <ele>216.43</ele>
        <time>2017-03-26T08:04:58Z</time>
      </trkpt>
      <trkpt lat="43.34497" lon="-0.53376">
        <ele>221.24</ele>
        <time>2017-03-26T08:05:10Z</time>
      </trkpt>
      <trkpt lat="43.34496" lon="-0.5335">
        <ele>225.09</ele>
        <time>2017-03-26T08:05:22Z</time>
      </trkpt>
      <trkpt lat="43.34496" lon="-0.53342">
        <ele>225.57</ele>
        <time>2017-03-26T08:05:26Z</time>
      </trkpt>
      <trkpt lat="43.34495" lon="-0.5334">
        <ele>225.57</ele>
        <time>2017-03-26T08:05:27Z</time>
      </trkpt>
      <trkpt lat="43.34486" lon="-0.53311">
        <ele>227.01</ele>
        <time>2017-03-26T08:05:36Z</time>
      </trkpt>
      <trkpt lat="43.34468" lon="-0.5327">
        <ele>227.01</ele>
        <time>2017-03-26T08:05:47Z</time>
      </trkpt>
      <trkpt lat="43.34452" lon="-0.53228">
        <ele>224.61</ele>
        <time>2017-03-26T08:05:57Z</time>
      </trkpt>
      <trkpt lat="43.34437" lon="-0.53178">
        <ele>223.16</ele>
        <time>2017-03-26T08:06:08Z</time>
      </trkpt>
      <trkpt lat="43.34431" lon="-0.53141">
        <ele>222.68</ele>
        <time>2017-03-26T08:06:20Z</time>
      </trkpt>
      <trkpt lat="43.3443" lon="-0.53138">
        <ele>222.68</ele>
        <time>2017-03-26T08:06:21Z</time>
      </trkpt>
      <trkpt lat="43.3443" lon="-0.53134">
        <ele>222.68</ele>
        <time>2017-03-26T08:06:22Z</time>
      </trkpt>
      <trkpt lat="43.3443" lon="-0.53129">
        <ele>222.68</ele>
        <time>2017-03-26T08:06:23Z</time>
      </trkpt>
      <trkpt lat="43.3443" lon="-0.53125">
        <ele>222.68</ele>
        <time>2017-03-26T08:06:24Z</time>
      </trkpt>
      <trkpt lat="43.34428" lon="-0.53078">
        <ele>224.12</ele>
        <time>2017-03-26T08:06:37Z</time>
      </trkpt>
      <trkpt lat="43.3441" lon="-0.53028">
        <ele>222.68</ele>
        <time>2017-03-26T08:06:49Z</time>
      </trkpt>
      <trkpt lat="43.34396" lon="-0.53006">
        <ele>223.16</ele>
        <time>2017-03-26T08:06:54Z</time>
      </trkpt>
      <trkpt lat="43.34392" lon="-0.53002">
        <ele>223.16</ele>
        <time>2017-03-26T08:06:55Z</time>
      </trkpt>
      <trkpt lat="43.34387" lon="-0.52998">
        <ele>223.16</ele>
        <time>2017-03-26T08:06:56Z</time>
      </trkpt>
      <trkpt lat="43.34382" lon="-0.52996">
        <ele>223.64</ele>
        <time>2017-03-26T08:06:57Z</time>
      </trkpt>
      <trkpt lat="43.34376" lon="-0.52995">
        <ele>223.64</ele>
        <time>2017-03-26T08:06:58Z</time>
      </trkpt>
      <trkpt lat="43.34372" lon="-0.52994">
        <ele>223.16</ele>
        <time>2017-03-26T08:06:59Z</time>
      </trkpt>
      <trkpt lat="43.34346" lon="-0.52994">
        <ele>221.24</ele>
        <time>2017-03-26T08:07:09Z</time>
      </trkpt>
      <trkpt lat="43.34318" lon="-0.53003">
        <ele>216.43</ele>
        <time>2017-03-26T08:07:20Z</time>
      </trkpt>
      <trkpt lat="43.3429" lon="-0.53025">
        <ele>208.26</ele>
        <time>2017-03-26T08:07:33Z</time>
      </trkpt>
      <trkpt lat="43.34281" lon="-0.53041">
        <ele>203.94</ele>
        <time>2017-03-26T08:07:37Z</time>
      </trkpt>
      <trkpt lat="43.34257" lon="-0.53083">
        <ele>195.77</ele>
        <time>2017-03-26T08:07:47Z</time>
      </trkpt>
      <trkpt lat="43.34219" lon="-0.53126">
        <ele>194.32</ele>
        <time>2017-03-26T08:08:00Z</time>
      </trkpt>
      <trkpt lat="43.34198" lon="-0.53151">
        <ele>195.77</ele>
        <time>2017-03-26T08:08:11Z</time>
      </trkpt>
      <trkpt lat="43.34172" lon="-0.53166">
        <ele>196.73</ele>
        <time>2017-03-26T08:08:22Z</time>
      </trkpt>
      <trkpt lat="43.34156" lon="-0.53167">
        <ele>203.94</ele>
        <time>2017-03-26T08:08:32Z</time>
      </trkpt>
      <trkpt lat="43.34158" lon="-0.53166">
        <ele>205.38</ele>
        <time>2017-03-26T08:08:37Z</time>
      </trkpt>
      <trkpt lat="43.34162" lon="-0.53167">
        <ele>208.74</ele>
        <time>2017-03-26T08:08:50Z</time>
      </trkpt>
      <trkpt lat="43.34165" lon="-0.53168">
        <ele>205.86</ele>
        <time>2017-03-26T08:09:18Z</time>
      </trkpt>
      <trkpt lat="43.34164" lon="-0.53167">
        <ele>207.78</ele>
        <time>2017-03-26T08:09:55Z</time>
      </trkpt>
      <trkpt lat="43.34167" lon="-0.53167">
        <ele>209.7</ele>
        <time>2017-03-26T08:10:43Z</time>
      </trkpt>
      <trkpt lat="43.34166" lon="-0.53175">
        <ele>216.43</ele>
        <time>2017-03-26T08:11:30Z</time>
      </trkpt>
      <trkpt lat="43.34161" lon="-0.53178">
        <ele>218.84</ele>
        <time>2017-03-26T08:12:13Z</time>
      </trkpt>
      <trkpt lat="43.34162" lon="-0.53172">
        <ele>219.32</ele>
        <time>2017-03-26T08:12:51Z</time>
      </trkpt>
      <trkpt lat="43.3416" lon="-0.53172">
        <ele>216.43</ele>
        <time>2017-03-26T08:13:37Z</time>
      </trkpt>
      <trkpt lat="43.34162" lon="-0.5317">
        <ele>213.55</ele>
        <time>2017-03-26T08:14:05Z</time>
      </trkpt>
      <trkpt lat="43.34161" lon="-0.53168">
        <ele>214.99</ele>
        <time>2017-03-26T08:14:20Z</time>
      </trkpt>
      <trkpt lat="43.3416" lon="-0.53168">
        <ele>214.51</ele>
        <time>2017-03-26T08:14:28Z</time>
      </trkpt>
      <trkpt lat="43.34158" lon="-0.53169">
        <ele>214.03</ele>
        <time>2017-03-26T08:14:29Z</time>
      </trkpt>
      <trkpt lat="43.34146" lon="-0.53174">
        <ele>213.07</ele>
        <time>2017-03-26T08:14:32Z</time>
      </trkpt>
      <trkpt lat="43.34142" lon="-0.53174">
        <ele>212.59</ele>
        <time>2017-03-26T08:14:33Z</time>
      </trkpt>
      <trkpt lat="43.34137" lon="-0.53174">
        <ele>212.11</ele>
        <time>2017-03-26T08:14:34Z</time>
      </trkpt>
      <trkpt lat="43.34133" lon="-0.53174">
        <ele>211.63</ele>
        <time>2017-03-26T08:14:35Z</time>
      </trkpt>
      <trkpt lat="43.34129" lon="-0.53173">
        <ele>211.15</ele>
        <time>2017-03-26T08:14:36Z</time>
      </trkpt>
      <trkpt lat="43.34126" lon="-0.53174">
        <ele>210.67</ele>
        <time>2017-03-26T08:14:37Z</time>
      </trkpt>
      <trkpt lat="43.34122" lon="-0.53174">
        <ele>210.67</ele>
        <time>2017-03-26T08:14:38Z</time>
      </trkpt>
      <trkpt lat="43.34119" lon="-0.53174">
        <ele>210.19</ele>
        <time>2017-03-26T08:14:39Z</time>
      </trkpt>
      <trkpt lat="43.34115" lon="-0.53174">
        <ele>209.7</ele>
        <time>2017-03-26T08:14:40Z</time>
      </trkpt>
      <trkpt lat="43.34111" lon="-0.53175">
        <ele>209.22</ele>
        <time>2017-03-26T08:14:41Z</time>
      </trkpt>
      <trkpt lat="43.34044" lon="-0.5318">
        <ele>205.38</ele>
        <time>2017-03-26T08:14:53Z</time>
      </trkpt>
      <trkpt lat="43.34008" lon="-0.53173">
        <ele>203.46</ele>
        <time>2017-03-26T08:14:59Z</time>
      </trkpt>
      <trkpt lat="43.34003" lon="-0.5317">
        <ele>202.98</ele>
        <time>2017-03-26T08:15:00Z</time>
      </trkpt>
      <trkpt lat="43.33998" lon="-0.53167">
        <ele>202.49</ele>
        <time>2017-03-26T08:15:02Z</time>
      </trkpt>
      <trkpt lat="43.33995" lon="-0.53168">
        <ele>202.01</ele>
        <time>2017-03-26T08:15:03Z</time>
      </trkpt>
      <trkpt lat="43.33992" lon="-0.53179">
        <ele>201.05</ele>
        <time>2017-03-26T08:15:06Z</time>
      </trkpt>
      <trkpt lat="43.3399" lon="-0.53191">
        <ele>201.05</ele>
        <time>2017-03-26T08:15:08Z</time>
      </trkpt>
      <trkpt lat="43.33981" lon="-0.53203">
        <ele>200.09</ele>
        <time>2017-03-26T08:15:11Z</time>
      </trkpt>
      <trkpt lat="43.33958" lon="-0.5322">
        <ele>198.65</ele>
        <time>2017-03-26T08:15:16Z</time>
      </trkpt>
      <trkpt lat="43.33933" lon="-0.53217">
        <ele>194.8</ele>
        <time>2017-03-26T08:15:24Z</time>
      </trkpt>
      <trkpt lat="43.33911" lon="-0.53196">
        <ele>193.36</ele>
        <time>2017-03-26T08:15:32Z</time>
      </trkpt>
      <trkpt lat="43.3389" lon="-0.53196">
        <ele>190.96</ele>
        <time>2017-03-26T08:15:40Z</time>
      </trkpt>
      <trkpt lat="43.33881" lon="-0.53196">
        <ele>190</ele>
        <time>2017-03-26T08:15:42Z</time>
      </trkpt>
      <trkpt lat="43.33857" lon="-0.53188">
        <ele>187.11</ele>
        <time>2017-03-26T08:15:49Z</time>
      </trkpt>
      <trkpt lat="43.3385" lon="-0.53175">
        <ele>186.15</ele>
        <time>2017-03-26T08:15:53Z</time>
      </trkpt>
      <trkpt lat="43.33835" lon="-0.53167">
        <ele>184.23</ele>
        <time>2017-03-26T08:15:59Z</time>
      </trkpt>
      <trkpt lat="43.33808" lon="-0.53163">
        <ele>176.06</ele>
        <time>2017-03-26T08:16:09Z</time>
      </trkpt>
      <trkpt lat="43.33804" lon="-0.53161">
        <ele>175.1</ele>
        <time>2017-03-26T08:16:10Z</time>
      </trkpt>
      <trkpt lat="43.33751" lon="-0.53172">
        <ele>165.48</ele>
        <time>2017-03-26T08:16:20Z</time>
      </trkpt>
      <trkpt lat="43.3372" lon="-0.53148">
        <ele>158.75</ele>
        <time>2017-03-26T08:16:26Z</time>
      </trkpt>
      <trkpt lat="43.337" lon="-0.53138">
        <ele>154.91</ele>
        <time>2017-03-26T08:16:29Z</time>
      </trkpt>
      <trkpt lat="43.33674" lon="-0.53146">
        <ele>148.18</ele>
        <time>2017-03-26T08:16:34Z</time>
      </trkpt>
      <trkpt lat="43.33667" lon="-0.53156">
        <ele>145.3</ele>
        <time>2017-03-26T08:16:36Z</time>
      </trkpt>
      <trkpt lat="43.33618" lon="-0.5318">
        <ele>135.2</ele>
        <time>2017-03-26T08:16:46Z</time>
      </trkpt>
      <trkpt lat="43.33589" lon="-0.53175">
        <ele>131.84</ele>
        <time>2017-03-26T08:16:53Z</time>
      </trkpt>
      <trkpt lat="43.33557" lon="-0.53176">
        <ele>128.47</ele>
        <time>2017-03-26T08:16:59Z</time>
      </trkpt>
      <trkpt lat="43.33553" lon="-0.53181">
        <ele>127.99</ele>
        <time>2017-03-26T08:17:00Z</time>
      </trkpt>
      <trkpt lat="43.33525" lon="-0.53202">
        <ele>124.15</ele>
        <time>2017-03-26T08:17:06Z</time>
      </trkpt>
      <trkpt lat="43.3352" lon="-0.53205">
        <ele>123.67</ele>
        <time>2017-03-26T08:17:07Z</time>
      </trkpt>
      <trkpt lat="43.335" lon="-0.53221">
        <ele>121.74</ele>
        <time>2017-03-26T08:17:12Z</time>
      </trkpt>
      <trkpt lat="43.33498" lon="-0.53225">
        <ele>120.78</ele>
        <time>2017-03-26T08:17:13Z</time>
      </trkpt>
      <trkpt lat="43.33495" lon="-0.53228">
        <ele>120.3</ele>
        <time>2017-03-26T08:17:14Z</time>
      </trkpt>
      <trkpt lat="43.33492" lon="-0.53232">
        <ele>119.82</ele>
        <time>2017-03-26T08:17:15Z</time>
      </trkpt>
      <trkpt lat="43.33488" lon="-0.53235">
        <ele>119.34</ele>
        <time>2017-03-26T08:17:16Z</time>
      </trkpt>
      <trkpt lat="43.33483" lon="-0.53238">
        <ele>118.86</ele>
        <time>2017-03-26T08:17:17Z</time>
      </trkpt>
      <trkpt lat="43.33478" lon="-0.53241">
        <ele>118.86</ele>
        <time>2017-03-26T08:17:18Z</time>
      </trkpt>
      <trkpt lat="43.33468" lon="-0.53249">
        <ele>119.34</ele>
        <time>2017-03-26T08:17:20Z</time>
      </trkpt>
      <trkpt lat="43.33464" lon="-0.53253">
        <ele>119.82</ele>
        <time>2017-03-26T08:17:21Z</time>
      </trkpt>
      <trkpt lat="43.33462" lon="-0.53259">
        <ele>119.82</ele>
        <time>2017-03-26T08:17:22Z</time>
      </trkpt>
      <trkpt lat="43.33459" lon="-0.53264">
        <ele>119.82</ele>
        <time>2017-03-26T08:17:23Z</time>
      </trkpt>
      <trkpt lat="43.33456" lon="-0.53269">
        <ele>119.82</ele>
        <time>2017-03-26T08:17:24Z</time>
      </trkpt>
      <trkpt lat="43.33445" lon="-0.53284">
        <ele>119.82</ele>
        <time>2017-03-26T08:17:28Z</time>
      </trkpt>
      <trkpt lat="43.33442" lon="-0.53289">
        <ele>119.82</ele>
        <time>2017-03-26T08:17:29Z</time>
      </trkpt>
      <trkpt lat="43.3344" lon="-0.53294">
        <ele>119.82</ele>
        <time>2017-03-26T08:17:30Z</time>
      </trkpt>
      <trkpt lat="43.3344" lon="-0.53299">
        <ele>120.3</ele>
        <time>2017-03-26T08:17:31Z</time>
      </trkpt>
      <trkpt lat="43.33439" lon="-0.53304">
        <ele>120.78</ele>
        <time>2017-03-26T08:17:32Z</time>
      </trkpt>
      <trkpt lat="43.33436" lon="-0.53315">
        <ele>121.74</ele>
        <time>2017-03-26T08:17:35Z</time>
      </trkpt>
      <trkpt lat="43.33433" lon="-0.53317">
        <ele>122.22</ele>
        <time>2017-03-26T08:17:36Z</time>
      </trkpt>
      <trkpt lat="43.33429" lon="-0.53319">
        <ele>122.22</ele>
        <time>2017-03-26T08:17:37Z</time>
      </trkpt>
      <trkpt lat="43.33407" lon="-0.53326">
        <ele>123.19</ele>
        <time>2017-03-26T08:17:41Z</time>
      </trkpt>
      <trkpt lat="43.33403" lon="-0.5333">
        <ele>123.19</ele>
        <time>2017-03-26T08:17:42Z</time>
      </trkpt>
      <trkpt lat="43.33398" lon="-0.53336">
        <ele>122.71</ele>
        <time>2017-03-26T08:17:43Z</time>
      </trkpt>
      <trkpt lat="43.33382" lon="-0.53357">
        <ele>121.26</ele>
        <time>2017-03-26T08:17:47Z</time>
      </trkpt>
      <trkpt lat="43.33378" lon="-0.53361">
        <ele>120.78</ele>
        <time>2017-03-26T08:17:48Z</time>
      </trkpt>
      <trkpt lat="43.33375" lon="-0.53365">
        <ele>120.78</ele>
        <time>2017-03-26T08:17:49Z</time>
      </trkpt>
      <trkpt lat="43.33371" lon="-0.53368">
        <ele>120.78</ele>
        <time>2017-03-26T08:17:50Z</time>
      </trkpt>
      <trkpt lat="43.33369" lon="-0.53371">
        <ele>120.78</ele>
        <time>2017-03-26T08:17:51Z</time>
      </trkpt>
      <trkpt lat="43.33368" lon="-0.53374">
        <ele>120.78</ele>
        <time>2017-03-26T08:17:52Z</time>
      </trkpt>
      <trkpt lat="43.33368" lon="-0.53377">
        <ele>120.78</ele>
        <time>2017-03-26T08:17:53Z</time>
      </trkpt>
      <trkpt lat="43.33369" lon="-0.5338">
        <ele>120.78</ele>
        <time>2017-03-26T08:17:54Z</time>
      </trkpt>
      <trkpt lat="43.33369" lon="-0.53382">
        <ele>120.3</ele>
        <time>2017-03-26T08:17:55Z</time>
      </trkpt>
      <trkpt lat="43.3337" lon="-0.53385">
        <ele>120.3</ele>
        <time>2017-03-26T08:17:56Z</time>
      </trkpt>
      <trkpt lat="43.33384" lon="-0.53423">
        <ele>121.26</ele>
        <time>2017-03-26T08:18:07Z</time>
      </trkpt>
      <trkpt lat="43.33415" lon="-0.53455">
        <ele>122.22</ele>
        <time>2017-03-26T08:18:16Z</time>
      </trkpt>
      <trkpt lat="43.33488" lon="-0.53488">
        <ele>122.71</ele>
        <time>2017-03-26T08:18:31Z</time>
      </trkpt>
      <trkpt lat="43.33508" lon="-0.53496">
        <ele>122.71</ele>
        <time>2017-03-26T08:18:35Z</time>
      </trkpt>
      <trkpt lat="43.33514" lon="-0.53498">
        <ele>122.71</ele>
        <time>2017-03-26T08:18:36Z</time>
      </trkpt>
      <trkpt lat="43.33552" lon="-0.53509">
        <ele>121.74</ele>
        <time>2017-03-26T08:18:43Z</time>
      </trkpt>
      <trkpt lat="43.33597" lon="-0.53525">
        <ele>121.74</ele>
        <time>2017-03-26T08:18:51Z</time>
      </trkpt>
      <trkpt lat="43.33608" lon="-0.53532">
        <ele>121.74</ele>
        <time>2017-03-26T08:18:53Z</time>
      </trkpt>
      <trkpt lat="43.33637" lon="-0.5356">
        <ele>121.26</ele>
        <time>2017-03-26T08:18:59Z</time>
      </trkpt>
      <trkpt lat="43.3365" lon="-0.53577">
        <ele>121.26</ele>
        <time>2017-03-26T08:19:02Z</time>
      </trkpt>
      <trkpt lat="43.33711" lon="-0.53686">
        <ele>122.71</ele>
        <time>2017-03-26T08:19:18Z</time>
      </trkpt>
      <trkpt lat="43.3377" lon="-0.53767">
        <ele>124.15</ele>
        <time>2017-03-26T08:19:32Z</time>
      </trkpt>
      <trkpt lat="43.33817" lon="-0.53846">
        <ele>123.67</ele>
        <time>2017-03-26T08:19:45Z</time>
      </trkpt>
      <trkpt lat="43.33821" lon="-0.53851">
        <ele>123.67</ele>
        <time>2017-03-26T08:19:46Z</time>
      </trkpt>
      <trkpt lat="43.33848" lon="-0.53879">
        <ele>121.74</ele>
        <time>2017-03-26T08:19:51Z</time>
      </trkpt>
      <trkpt lat="43.33854" lon="-0.53883">
        <ele>121.74</ele>
        <time>2017-03-26T08:19:52Z</time>
      </trkpt>
      <trkpt lat="43.33871" lon="-0.53894">
        <ele>121.26</ele>
        <time>2017-03-26T08:19:55Z</time>
      </trkpt>
      <trkpt lat="43.33947" lon="-0.53936">
        <ele>122.22</ele>
        <time>2017-03-26T08:20:09Z</time>
      </trkpt>
      <trkpt lat="43.34004" lon="-0.53985">
        <ele>127.03</ele>
        <time>2017-03-26T08:20:22Z</time>
      </trkpt>
      <trkpt lat="43.34008" lon="-0.53988">
        <ele>127.51</ele>
        <time>2017-03-26T08:20:23Z</time>
      </trkpt>
      <trkpt lat="43.34042" lon="-0.5403">
        <ele>127.99</ele>
        <time>2017-03-26T08:20:36Z</time>
      </trkpt>
      <trkpt lat="43.34067" lon="-0.54067">
        <ele>127.51</ele>
        <time>2017-03-26T08:20:46Z</time>
      </trkpt>
      <trkpt lat="43.3407" lon="-0.54066">
        <ele>127.51</ele>
        <time>2017-03-26T08:20:47Z</time>
      </trkpt>
      <trkpt lat="43.34073" lon="-0.54065">
        <ele>127.99</ele>
        <time>2017-03-26T08:20:48Z</time>
      </trkpt>
      <trkpt lat="43.34074" lon="-0.54063">
        <ele>127.99</ele>
        <time>2017-03-26T08:20:49Z</time>
      </trkpt>
      <trkpt lat="43.34076" lon="-0.54062">
        <ele>127.99</ele>
        <time>2017-03-26T08:20:50Z</time>
      </trkpt>
      <trkpt lat="43.34076" lon="-0.5406">
        <ele>128.47</ele>
        <time>2017-03-26T08:20:51Z</time>
      </trkpt>
      <trkpt lat="43.34078" lon="-0.54059">
        <ele>128.47</ele>
        <time>2017-03-26T08:20:52Z</time>
      </trkpt>
      <trkpt lat="43.34079" lon="-0.54058">
        <ele>128.47</ele>
        <time>2017-03-26T08:20:53Z</time>
      </trkpt>
      <trkpt lat="43.3408" lon="-0.54057">
        <ele>128.95</ele>
        <time>2017-03-26T08:20:54Z</time>
      </trkpt>
      <trkpt lat="43.34087" lon="-0.54048">
        <ele>130.88</ele>
        <time>2017-03-26T08:21:02Z</time>
      </trkpt>
      <trkpt lat="43.34097" lon="-0.54037">
        <ele>134.72</ele>
        <time>2017-03-26T08:21:12Z</time>
      </trkpt>
      <trkpt lat="43.34098" lon="-0.54035">
        <ele>134.72</ele>
        <time>2017-03-26T08:21:13Z</time>
      </trkpt>
      <trkpt lat="43.34108" lon="-0.54023">
        <ele>136.16</ele>
        <time>2017-03-26T08:21:24Z</time>
      </trkpt>
      <trkpt lat="43.34115" lon="-0.54021">
        <ele>137.13</ele>
        <time>2017-03-26T08:21:30Z</time>
      </trkpt>
      <trkpt lat="43.34116" lon="-0.54021">
        <ele>137.13</ele>
        <time>2017-03-26T08:21:31Z</time>
      </trkpt>
      <trkpt lat="43.34123" lon="-0.54024">
        <ele>136.64</ele>
        <time>2017-03-26T08:21:37Z</time>
      </trkpt>
      <trkpt lat="43.34124" lon="-0.54026">
        <ele>136.64</ele>
        <time>2017-03-26T08:21:38Z</time>
      </trkpt>
      <trkpt lat="43.34129" lon="-0.54036">
        <ele>136.64</ele>
        <time>2017-03-26T08:21:44Z</time>
      </trkpt>
      <trkpt lat="43.34135" lon="-0.54041">
        <ele>135.68</ele>
        <time>2017-03-26T08:21:49Z</time>
      </trkpt>
      <trkpt lat="43.34133" lon="-0.54044">
        <ele>135.68</ele>
        <time>2017-03-26T08:21:57Z</time>
      </trkpt>
      <trkpt lat="43.34127" lon="-0.54028">
        <ele>135.68</ele>
        <time>2017-03-26T08:22:06Z</time>
      </trkpt>
      <trkpt lat="43.34124" lon="-0.54017">
        <ele>136.64</ele>
        <time>2017-03-26T08:22:13Z</time>
      </trkpt>
      <trkpt lat="43.34125" lon="-0.54014">
        <ele>137.13</ele>
        <time>2017-03-26T08:22:15Z</time>
      </trkpt>
      <trkpt lat="43.3414" lon="-0.54007">
        <ele>138.09</ele>
        <time>2017-03-26T08:22:28Z</time>
      </trkpt>
      <trkpt lat="43.34148" lon="-0.53991">
        <ele>140.01</ele>
        <time>2017-03-26T08:22:38Z</time>
      </trkpt>
      <trkpt lat="43.34151" lon="-0.53984">
        <ele>140.97</ele>
        <time>2017-03-26T08:22:50Z</time>
      </trkpt>
      <trkpt lat="43.34152" lon="-0.53987">
        <ele>140.49</ele>
        <time>2017-03-26T08:22:53Z</time>
      </trkpt>
      <trkpt lat="43.3415" lon="-0.53995">
        <ele>139.53</ele>
        <time>2017-03-26T08:22:57Z</time>
      </trkpt>
      <trkpt lat="43.34148" lon="-0.53999">
        <ele>139.53</ele>
        <time>2017-03-26T08:23:00Z</time>
      </trkpt>
      <trkpt lat="43.34119" lon="-0.54013">
        <ele>138.57</ele>
        <time>2017-03-26T08:23:13Z</time>
      </trkpt>
      <trkpt lat="43.34115" lon="-0.54015">
        <ele>137.61</ele>
        <time>2017-03-26T08:23:15Z</time>
      </trkpt>
      <trkpt lat="43.34091" lon="-0.54044">
        <ele>133.76</ele>
        <time>2017-03-26T08:23:25Z</time>
      </trkpt>
      <trkpt lat="43.34078" lon="-0.54067">
        <ele>130.4</ele>
        <time>2017-03-26T08:23:31Z</time>
      </trkpt>
      <trkpt lat="43.34079" lon="-0.54071">
        <ele>129.92</ele>
        <time>2017-03-26T08:23:32Z</time>
      </trkpt>
      <trkpt lat="43.3408" lon="-0.54074">
        <ele>129.92</ele>
        <time>2017-03-26T08:23:33Z</time>
      </trkpt>
      <trkpt lat="43.34115" lon="-0.54134">
        <ele>127.03</ele>
        <time>2017-03-26T08:23:47Z</time>
      </trkpt>
      <trkpt lat="43.34128" lon="-0.5415">
        <ele>126.07</ele>
        <time>2017-03-26T08:23:51Z</time>
      </trkpt>
      <trkpt lat="43.34197" lon="-0.54208">
        <ele>122.71</ele>
        <time>2017-03-26T08:24:06Z</time>
      </trkpt>
      <trkpt lat="43.3421" lon="-0.54216">
        <ele>122.71</ele>
        <time>2017-03-26T08:24:09Z</time>
      </trkpt>
      <trkpt lat="43.34214" lon="-0.54218">
        <ele>122.71</ele>
        <time>2017-03-26T08:24:10Z</time>
      </trkpt>
      <trkpt lat="43.34259" lon="-0.54257">
        <ele>124.15</ele>
        <time>2017-03-26T08:24:24Z</time>
      </trkpt>
      <trkpt lat="43.34289" lon="-0.54307">
        <ele>124.15</ele>
        <time>2017-03-26T08:24:37Z</time>
      </trkpt>
      <trkpt lat="43.34318" lon="-0.54382">
        <ele>122.71</ele>
        <time>2017-03-26T08:24:52Z</time>
      </trkpt>
      <trkpt lat="43.34322" lon="-0.54401">
        <ele>122.22</ele>
        <time>2017-03-26T08:24:55Z</time>
      </trkpt>
      <trkpt lat="43.34324" lon="-0.54407">
        <ele>121.74</ele>
        <time>2017-03-26T08:24:56Z</time>
      </trkpt>
      <trkpt lat="43.34326" lon="-0.54413">
        <ele>121.74</ele>
        <time>2017-03-26T08:24:57Z</time>
      </trkpt>
      <trkpt lat="43.34329" lon="-0.54419">
        <ele>121.26</ele>
        <time>2017-03-26T08:24:58Z</time>
      </trkpt>
      <trkpt lat="43.34333" lon="-0.54425">
        <ele>121.26</ele>
        <time>2017-03-26T08:24:59Z</time>
      </trkpt>
      <trkpt lat="43.34337" lon="-0.5443">
        <ele>120.78</ele>
        <time>2017-03-26T08:25:00Z</time>
      </trkpt>
      <trkpt lat="43.34342" lon="-0.54435">
        <ele>120.78</ele>
        <time>2017-03-26T08:25:01Z</time>
      </trkpt>
      <trkpt lat="43.34385" lon="-0.54484">
        <ele>122.22</ele>
        <time>2017-03-26T08:25:11Z</time>
      </trkpt>
      <trkpt lat="43.34404" lon="-0.54498">
        <ele>123.67</ele>
        <time>2017-03-26T08:25:15Z</time>
      </trkpt>
      <trkpt lat="43.34409" lon="-0.545">
        <ele>123.67</ele>
        <time>2017-03-26T08:25:16Z</time>
      </trkpt>
      <trkpt lat="43.3442" lon="-0.54504">
        <ele>123.67</ele>
        <time>2017-03-26T08:25:18Z</time>
      </trkpt>
      <trkpt lat="43.34425" lon="-0.54504">
        <ele>123.67</ele>
        <time>2017-03-26T08:25:19Z</time>
      </trkpt>
      <trkpt lat="43.3444" lon="-0.54505">
        <ele>124.15</ele>
        <time>2017-03-26T08:25:22Z</time>
      </trkpt>
      <trkpt lat="43.34446" lon="-0.54507">
        <ele>124.15</ele>
        <time>2017-03-26T08:25:23Z</time>
      </trkpt>
      <trkpt lat="43.34461" lon="-0.54513">
        <ele>124.63</ele>
        <time>2017-03-26T08:25:26Z</time>
      </trkpt>
      <trkpt lat="43.34501" lon="-0.54539">
        <ele>127.03</ele>
        <time>2017-03-26T08:25:34Z</time>
      </trkpt>
      <trkpt lat="43.34506" lon="-0.54542">
        <ele>127.51</ele>
        <time>2017-03-26T08:25:35Z</time>
      </trkpt>
      <trkpt lat="43.34511" lon="-0.54545">
        <ele>127.51</ele>
        <time>2017-03-26T08:25:36Z</time>
      </trkpt>
      <trkpt lat="43.34516" lon="-0.54548">
        <ele>127.51</ele>
        <time>2017-03-26T08:25:37Z</time>
      </trkpt>
      <trkpt lat="43.34521" lon="-0.54549">
        <ele>127.51</ele>
        <time>2017-03-26T08:25:38Z</time>
      </trkpt>
      <trkpt lat="43.34526" lon="-0.5455">
        <ele>127.51</ele>
        <time>2017-03-26T08:25:39Z</time>
      </trkpt>
      <trkpt lat="43.34532" lon="-0.54551">
        <ele>127.51</ele>
        <time>2017-03-26T08:25:40Z</time>
      </trkpt>
      <trkpt lat="43.34537" lon="-0.5455">
        <ele>127.51</ele>
        <time>2017-03-26T08:25:41Z</time>
      </trkpt>
      <trkpt lat="43.34542" lon="-0.54549">
        <ele>127.99</ele>
        <time>2017-03-26T08:25:42Z</time>
      </trkpt>
      <trkpt lat="43.34547" lon="-0.54547">
        <ele>127.99</ele>
        <time>2017-03-26T08:25:43Z</time>
      </trkpt>
      <trkpt lat="43.34561" lon="-0.54542">
        <ele>127.51</ele>
        <time>2017-03-26T08:25:46Z</time>
      </trkpt>
      <trkpt lat="43.34565" lon="-0.54542">
        <ele>127.51</ele>
        <time>2017-03-26T08:25:47Z</time>
      </trkpt>
      <trkpt lat="43.3457" lon="-0.54544">
        <ele>127.03</ele>
        <time>2017-03-26T08:25:48Z</time>
      </trkpt>
      <trkpt lat="43.34574" lon="-0.54546">
        <ele>127.03</ele>
        <time>2017-03-26T08:25:49Z</time>
      </trkpt>
      <trkpt lat="43.34578" lon="-0.5455">
        <ele>127.03</ele>
        <time>2017-03-26T08:25:50Z</time>
      </trkpt>
      <trkpt lat="43.34582" lon="-0.54556">
        <ele>127.03</ele>
        <time>2017-03-26T08:25:51Z</time>
      </trkpt>
      <trkpt lat="43.34584" lon="-0.54561">
        <ele>127.03</ele>
        <time>2017-03-26T08:25:52Z</time>
      </trkpt>
      <trkpt lat="43.34587" lon="-0.54566">
        <ele>126.55</ele>
        <time>2017-03-26T08:25:53Z</time>
      </trkpt>
      <trkpt lat="43.34589" lon="-0.54572">
        <ele>126.07</ele>
        <time>2017-03-26T08:25:54Z</time>
      </trkpt>
      <trkpt lat="43.34591" lon="-0.54579">
        <ele>125.11</ele>
        <time>2017-03-26T08:25:55Z</time>
      </trkpt>
      <trkpt lat="43.34595" lon="-0.54593">
        <ele>123.67</ele>
        <time>2017-03-26T08:25:57Z</time>
      </trkpt>
      <trkpt lat="43.34606" lon="-0.54637">
        <ele>120.78</ele>
        <time>2017-03-26T08:26:04Z</time>
      </trkpt>
      <trkpt lat="43.3461" lon="-0.54647">
        <ele>121.26</ele>
        <time>2017-03-26T08:26:06Z</time>
      </trkpt>
      <trkpt lat="43.34613" lon="-0.54651">
        <ele>121.26</ele>
        <time>2017-03-26T08:26:07Z</time>
      </trkpt>
      <trkpt lat="43.34616" lon="-0.54654">
        <ele>121.74</ele>
        <time>2017-03-26T08:26:08Z</time>
      </trkpt>
      <trkpt lat="43.34618" lon="-0.54657">
        <ele>122.22</ele>
        <time>2017-03-26T08:26:09Z</time>
      </trkpt>
      <trkpt lat="43.34621" lon="-0.54659">
        <ele>122.71</ele>
        <time>2017-03-26T08:26:10Z</time>
      </trkpt>
      <trkpt lat="43.34624" lon="-0.5466">
        <ele>123.19</ele>
        <time>2017-03-26T08:26:11Z</time>
      </trkpt>
      <trkpt lat="43.34627" lon="-0.54661">
        <ele>123.67</ele>
        <time>2017-03-26T08:26:12Z</time>
      </trkpt>
      <trkpt lat="43.34645" lon="-0.54665">
        <ele>126.55</ele>
        <time>2017-03-26T08:26:19Z</time>
      </trkpt>
      <trkpt lat="43.34646" lon="-0.54663">
        <ele>127.03</ele>
        <time>2017-03-26T08:26:20Z</time>
      </trkpt>
      <trkpt lat="43.34647" lon="-0.54661">
        <ele>127.03</ele>
        <time>2017-03-26T08:26:21Z</time>
      </trkpt>
      <trkpt lat="43.34647" lon="-0.54659">
        <ele>127.51</ele>
        <time>2017-03-26T08:26:22Z</time>
      </trkpt>
      <trkpt lat="43.34646" lon="-0.54657">
        <ele>127.51</ele>
        <time>2017-03-26T08:26:23Z</time>
      </trkpt>
      <trkpt lat="43.34645" lon="-0.54654">
        <ele>127.99</ele>
        <time>2017-03-26T08:26:24Z</time>
      </trkpt>
      <trkpt lat="43.34645" lon="-0.54651">
        <ele>127.99</ele>
        <time>2017-03-26T08:26:25Z</time>
      </trkpt>
      <trkpt lat="43.34645" lon="-0.54648">
        <ele>127.99</ele>
        <time>2017-03-26T08:26:26Z</time>
      </trkpt>
      <trkpt lat="43.34645" lon="-0.54645">
        <ele>127.99</ele>
        <time>2017-03-26T08:26:27Z</time>
      </trkpt>
      <trkpt lat="43.34645" lon="-0.54642">
        <ele>128.47</ele>
        <time>2017-03-26T08:26:28Z</time>
      </trkpt>
      <trkpt lat="43.34646" lon="-0.54638">
        <ele>128.47</ele>
        <time>2017-03-26T08:26:29Z</time>
      </trkpt>
      <trkpt lat="43.34646" lon="-0.54635">
        <ele>128.47</ele>
        <time>2017-03-26T08:26:30Z</time>
      </trkpt>
      <trkpt lat="43.34647" lon="-0.54632">
        <ele>128.47</ele>
        <time>2017-03-26T08:26:31Z</time>
      </trkpt>
      <trkpt lat="43.34662" lon="-0.54608">
        <ele>131.84</ele>
        <time>2017-03-26T08:26:44Z</time>
      </trkpt>
      <trkpt lat="43.34672" lon="-0.54594">
        <ele>136.16</ele>
        <time>2017-03-26T08:26:53Z</time>
      </trkpt>
      <trkpt lat="43.34675" lon="-0.5459">
        <ele>136.64</ele>
        <time>2017-03-26T08:26:56Z</time>
      </trkpt>
      <trkpt lat="43.34676" lon="-0.54588">
        <ele>137.13</ele>
        <time>2017-03-26T08:26:57Z</time>
      </trkpt>
      <trkpt lat="43.34702" lon="-0.54559">
        <ele>142.89</ele>
        <time>2017-03-26T08:27:14Z</time>
      </trkpt>
      <trkpt lat="43.34726" lon="-0.54529">
        <ele>142.41</ele>
        <time>2017-03-26T08:27:30Z</time>
      </trkpt>
      <trkpt lat="43.34748" lon="-0.54501">
        <ele>143.37</ele>
        <time>2017-03-26T08:27:45Z</time>
      </trkpt>
      <trkpt lat="43.3477" lon="-0.54478">
        <ele>145.3</ele>
        <time>2017-03-26T08:28:00Z</time>
      </trkpt>
      <trkpt lat="43.34791" lon="-0.54459">
        <ele>147.22</ele>
        <time>2017-03-26T08:28:14Z</time>
      </trkpt>
      <trkpt lat="43.34809" lon="-0.54434">
        <ele>149.62</ele>
        <time>2017-03-26T08:28:28Z</time>
      </trkpt>
      <trkpt lat="43.3481" lon="-0.54433">
        <ele>149.62</ele>
        <time>2017-03-26T08:28:29Z</time>
      </trkpt>
      <trkpt lat="43.34831" lon="-0.54406">
        <ele>152.03</ele>
        <time>2017-03-26T08:28:44Z</time>
      </trkpt>
      <trkpt lat="43.3486" lon="-0.54379">
        <ele>154.91</ele>
        <time>2017-03-26T08:28:59Z</time>
      </trkpt>
      <trkpt lat="43.34888" lon="-0.54368">
        <ele>156.35</ele>
        <time>2017-03-26T08:29:14Z</time>
      </trkpt>
      <trkpt lat="43.34915" lon="-0.5435">
        <ele>156.83</ele>
        <time>2017-03-26T08:29:29Z</time>
      </trkpt>
      <trkpt lat="43.34944" lon="-0.54309">
        <ele>158.27</ele>
        <time>2017-03-26T08:29:49Z</time>
      </trkpt>
      <trkpt lat="43.34966" lon="-0.5428">
        <ele>161.64</ele>
        <time>2017-03-26T08:30:05Z</time>
      </trkpt>
      <trkpt lat="43.34985" lon="-0.54257">
        <ele>165</ele>
        <time>2017-03-26T08:30:21Z</time>
      </trkpt>
      <trkpt lat="43.35002" lon="-0.54235">
        <ele>167.41</ele>
        <time>2017-03-26T08:30:37Z</time>
      </trkpt>
      <trkpt lat="43.35005" lon="-0.54209">
        <ele>170.77</ele>
        <time>2017-03-26T08:30:53Z</time>
      </trkpt>
      <trkpt lat="43.34995" lon="-0.54177">
        <ele>171.73</ele>
        <time>2017-03-26T08:31:10Z</time>
      </trkpt>
      <trkpt lat="43.34986" lon="-0.54116">
        <ele>170.77</ele>
        <time>2017-03-26T08:31:26Z</time>
      </trkpt>
      <trkpt lat="43.34995" lon="-0.54041">
        <ele>171.73</ele>
        <time>2017-03-26T08:31:43Z</time>
      </trkpt>
      <trkpt lat="43.34994" lon="-0.5399">
        <ele>171.73</ele>
        <time>2017-03-26T08:31:54Z</time>
      </trkpt>
      <trkpt lat="43.34985" lon="-0.53957">
        <ele>173.66</ele>
        <time>2017-03-26T08:32:01Z</time>
      </trkpt>
      <trkpt lat="43.34982" lon="-0.53947">
        <ele>174.14</ele>
        <time>2017-03-26T08:32:03Z</time>
      </trkpt>
      <trkpt lat="43.3498" lon="-0.53941">
        <ele>174.14</ele>
        <time>2017-03-26T08:32:04Z</time>
      </trkpt>
      <trkpt lat="43.34978" lon="-0.53936">
        <ele>174.14</ele>
        <time>2017-03-26T08:32:05Z</time>
      </trkpt>
      <trkpt lat="43.34977" lon="-0.5393">
        <ele>174.14</ele>
        <time>2017-03-26T08:32:06Z</time>
      </trkpt>
      <trkpt lat="43.34975" lon="-0.53924">
        <ele>174.14</ele>
        <time>2017-03-26T08:32:07Z</time>
      </trkpt>
      <trkpt lat="43.34974" lon="-0.53918">
        <ele>174.14</ele>
        <time>2017-03-26T08:32:08Z</time>
      </trkpt>
      <trkpt lat="43.34968" lon="-0.53844">
        <ele>173.66</ele>
        <time>2017-03-26T08:32:21Z</time>
      </trkpt>
      <trkpt lat="43.34968" lon="-0.53795">
        <ele>174.14</ele>
        <time>2017-03-26T08:32:33Z</time>
      </trkpt>
      <trkpt lat="43.34979" lon="-0.53772">
        <ele>177.02</ele>
        <time>2017-03-26T08:32:47Z</time>
      </trkpt>
      <trkpt lat="43.34993" lon="-0.53756">
        <ele>181.35</ele>
        <time>2017-03-26T08:33:00Z</time>
      </trkpt>
      <trkpt lat="43.34995" lon="-0.53754">
        <ele>181.83</ele>
        <time>2017-03-26T08:33:02Z</time>
      </trkpt>
      <trkpt lat="43.3501" lon="-0.53739">
        <ele>184.71</ele>
        <time>2017-03-26T08:33:17Z</time>
      </trkpt>
      <trkpt lat="43.35024" lon="-0.53723">
        <ele>187.59</ele>
        <time>2017-03-26T08:33:30Z</time>
      </trkpt>
      <trkpt lat="43.35025" lon="-0.53722">
        <ele>187.59</ele>
        <time>2017-03-26T08:33:31Z</time>
      </trkpt>
      <trkpt lat="43.35026" lon="-0.53721">
        <ele>188.08</ele>
        <time>2017-03-26T08:33:32Z</time>
      </trkpt>
      <trkpt lat="43.35027" lon="-0.5372">
        <ele>188.08</ele>
        <time>2017-03-26T08:33:33Z</time>
      </trkpt>
      <trkpt lat="43.35028" lon="-0.53718">
        <ele>188.08</ele>
        <time>2017-03-26T08:33:34Z</time>
      </trkpt>
      <trkpt lat="43.35029" lon="-0.53717">
        <ele>188.08</ele>
        <time>2017-03-26T08:33:35Z</time>
      </trkpt>
      <trkpt lat="43.3503" lon="-0.53715">
        <ele>188.08</ele>
        <time>2017-03-26T08:33:36Z</time>
      </trkpt>
      <trkpt lat="43.35031" lon="-0.53713">
        <ele>188.08</ele>
        <time>2017-03-26T08:33:37Z</time>
      </trkpt>
      <trkpt lat="43.35033" lon="-0.5371">
        <ele>188.08</ele>
        <time>2017-03-26T08:33:40Z</time>
      </trkpt>
      <trkpt lat="43.35034" lon="-0.5371">
        <ele>188.56</ele>
        <time>2017-03-26T08:33:41Z</time>
      </trkpt>
      <trkpt lat="43.35036" lon="-0.53711">
        <ele>188.56</ele>
        <time>2017-03-26T08:33:42Z</time>
      </trkpt>
      <trkpt lat="43.35037" lon="-0.53713">
        <ele>188.56</ele>
        <time>2017-03-26T08:33:43Z</time>
      </trkpt>
      <trkpt lat="43.35037" lon="-0.53715">
        <ele>188.56</ele>
        <time>2017-03-26T08:33:44Z</time>
      </trkpt>
      <trkpt lat="43.35038" lon="-0.53717">
        <ele>189.04</ele>
        <time>2017-03-26T08:33:45Z</time>
      </trkpt>
      <trkpt lat="43.35039" lon="-0.53719">
        <ele>189.04</ele>
        <time>2017-03-26T08:33:46Z</time>
      </trkpt>
      <trkpt lat="43.35039" lon="-0.53722">
        <ele>189.04</ele>
        <time>2017-03-26T08:33:47Z</time>
      </trkpt>
      <trkpt lat="43.3504" lon="-0.53725">
        <ele>189.04</ele>
        <time>2017-03-26T08:33:48Z</time>
      </trkpt>
      <trkpt lat="43.35041" lon="-0.53728">
        <ele>189.04</ele>
        <time>2017-03-26T08:33:49Z</time>
      </trkpt>
      <trkpt lat="43.35042" lon="-0.53731">
        <ele>189.04</ele>
        <time>2017-03-26T08:33:50Z</time>
      </trkpt>
      <trkpt lat="43.35043" lon="-0.53733">
        <ele>189.04</ele>
        <time>2017-03-26T08:33:51Z</time>
      </trkpt>
      <trkpt lat="43.35043" lon="-0.53736">
        <ele>189.52</ele>
        <time>2017-03-26T08:33:52Z</time>
      </trkpt>
      <trkpt lat="43.35044" lon="-0.53739">
        <ele>189.52</ele>
        <time>2017-03-26T08:33:53Z</time>
      </trkpt>
      <trkpt lat="43.35045" lon="-0.53742">
        <ele>189.52</ele>
        <time>2017-03-26T08:33:54Z</time>
      </trkpt>
      <trkpt lat="43.35045" lon="-0.53744">
        <ele>189.52</ele>
        <time>2017-03-26T08:33:55Z</time>
      </trkpt>
      <trkpt lat="43.35055" lon="-0.53789">
        <ele>189.52</ele>
        <time>2017-03-26T08:34:11Z</time>
      </trkpt>
      <trkpt lat="43.35055" lon="-0.53791">
        <ele>189.04</ele>
        <time>2017-03-26T08:34:12Z</time>
      </trkpt>
      <trkpt lat="43.35056" lon="-0.53794">
        <ele>188.56</ele>
        <time>2017-03-26T08:34:13Z</time>
      </trkpt>
      <trkpt lat="43.35062" lon="-0.53818">
        <ele>188.08</ele>
        <time>2017-03-26T08:34:22Z</time>
      </trkpt>
      <trkpt lat="43.35063" lon="-0.53821">
        <ele>188.08</ele>
        <time>2017-03-26T08:34:23Z</time>
      </trkpt>
      <trkpt lat="43.35063" lon="-0.53824">
        <ele>187.59</ele>
        <time>2017-03-26T08:34:24Z</time>
      </trkpt>
      <trkpt lat="43.35063" lon="-0.53826">
        <ele>187.59</ele>
        <time>2017-03-26T08:34:25Z</time>
      </trkpt>
      <trkpt lat="43.35064" lon="-0.53829">
        <ele>187.11</ele>
        <time>2017-03-26T08:34:26Z</time>
      </trkpt>
      <trkpt lat="43.35065" lon="-0.53831">
        <ele>186.63</ele>
        <time>2017-03-26T08:34:27Z</time>
      </trkpt>
      <trkpt lat="43.35065" lon="-0.53835">
        <ele>186.15</ele>
        <time>2017-03-26T08:34:28Z</time>
      </trkpt>
      <trkpt lat="43.35066" lon="-0.53838">
        <ele>186.15</ele>
        <time>2017-03-26T08:34:29Z</time>
      </trkpt>
      <trkpt lat="43.35067" lon="-0.53842">
        <ele>185.67</ele>
        <time>2017-03-26T08:34:30Z</time>
      </trkpt>
      <trkpt lat="43.35072" lon="-0.5389">
        <ele>183.27</ele>
        <time>2017-03-26T08:34:43Z</time>
      </trkpt>
      <trkpt lat="43.35073" lon="-0.53896">
        <ele>182.79</ele>
        <time>2017-03-26T08:34:45Z</time>
      </trkpt>
      <trkpt lat="43.35075" lon="-0.53933">
        <ele>180.38</ele>
        <time>2017-03-26T08:34:53Z</time>
      </trkpt>
      <trkpt lat="43.35091" lon="-0.53982">
        <ele>181.83</ele>
        <time>2017-03-26T08:35:07Z</time>
      </trkpt>
      <trkpt lat="43.35113" lon="-0.54013">
        <ele>186.15</ele>
        <time>2017-03-26T08:35:19Z</time>
      </trkpt>
      <trkpt lat="43.35143" lon="-0.54029">
        <ele>188.56</ele>
        <time>2017-03-26T08:35:29Z</time>
      </trkpt>
      <trkpt lat="43.35184" lon="-0.54054">
        <ele>187.11</ele>
        <time>2017-03-26T08:35:38Z</time>
      </trkpt>
      <trkpt lat="43.3519" lon="-0.54056">
        <ele>187.11</ele>
        <time>2017-03-26T08:35:39Z</time>
      </trkpt>
      <trkpt lat="43.35215" lon="-0.54063">
        <ele>192.4</ele>
        <time>2017-03-26T08:35:48Z</time>
      </trkpt>
      <trkpt lat="43.35237" lon="-0.5409">
        <ele>196.25</ele>
        <time>2017-03-26T08:35:58Z</time>
      </trkpt>
      <trkpt lat="43.35239" lon="-0.54096">
        <ele>195.77</ele>
        <time>2017-03-26T08:36:00Z</time>
      </trkpt>
      <trkpt lat="43.35239" lon="-0.54103">
        <ele>194.32</ele>
        <time>2017-03-26T08:36:03Z</time>
      </trkpt>
      <trkpt lat="43.35242" lon="-0.54106">
        <ele>194.32</ele>
        <time>2017-03-26T08:36:04Z</time>
      </trkpt>
      <trkpt lat="43.35244" lon="-0.54108">
        <ele>194.32</ele>
        <time>2017-03-26T08:36:05Z</time>
      </trkpt>
      <trkpt lat="43.35246" lon="-0.54111">
        <ele>194.32</ele>
        <time>2017-03-26T08:36:06Z</time>
      </trkpt>
      <trkpt lat="43.35248" lon="-0.54115">
        <ele>194.32</ele>
        <time>2017-03-26T08:36:07Z</time>
      </trkpt>
      <trkpt lat="43.3525" lon="-0.54119">
        <ele>194.8</ele>
        <time>2017-03-26T08:36:08Z</time>
      </trkpt>
      <trkpt lat="43.35252" lon="-0.54123">
        <ele>195.28</ele>
        <time>2017-03-26T08:36:09Z</time>
      </trkpt>
      <trkpt lat="43.35272" lon="-0.5418">
        <ele>194.32</ele>
        <time>2017-03-26T08:36:23Z</time>
      </trkpt>
      <trkpt lat="43.3529" lon="-0.54256">
        <ele>194.32</ele>
        <time>2017-03-26T08:36:39Z</time>
      </trkpt>
      <trkpt lat="43.353" lon="-0.54311">
        <ele>196.73</ele>
        <time>2017-03-26T08:36:51Z</time>
      </trkpt>
      <trkpt lat="43.35301" lon="-0.54371">
        <ele>199.13</ele>
        <time>2017-03-26T08:37:04Z</time>
      </trkpt>
      <trkpt lat="43.35299" lon="-0.54447">
        <ele>199.13</ele>
        <time>2017-03-26T08:37:18Z</time>
      </trkpt>
      <trkpt lat="43.35303" lon="-0.5453">
        <ele>196.73</ele>
        <time>2017-03-26T08:37:34Z</time>
      </trkpt>
      <trkpt lat="43.35303" lon="-0.54581">
        <ele>196.73</ele>
        <time>2017-03-26T08:37:46Z</time>
      </trkpt>
      <trkpt lat="43.35298" lon="-0.54631">
        <ele>193.84</ele>
        <time>2017-03-26T08:37:57Z</time>
      </trkpt>
      <trkpt lat="43.35305" lon="-0.54708">
        <ele>195.28</ele>
        <time>2017-03-26T08:38:11Z</time>
      </trkpt>
      <trkpt lat="43.35337" lon="-0.54747">
        <ele>200.57</ele>
        <time>2017-03-26T08:38:24Z</time>
      </trkpt>
      <trkpt lat="43.35361" lon="-0.54757">
        <ele>202.98</ele>
        <time>2017-03-26T08:38:33Z</time>
      </trkpt>
      <trkpt lat="43.35386" lon="-0.54765">
        <ele>204.42</ele>
        <time>2017-03-26T08:38:42Z</time>
      </trkpt>
      <trkpt lat="43.35404" lon="-0.54767">
        <ele>205.38</ele>
        <time>2017-03-26T08:38:51Z</time>
      </trkpt>
      <trkpt lat="43.35425" lon="-0.54775">
        <ele>204.9</ele>
        <time>2017-03-26T08:39:01Z</time>
      </trkpt>
      <trkpt lat="43.35452" lon="-0.54791">
        <ele>202.98</ele>
        <time>2017-03-26T08:39:13Z</time>
      </trkpt>
      <trkpt lat="43.35472" lon="-0.54798">
        <ele>201.05</ele>
        <time>2017-03-26T08:39:20Z</time>
      </trkpt>
      <trkpt lat="43.35474" lon="-0.548">
        <ele>201.05</ele>
        <time>2017-03-26T08:39:21Z</time>
      </trkpt>
      <trkpt lat="43.35475" lon="-0.54802">
        <ele>200.57</ele>
        <time>2017-03-26T08:39:22Z</time>
      </trkpt>
      <trkpt lat="43.35476" lon="-0.54806">
        <ele>200.57</ele>
        <time>2017-03-26T08:39:23Z</time>
      </trkpt>
      <trkpt lat="43.35478" lon="-0.54811">
        <ele>200.57</ele>
        <time>2017-03-26T08:39:24Z</time>
      </trkpt>
      <trkpt lat="43.35481" lon="-0.54817">
        <ele>200.57</ele>
        <time>2017-03-26T08:39:25Z</time>
      </trkpt>
      <trkpt lat="43.35484" lon="-0.54824">
        <ele>201.05</ele>
        <time>2017-03-26T08:39:26Z</time>
      </trkpt>
      <trkpt lat="43.35504" lon="-0.5487">
        <ele>200.57</ele>
        <time>2017-03-26T08:39:34Z</time>
      </trkpt>
      <trkpt lat="43.35508" lon="-0.54881">
        <ele>200.57</ele>
        <time>2017-03-26T08:39:38Z</time>
      </trkpt>
      <trkpt lat="43.35509" lon="-0.54885">
        <ele>200.57</ele>
        <time>2017-03-26T08:39:39Z</time>
      </trkpt>
      <trkpt lat="43.35509" lon="-0.54888">
        <ele>200.09</ele>
        <time>2017-03-26T08:39:40Z</time>
      </trkpt>
      <trkpt lat="43.3551" lon="-0.54908">
        <ele>197.21</ele>
        <time>2017-03-26T08:39:45Z</time>
      </trkpt>
      <trkpt lat="43.35511" lon="-0.54912">
        <ele>197.21</ele>
        <time>2017-03-26T08:39:46Z</time>
      </trkpt>
      <trkpt lat="43.35512" lon="-0.54916">
        <ele>196.73</ele>
        <time>2017-03-26T08:39:47Z</time>
      </trkpt>
      <trkpt lat="43.35514" lon="-0.5492">
        <ele>196.25</ele>
        <time>2017-03-26T08:39:48Z</time>
      </trkpt>
      <trkpt lat="43.35515" lon="-0.54922">
        <ele>196.25</ele>
        <time>2017-03-26T08:39:49Z</time>
      </trkpt>
      <trkpt lat="43.35517" lon="-0.54924">
        <ele>196.25</ele>
        <time>2017-03-26T08:39:50Z</time>
      </trkpt>
      <trkpt lat="43.35525" lon="-0.54957">
        <ele>196.73</ele>
        <time>2017-03-26T08:40:01Z</time>
      </trkpt>
      <trkpt lat="43.35532" lon="-0.54971">
        <ele>197.21</ele>
        <time>2017-03-26T08:40:09Z</time>
      </trkpt>
      <trkpt lat="43.35538" lon="-0.54986">
        <ele>199.13</ele>
        <time>2017-03-26T08:40:15Z</time>
      </trkpt>
      <trkpt lat="43.35548" lon="-0.55007">
        <ele>199.61</ele>
        <time>2017-03-26T08:40:25Z</time>
      </trkpt>
      <trkpt lat="43.35552" lon="-0.55013">
        <ele>200.09</ele>
        <time>2017-03-26T08:40:29Z</time>
      </trkpt>
      <trkpt lat="43.3556" lon="-0.55027">
        <ele>201.05</ele>
        <time>2017-03-26T08:40:37Z</time>
      </trkpt>
      <trkpt lat="43.35565" lon="-0.55033">
        <ele>200.09</ele>
        <time>2017-03-26T08:40:41Z</time>
      </trkpt>
      <trkpt lat="43.35573" lon="-0.55051">
        <ele>198.65</ele>
        <time>2017-03-26T08:40:49Z</time>
      </trkpt>
      <trkpt lat="43.35577" lon="-0.55065">
        <ele>197.21</ele>
        <time>2017-03-26T08:40:55Z</time>
      </trkpt>
      <trkpt lat="43.35586" lon="-0.55088">
        <ele>195.28</ele>
        <time>2017-03-26T08:41:05Z</time>
      </trkpt>
      <trkpt lat="43.35587" lon="-0.55091">
        <ele>194.8</ele>
        <time>2017-03-26T08:41:12Z</time>
      </trkpt>
      <trkpt lat="43.35596" lon="-0.55101">
        <ele>196.25</ele>
        <time>2017-03-26T08:41:23Z</time>
      </trkpt>
      <trkpt lat="43.35601" lon="-0.55106">
        <ele>197.21</ele>
        <time>2017-03-26T08:41:33Z</time>
      </trkpt>
      <trkpt lat="43.35605" lon="-0.55105">
        <ele>195.77</ele>
        <time>2017-03-26T08:41:40Z</time>
      </trkpt>
      <trkpt lat="43.35608" lon="-0.55104">
        <ele>194.32</ele>
        <time>2017-03-26T08:41:43Z</time>
      </trkpt>
      <trkpt lat="43.35618" lon="-0.55118">
        <ele>193.36</ele>
        <time>2017-03-26T08:41:51Z</time>
      </trkpt>
      <trkpt lat="43.35628" lon="-0.55139">
        <ele>193.36</ele>
        <time>2017-03-26T08:42:01Z</time>
      </trkpt>
      <trkpt lat="43.35639" lon="-0.55159">
        <ele>190.96</ele>
        <time>2017-03-26T08:42:06Z</time>
      </trkpt>
      <trkpt lat="43.35652" lon="-0.55177">
        <ele>189.52</ele>
        <time>2017-03-26T08:42:18Z</time>
      </trkpt>
      <trkpt lat="43.35655" lon="-0.55181">
        <ele>189.04</ele>
        <time>2017-03-26T08:42:29Z</time>
      </trkpt>
      <trkpt lat="43.35657" lon="-0.5519">
        <ele>189.52</ele>
        <time>2017-03-26T08:42:40Z</time>
      </trkpt>
      <trkpt lat="43.3566" lon="-0.55206">
        <ele>190</ele>
        <time>2017-03-26T08:42:50Z</time>
      </trkpt>
      <trkpt lat="43.35662" lon="-0.55215">
        <ele>189.52</ele>
        <time>2017-03-26T08:42:54Z</time>
      </trkpt>
      <trkpt lat="43.35664" lon="-0.55246">
        <ele>188.08</ele>
        <time>2017-03-26T08:43:05Z</time>
      </trkpt>
      <trkpt lat="43.35667" lon="-0.55257">
        <ele>186.15</ele>
        <time>2017-03-26T08:43:16Z</time>
      </trkpt>
      <trkpt lat="43.35667" lon="-0.55259">
        <ele>185.19</ele>
        <time>2017-03-26T08:43:36Z</time>
      </trkpt>
      <trkpt lat="43.35667" lon="-0.55259">
        <ele>185.67</ele>
        <time>2017-03-26T08:43:39Z</time>
      </trkpt>
      <trkpt lat="43.35671" lon="-0.5526">
        <ele>184.23</ele>
        <time>2017-03-26T08:43:44Z</time>
      </trkpt>
      <trkpt lat="43.35673" lon="-0.55266">
        <ele>182.79</ele>
        <time>2017-03-26T08:43:48Z</time>
      </trkpt>
      <trkpt lat="43.35679" lon="-0.55282">
        <ele>181.35</ele>
        <time>2017-03-26T08:43:59Z</time>
      </trkpt>
      <trkpt lat="43.35679" lon="-0.55279">
        <ele>183.75</ele>
        <time>2017-03-26T08:44:13Z</time>
      </trkpt>
      <trkpt lat="43.35678" lon="-0.55276">
        <ele>185.19</ele>
        <time>2017-03-26T08:44:18Z</time>
      </trkpt>
      <trkpt lat="43.35677" lon="-0.55268">
        <ele>186.15</ele>
        <time>2017-03-26T08:44:26Z</time>
      </trkpt>
      <trkpt lat="43.35678" lon="-0.55263">
        <ele>186.15</ele>
        <time>2017-03-26T08:44:38Z</time>
      </trkpt>
      <trkpt lat="43.35675" lon="-0.5526">
        <ele>187.11</ele>
        <time>2017-03-26T08:45:05Z</time>
      </trkpt>
      <trkpt lat="43.35669" lon="-0.55255">
        <ele>190.96</ele>
        <time>2017-03-26T08:45:19Z</time>
      </trkpt>
      <trkpt lat="43.35667" lon="-0.55251">
        <ele>190.96</ele>
        <time>2017-03-26T08:45:24Z</time>
      </trkpt>
      <trkpt lat="43.35665" lon="-0.55224">
        <ele>192.88</ele>
        <time>2017-03-26T08:45:38Z</time>
      </trkpt>
      <trkpt lat="43.3566" lon="-0.55195">
        <ele>192.4</ele>
        <time>2017-03-26T08:45:50Z</time>
      </trkpt>
      <trkpt lat="43.35659" lon="-0.55188">
        <ele>193.36</ele>
        <time>2017-03-26T08:46:01Z</time>
      </trkpt>
      <trkpt lat="43.35658" lon="-0.55184">
        <ele>194.8</ele>
        <time>2017-03-26T08:46:06Z</time>
      </trkpt>
      <trkpt lat="43.35655" lon="-0.55181">
        <ele>195.28</ele>
        <time>2017-03-26T08:46:09Z</time>
      </trkpt>
      <trkpt lat="43.35651" lon="-0.55175">
        <ele>195.28</ele>
        <time>2017-03-26T08:46:14Z</time>
      </trkpt>
      <trkpt lat="43.35647" lon="-0.55167">
        <ele>195.77</ele>
        <time>2017-03-26T08:46:30Z</time>
      </trkpt>
      <trkpt lat="43.35641" lon="-0.55158">
        <ele>195.77</ele>
        <time>2017-03-26T08:46:44Z</time>
      </trkpt>
      <trkpt lat="43.35628" lon="-0.55134">
        <ele>198.65</ele>
        <time>2017-03-26T08:46:57Z</time>
      </trkpt>
      <trkpt lat="43.35618" lon="-0.55115">
        <ele>200.57</ele>
        <time>2017-03-26T08:47:09Z</time>
      </trkpt>
      <trkpt lat="43.35609" lon="-0.551">
        <ele>199.61</ele>
        <time>2017-03-26T08:47:19Z</time>
      </trkpt>
      <trkpt lat="43.356" lon="-0.55086">
        <ele>200.09</ele>
        <time>2017-03-26T08:47:29Z</time>
      </trkpt>
      <trkpt lat="43.35594" lon="-0.55072">
        <ele>198.17</ele>
        <time>2017-03-26T08:47:41Z</time>
      </trkpt>
      <trkpt lat="43.35592" lon="-0.55066">
        <ele>197.69</ele>
        <time>2017-03-26T08:47:55Z</time>
      </trkpt>
      <trkpt lat="43.3559" lon="-0.55062">
        <ele>196.73</ele>
        <time>2017-03-26T08:48:06Z</time>
      </trkpt>
      <trkpt lat="43.35586" lon="-0.55057">
        <ele>197.21</ele>
        <time>2017-03-26T08:48:17Z</time>
      </trkpt>
      <trkpt lat="43.35582" lon="-0.55049">
        <ele>197.21</ele>
        <time>2017-03-26T08:48:29Z</time>
      </trkpt>
      <trkpt lat="43.35581" lon="-0.55046">
        <ele>197.21</ele>
        <time>2017-03-26T08:48:31Z</time>
      </trkpt>
      <trkpt lat="43.35567" lon="-0.55016">
        <ele>198.17</ele>
        <time>2017-03-26T08:48:47Z</time>
      </trkpt>
      <trkpt lat="43.35555" lon="-0.54994">
        <ele>195.77</ele>
        <time>2017-03-26T08:48:58Z</time>
      </trkpt>
      <trkpt lat="43.35547" lon="-0.54988">
        <ele>198.17</ele>
        <time>2017-03-26T08:49:11Z</time>
      </trkpt>
      <trkpt lat="43.3554" lon="-0.54977">
        <ele>195.77</ele>
        <time>2017-03-26T08:49:23Z</time>
      </trkpt>
      <trkpt lat="43.35539" lon="-0.54976">
        <ele>195.28</ele>
        <time>2017-03-26T08:49:24Z</time>
      </trkpt>
      <trkpt lat="43.35529" lon="-0.54961">
        <ele>190.48</ele>
        <time>2017-03-26T08:49:33Z</time>
      </trkpt>
      <trkpt lat="43.35526" lon="-0.54943">
        <ele>190.48</ele>
        <time>2017-03-26T08:49:40Z</time>
      </trkpt>
      <trkpt lat="43.35525" lon="-0.54939">
        <ele>190.48</ele>
        <time>2017-03-26T08:49:42Z</time>
      </trkpt>
      <trkpt lat="43.35517" lon="-0.54906">
        <ele>193.36</ele>
        <time>2017-03-26T08:49:53Z</time>
      </trkpt>
      <trkpt lat="43.35514" lon="-0.54878">
        <ele>196.25</ele>
        <time>2017-03-26T08:50:05Z</time>
      </trkpt>
      <trkpt lat="43.35504" lon="-0.54853">
        <ele>198.65</ele>
        <time>2017-03-26T08:50:17Z</time>
      </trkpt>
      <trkpt lat="43.35503" lon="-0.54851">
        <ele>199.13</ele>
        <time>2017-03-26T08:50:18Z</time>
      </trkpt>
      <trkpt lat="43.355" lon="-0.54828">
        <ele>205.86</ele>
        <time>2017-03-26T08:50:30Z</time>
      </trkpt>
      <trkpt lat="43.35497" lon="-0.54818">
        <ele>208.26</ele>
        <time>2017-03-26T08:50:37Z</time>
      </trkpt>
      <trkpt lat="43.35495" lon="-0.54807">
        <ele>210.67</ele>
        <time>2017-03-26T08:50:48Z</time>
      </trkpt>
      <trkpt lat="43.35489" lon="-0.54806">
        <ele>208.74</ele>
        <time>2017-03-26T08:50:56Z</time>
      </trkpt>
      <trkpt lat="43.35487" lon="-0.54806">
        <ele>208.74</ele>
        <time>2017-03-26T08:50:57Z</time>
      </trkpt>
      <trkpt lat="43.35475" lon="-0.54799">
        <ele>210.19</ele>
        <time>2017-03-26T08:51:07Z</time>
      </trkpt>
      <trkpt lat="43.35458" lon="-0.54787">
        <ele>212.59</ele>
        <time>2017-03-26T08:51:20Z</time>
      </trkpt>
      <trkpt lat="43.35443" lon="-0.54777">
        <ele>213.07</ele>
        <time>2017-03-26T08:51:31Z</time>
      </trkpt>
      <trkpt lat="43.35432" lon="-0.54773">
        <ele>212.59</ele>
        <time>2017-03-26T08:51:37Z</time>
      </trkpt>
      <trkpt lat="43.35411" lon="-0.54773">
        <ele>208.74</ele>
        <time>2017-03-26T08:51:47Z</time>
      </trkpt>
      <trkpt lat="43.35409" lon="-0.54774">
        <ele>208.26</ele>
        <time>2017-03-26T08:51:48Z</time>
      </trkpt>
      <trkpt lat="43.35407" lon="-0.54774">
        <ele>207.78</ele>
        <time>2017-03-26T08:51:49Z</time>
      </trkpt>
      <trkpt lat="43.35405" lon="-0.54773">
        <ele>207.78</ele>
        <time>2017-03-26T08:51:50Z</time>
      </trkpt>
      <trkpt lat="43.35378" lon="-0.54763">
        <ele>204.42</ele>
        <time>2017-03-26T08:52:02Z</time>
      </trkpt>
      <trkpt lat="43.35361" lon="-0.54759">
        <ele>204.42</ele>
        <time>2017-03-26T08:52:12Z</time>
      </trkpt>
      <trkpt lat="43.35352" lon="-0.54757">
        <ele>206.82</ele>
        <time>2017-03-26T08:52:37Z</time>
      </trkpt>
      <trkpt lat="43.35351" lon="-0.54759">
        <ele>207.3</ele>
        <time>2017-03-26T08:52:43Z</time>
      </trkpt>
      <trkpt lat="43.35351" lon="-0.54777">
        <ele>205.86</ele>
        <time>2017-03-26T08:52:49Z</time>
      </trkpt>
      <trkpt lat="43.35347" lon="-0.5478">
        <ele>204.9</ele>
        <time>2017-03-26T08:52:51Z</time>
      </trkpt>
      <trkpt lat="43.35344" lon="-0.54782">
        <ele>203.94</ele>
        <time>2017-03-26T08:52:52Z</time>
      </trkpt>
      <trkpt lat="43.35342" lon="-0.54784">
        <ele>203.46</ele>
        <time>2017-03-26T08:52:53Z</time>
      </trkpt>
      <trkpt lat="43.35336" lon="-0.54809">
        <ele>200.09</ele>
        <time>2017-03-26T08:52:58Z</time>
      </trkpt>
      <trkpt lat="43.35329" lon="-0.54837">
        <ele>196.73</ele>
        <time>2017-03-26T08:53:02Z</time>
      </trkpt>
      <trkpt lat="43.35312" lon="-0.54928">
        <ele>184.71</ele>
        <time>2017-03-26T08:53:12Z</time>
      </trkpt>
      <trkpt lat="43.35318" lon="-0.55017">
        <ele>168.37</ele>
        <time>2017-03-26T08:53:23Z</time>
      </trkpt>
      <trkpt lat="43.35317" lon="-0.55029">
        <ele>159.72</ele>
        <time>2017-03-26T08:53:29Z</time>
      </trkpt>
      <trkpt lat="43.35314" lon="-0.5502">
        <ele>152.03</ele>
        <time>2017-03-26T08:54:05Z</time>
      </trkpt>
      <trkpt lat="43.35314" lon="-0.55022">
        <ele>155.87</ele>
        <time>2017-03-26T08:54:47Z</time>
      </trkpt>
      <trkpt lat="43.35315" lon="-0.55024">
        <ele>159.24</ele>
        <time>2017-03-26T08:55:26Z</time>
      </trkpt>
      <trkpt lat="43.35317" lon="-0.55024">
        <ele>160.68</ele>
        <time>2017-03-26T08:56:07Z</time>
      </trkpt>
      <trkpt lat="43.35317" lon="-0.55023">
        <ele>159.72</ele>
        <time>2017-03-26T08:56:48Z</time>
      </trkpt>
      <trkpt lat="43.35318" lon="-0.55027">
        <ele>162.12</ele>
        <time>2017-03-26T08:57:29Z</time>
      </trkpt>
      <trkpt lat="43.35318" lon="-0.55027">
        <ele>163.56</ele>
        <time>2017-03-26T08:58:12Z</time>
      </trkpt>
      <trkpt lat="43.35317" lon="-0.55026">
        <ele>164.04</ele>
        <time>2017-03-26T08:58:40Z</time>
      </trkpt>
      <trkpt lat="43.35318" lon="-0.55039">
        <ele>159.24</ele>
        <time>2017-03-26T08:58:47Z</time>
      </trkpt>
      <trkpt lat="43.3532" lon="-0.55043">
        <ele>159.24</ele>
        <time>2017-03-26T08:58:49Z</time>
      </trkpt>
      <trkpt lat="43.3532" lon="-0.55049">
        <ele>156.35</ele>
        <time>2017-03-26T08:59:00Z</time>
      </trkpt>
      <trkpt lat="43.35314" lon="-0.55052">
        <ele>153.47</ele>
        <time>2017-03-26T08:59:22Z</time>
      </trkpt>
      <trkpt lat="43.35316" lon="-0.55074">
        <ele>151.54</ele>
        <time>2017-03-26T08:59:35Z</time>
      </trkpt>
      <trkpt lat="43.3532" lon="-0.55123">
        <ele>143.37</ele>
        <time>2017-03-26T08:59:45Z</time>
      </trkpt>
      <trkpt lat="43.35317" lon="-0.5513">
        <ele>141.93</ele>
        <time>2017-03-26T08:59:47Z</time>
      </trkpt>
      <trkpt lat="43.35313" lon="-0.55134">
        <ele>140.97</ele>
        <time>2017-03-26T08:59:48Z</time>
      </trkpt>
      <trkpt lat="43.35309" lon="-0.55139">
        <ele>140.01</ele>
        <time>2017-03-26T08:59:49Z</time>
      </trkpt>
      <trkpt lat="43.35277" lon="-0.55184">
        <ele>132.32</ele>
        <time>2017-03-26T08:59:59Z</time>
      </trkpt>
      <trkpt lat="43.35274" lon="-0.55188">
        <ele>130.88</ele>
        <time>2017-03-26T09:00:00Z</time>
      </trkpt>
      <trkpt lat="43.35272" lon="-0.55193">
        <ele>129.92</ele>
        <time>2017-03-26T09:00:01Z</time>
      </trkpt>
      <trkpt lat="43.3527" lon="-0.55196">
        <ele>128.95</ele>
        <time>2017-03-26T09:00:02Z</time>
      </trkpt>
      <trkpt lat="43.35268" lon="-0.55199">
        <ele>127.99</ele>
        <time>2017-03-26T09:00:03Z</time>
      </trkpt>
      <trkpt lat="43.35264" lon="-0.55201">
        <ele>127.51</ele>
        <time>2017-03-26T09:00:04Z</time>
      </trkpt>
      <trkpt lat="43.35259" lon="-0.55206">
        <ele>126.55</ele>
        <time>2017-03-26T09:00:05Z</time>
      </trkpt>
      <trkpt lat="43.35255" lon="-0.55212">
        <ele>125.59</ele>
        <time>2017-03-26T09:00:06Z</time>
      </trkpt>
      <trkpt lat="43.35224" lon="-0.5526">
        <ele>117.9</ele>
        <time>2017-03-26T09:00:15Z</time>
      </trkpt>
      <trkpt lat="43.35223" lon="-0.55314">
        <ele>116.46</ele>
        <time>2017-03-26T09:00:26Z</time>
      </trkpt>
      <trkpt lat="43.35222" lon="-0.55319">
        <ele>116.94</ele>
        <time>2017-03-26T09:00:30Z</time>
      </trkpt>
    </trkseg>
  </trk>
</gpx>